St. Margarethen - Festspielgelnde
Wetterdaten: Donnerstag, 05.01.2012
Datum Zeit Temp. A. Feuchte A. Regen Wind Richtung Richtung Windben
05.01.2012 00:00 4,9 C 56 % 0,0 l/m 9,1 km/h (2 Bft) W 267 12,9 km/h (3 Bft)
05.01.2012 00:01 5,0 C 56 % 0,0 l/m 8,4 km/h (2 Bft) W 264 12,9 km/h (3 Bft)
05.01.2012 00:02 5,1 C 55 % 0,0 l/m 9,9 km/h (2 Bft) S-SW 200 12,9 km/h (3 Bft)
05.01.2012 00:03 5,1 C 55 % 0,0 l/m 7,5 km/h (2 Bft) S 170 11,3 km/h (2 Bft)
05.01.2012 00:04 5,1 C 54 % 0,0 l/m 12,4 km/h (3 Bft) W-SW 256 14,5 km/h (3 Bft)
05.01.2012 00:05 5,1 C 55 % 0,0 l/m 8,0 km/h (2 Bft) W 280 14,5 km/h (3 Bft)
05.01.2012 00:06 5,2 C 54 % 0,0 l/m 7,5 km/h (2 Bft) SW 235 12,9 km/h (3 Bft)
05.01.2012 00:07 5,2 C 54 % 0,0 l/m 10,1 km/h (2 Bft) W-SW 249 14,5 km/h (3 Bft)
05.01.2012 00:08 5,2 C 54 % 0,0 l/m 10,4 km/h (2 Bft) W 270 14,5 km/h (3 Bft)
05.01.2012 00:09 5,3 C 54 % 0,0 l/m 11,7 km/h (2 Bft) W 260 16,1 km/h (3 Bft)
05.01.2012 00:10 5,3 C 54 % 0,0 l/m 10,5 km/h (2 Bft) NW 322 12,9 km/h (3 Bft)
05.01.2012 00:11 5,3 C 54 % 0,0 l/m 7,1 km/h (2 Bft) W 260 12,9 km/h (3 Bft)
05.01.2012 00:12 5,3 C 53 % 0,0 l/m 11,3 km/h (2 Bft) W 271 17,7 km/h (3 Bft)
05.01.2012 00:13 5,3 C 53 % 0,0 l/m 12,2 km/h (2 Bft) W-NW 284 17,7 km/h (3 Bft)
05.01.2012 00:14 5,3 C 53 % 0,0 l/m 10,1 km/h (2 Bft) NW 308 11,3 km/h (2 Bft)
05.01.2012 00:15 5,3 C 53 % 0,0 l/m 10,1 km/h (2 Bft) W-NW 287 17,7 km/h (3 Bft)
05.01.2012 00:16 5,3 C 53 % 0,0 l/m 8,3 km/h (2 Bft) S-SW 201 14,5 km/h (3 Bft)
05.01.2012 00:17 5,3 C 53 % 0,0 l/m 12,9 km/h (3 Bft) W-SW 241 17,7 km/h (3 Bft)
05.01.2012 00:18 5,4 C 53 % 0,0 l/m 12,8 km/h (3 Bft) SW 231 19,3 km/h (3 Bft)
05.01.2012 00:19 5,4 C 53 % 0,0 l/m 13,7 km/h (3 Bft) NW 322 20,9 km/h (4 Bft)
05.01.2012 00:20 5,4 C 53 % 0,0 l/m 14,5 km/h (3 Bft) W 262 24,1 km/h (4 Bft)
05.01.2012 00:21 5,4 C 53 % 0,0 l/m 12,6 km/h (3 Bft) W 271 17,7 km/h (3 Bft)
05.01.2012 00:22 5,4 C 53 % 0,0 l/m 11,3 km/h (2 Bft) W-NW 293 14,5 km/h (3 Bft)
05.01.2012 00:23 5,4 C 53 % 0,0 l/m 11,8 km/h (2 Bft) O-NO 68 16,1 km/h (3 Bft)
05.01.2012 00:24 5,4 C 53 % 0,0 l/m 8,6 km/h (2 Bft) SW 236 12,9 km/h (3 Bft)
05.01.2012 00:25 5,4 C 53 % 0,0 l/m 11,1 km/h (2 Bft) W-NW 288 19,3 km/h (3 Bft)
05.01.2012 00:26 5,5 C 53 % 0,0 l/m 7,9 km/h (2 Bft) S-SW 212 11,3 km/h (2 Bft)
05.01.2012 00:27 5,5 C 53 % 0,0 l/m 12,6 km/h (3 Bft) NW 321 17,7 km/h (3 Bft)
05.01.2012 00:28 5,5 C 53 % 0,0 l/m 12,5 km/h (3 Bft) W-SW 243 22,5 km/h (4 Bft)
05.01.2012 00:29 5,6 C 52 % 0,0 l/m 13,3 km/h (3 Bft) SW 228 24,1 km/h (4 Bft)
05.01.2012 00:30 5,6 C 52 % 0,0 l/m 13,5 km/h (3 Bft) N-NW 327 20,9 km/h (4 Bft)
05.01.2012 00:31 5,6 C 52 % 0,0 l/m 12,2 km/h (2 Bft) SW 229 20,9 km/h (4 Bft)
05.01.2012 00:32 5,6 C 53 % 0,0 l/m 12,8 km/h (3 Bft) W 281 20,9 km/h (4 Bft)
05.01.2012 00:33 5,7 C 53 % 0,0 l/m 16,6 km/h (3 Bft) W-SW 253 27,4 km/h (4 Bft)
05.01.2012 00:34 5,7 C 53 % 0,0 l/m 15,6 km/h (3 Bft) W-SW 257 25,7 km/h (4 Bft)
05.01.2012 00:35 5,7 C 53 % 0,0 l/m 15,2 km/h (3 Bft) W-SW 252 22,5 km/h (4 Bft)
05.01.2012 00:36 5,7 C 53 % 0,0 l/m 13,6 km/h (3 Bft) N 6 17,7 km/h (3 Bft)
05.01.2012 00:37 5,7 C 52 % 0,0 l/m 18,1 km/h (3 Bft) W 274 29,0 km/h (5 Bft)
05.01.2012 00:38 5,8 C 53 % 0,0 l/m 11,7 km/h (2 Bft) S-SO 167 16,1 km/h (3 Bft)
05.01.2012 00:39 5,7 C 53 % 0,0 l/m 11,2 km/h (2 Bft) W-NW 290 17,7 km/h (3 Bft)
05.01.2012 00:40 5,7 C 53 % 0,0 l/m 13,2 km/h (3 Bft) W 267 22,5 km/h (4 Bft)
05.01.2012 00:41 5,7 C 53 % 0,0 l/m 13,6 km/h (3 Bft) W 272 20,9 km/h (4 Bft)
05.01.2012 00:42 5,7 C 52 % 0,0 l/m 14,4 km/h (3 Bft) N-NW 328 20,9 km/h (4 Bft)
05.01.2012 00:43 5,7 C 52 % 0,0 l/m 9,7 km/h (2 Bft) SW 219 17,7 km/h (3 Bft)
05.01.2012 00:44 5,7 C 52 % 0,0 l/m 9,3 km/h (2 Bft) W 274 20,9 km/h (4 Bft)
05.01.2012 00:45 5,7 C 53 % 0,0 l/m 9,3 km/h (2 Bft) W 276 14,5 km/h (3 Bft)
05.01.2012 00:46 5,7 C 53 % 0,0 l/m 10,5 km/h (2 Bft) W-SW 239 19,3 km/h (3 Bft)
05.01.2012 00:47 5,7 C 52 % 0,0 l/m 11,6 km/h (2 Bft) N-NO 30 19,3 km/h (3 Bft)
05.01.2012 00:48 5,7 C 52 % 0,0 l/m 13,7 km/h (3 Bft) W-SW 252 19,3 km/h (3 Bft)
05.01.2012 00:49 5,8 C 51 % 0,0 l/m 10,5 km/h (2 Bft) N 1 20,9 km/h (4 Bft)
05.01.2012 00:50 5,8 C 52 % 0,0 l/m 7,5 km/h (2 Bft) W 278 14,5 km/h (3 Bft)
05.01.2012 00:51 5,8 C 52 % 0,0 l/m 10,9 km/h (2 Bft) W 278 17,7 km/h (3 Bft)
05.01.2012 00:52 5,7 C 52 % 0,0 l/m 5,2 km/h (1 Bft) W-SW 256 9,7 km/h (2 Bft)
05.01.2012 00:53 5,7 C 52 % 0,0 l/m 9,6 km/h (2 Bft) N-NW 343 19,3 km/h (3 Bft)
05.01.2012 00:54 5,7 C 52 % 0,0 l/m 5,4 km/h (1 Bft) O-NO 67 9,7 km/h (2 Bft)
05.01.2012 00:55 5,7 C 52 % 0,0 l/m 9,9 km/h (2 Bft) W-NW 293 16,1 km/h (3 Bft)
05.01.2012 00:56 5,7 C 52 % 0,0 l/m 14,3 km/h (3 Bft) W-SW 253 17,7 km/h (3 Bft)
05.01.2012 00:57 5,7 C 51 % 0,0 l/m 12,1 km/h (2 Bft) W-SW 243 17,7 km/h (3 Bft)
05.01.2012 00:58 5,7 C 51 % 0,0 l/m 10,2 km/h (2 Bft) W-SW 246 12,9 km/h (3 Bft)
05.01.2012 00:59 5,7 C 51 % 0,0 l/m 11,7 km/h (2 Bft) W-SW 246 16,1 km/h (3 Bft)
05.01.2012 01:00 5,8 C 51 % 0,0 l/m 14,9 km/h (3 Bft) W-SW 240 17,7 km/h (3 Bft)
05.01.2012 01:01 5,8 C 51 % 0,0 l/m 11,4 km/h (2 Bft) W 262 16,1 km/h (3 Bft)
05.01.2012 01:02 5,8 C 51 % 0,0 l/m 11,1 km/h (2 Bft) W-SW 256 17,7 km/h (3 Bft)
05.01.2012 01:03 5,8 C 51 % 0,0 l/m 11,7 km/h (2 Bft) W 263 16,1 km/h (3 Bft)
05.01.2012 01:04 5,8 C 51 % 0,0 l/m 9,5 km/h (2 Bft) SW 224 12,9 km/h (3 Bft)
05.01.2012 01:05 5,8 C 51 % 0,0 l/m 8,9 km/h (2 Bft) SW 233 11,3 km/h (2 Bft)
05.01.2012 01:06 5,8 C 51 % 0,0 l/m 13,9 km/h (3 Bft) W-SW 243 19,3 km/h (3 Bft)
05.01.2012 01:07 5,8 C 50 % 0,0 l/m 12,4 km/h (3 Bft) W-SW 246 16,1 km/h (3 Bft)
05.01.2012 01:08 5,8 C 51 % 0,0 l/m 7,7 km/h (2 Bft) W-SW 248 11,3 km/h (2 Bft)
05.01.2012 01:09 5,8 C 51 % 0,0 l/m 10,3 km/h (2 Bft) W-SW 238 16,1 km/h (3 Bft)
05.01.2012 01:10 5,8 C 51 % 0,0 l/m 11,5 km/h (2 Bft) W-SW 257 14,5 km/h (3 Bft)
05.01.2012 01:11 5,8 C 51 % 0,0 l/m 7,8 km/h (2 Bft) W-SW 257 11,3 km/h (2 Bft)
05.01.2012 01:12 5,7 C 51 % 0,0 l/m 6,7 km/h (2 Bft) W-SW 257 11,3 km/h (2 Bft)
05.01.2012 01:13 5,7 C 51 % 0,0 l/m 7,3 km/h (2 Bft) W-SW 253 11,3 km/h (2 Bft)
05.01.2012 01:14 5,7 C 52 % 0,0 l/m 8,0 km/h (2 Bft) W-SW 238 11,3 km/h (2 Bft)
05.01.2012 01:15 5,6 C 52 % 0,0 l/m 8,3 km/h (2 Bft) W 277 11,3 km/h (2 Bft)
05.01.2012 01:16 5,6 C 52 % 0,0 l/m 4,2 km/h (1 Bft) N-NO 30 8,0 km/h (2 Bft)
05.01.2012 01:17 5,6 C 52 % 0,0 l/m 7,0 km/h (2 Bft) W 273 11,3 km/h (2 Bft)
05.01.2012 01:18 5,5 C 52 % 0,0 l/m 3,4 km/h (1 Bft) W-NW 285 6,4 km/h (2 Bft)
05.01.2012 01:19 5,5 C 52 % 0,0 l/m 5,1 km/h (1 Bft) S 190 8,0 km/h (2 Bft)
05.01.2012 01:20 5,4 C 52 % 0,0 l/m 5,0 km/h (1 Bft) W-SW 248 6,4 km/h (2 Bft)
05.01.2012 01:21 5,4 C 52 % 0,0 l/m 8,5 km/h (2 Bft) SW 231 9,7 km/h (2 Bft)
05.01.2012 01:22 5,3 C 52 % 0,0 l/m 10,2 km/h (2 Bft) SW 235 12,9 km/h (3 Bft)
05.01.2012 01:23 5,3 C 53 % 0,0 l/m 9,3 km/h (2 Bft) SW 222 11,3 km/h (2 Bft)
05.01.2012 01:24 5,3 C 54 % 0,0 l/m 10,1 km/h (2 Bft) SW 217 12,9 km/h (3 Bft)
05.01.2012 01:25 5,2 C 54 % 0,0 l/m 8,2 km/h (2 Bft) S-SW 194 9,7 km/h (2 Bft)
05.01.2012 01:26 5,1 C 55 % 0,0 l/m 9,6 km/h (2 Bft) SW 218 12,9 km/h (3 Bft)
05.01.2012 01:27 5,0 C 55 % 0,0 l/m 7,4 km/h (2 Bft) S-SW 195 9,7 km/h (2 Bft)
05.01.2012 01:28 4,9 C 56 % 0,0 l/m 7,5 km/h (2 Bft) S-SW 208 9,7 km/h (2 Bft)
05.01.2012 01:29 4,8 C 56 % 0,0 l/m 9,1 km/h (2 Bft) SW 217 11,3 km/h (2 Bft)
05.01.2012 01:30 4,7 C 56 % 0,0 l/m 8,0 km/h (2 Bft) S-SW 209 11,3 km/h (2 Bft)
05.01.2012 01:31 4,7 C 55 % 0,0 l/m 10,0 km/h (2 Bft) S-SW 211 12,9 km/h (3 Bft)
05.01.2012 01:32 4,7 C 55 % 0,0 l/m 8,2 km/h (2 Bft) SW 219 11,3 km/h (2 Bft)
05.01.2012 01:33 4,8 C 54 % 0,0 l/m 9,3 km/h (2 Bft) SW 222 11,3 km/h (2 Bft)
05.01.2012 01:34 4,8 C 54 % 0,0 l/m 7,5 km/h (2 Bft) SW 224 9,7 km/h (2 Bft)
05.01.2012 01:35 4,8 C 55 % 0,0 l/m 5,5 km/h (1 Bft) S-SW 210 8,0 km/h (2 Bft)
05.01.2012 01:36 4,8 C 55 % 0,0 l/m 7,1 km/h (2 Bft) W-SW 238 8,0 km/h (2 Bft)
05.01.2012 01:37 4,8 C 55 % 0,0 l/m 4,1 km/h (1 Bft) W-SW 255 4,8 km/h (1 Bft)
05.01.2012 01:38 4,8 C 55 % 0,0 l/m 5,7 km/h (1 Bft) W-SW 239 8,0 km/h (2 Bft)
05.01.2012 01:39 4,8 C 54 % 0,0 l/m 7,3 km/h (2 Bft) W-SW 239 8,0 km/h (2 Bft)
05.01.2012 01:40 4,8 C 54 % 0,0 l/m 8,4 km/h (2 Bft) W-SW 250 9,7 km/h (2 Bft)
05.01.2012 01:41 4,9 C 54 % 0,0 l/m 7,2 km/h (2 Bft) W-SW 243 11,3 km/h (2 Bft)
05.01.2012 01:42 4,9 C 54 % 0,0 l/m 5,6 km/h (1 Bft) W-SW 249 9,7 km/h (2 Bft)
05.01.2012 01:43 4,9 C 54 % 0,0 l/m 6,4 km/h (2 Bft) W-SW 248 9,7 km/h (2 Bft)
05.01.2012 01:44 5,0 C 53 % 0,0 l/m 3,0 km/h (1 Bft) SW 225 4,8 km/h (1 Bft)
05.01.2012 01:45 5,0 C 53 % 0,0 l/m 4,4 km/h (1 Bft) W-SW 257 6,4 km/h (2 Bft)
05.01.2012 01:46 5,0 C 53 % 0,0 l/m 3,9 km/h (1 Bft) W-SW 246 6,4 km/h (2 Bft)
05.01.2012 01:47 5,0 C 53 % 0,0 l/m 9,4 km/h (2 Bft) SW 231 12,9 km/h (3 Bft)
05.01.2012 01:48 5,1 C 52 % 0,0 l/m 9,9 km/h (2 Bft) SW 225 11,3 km/h (2 Bft)
05.01.2012 01:49 5,1 C 52 % 0,0 l/m 9,4 km/h (2 Bft) W-SW 237 11,3 km/h (2 Bft)
05.01.2012 01:50 5,1 C 52 % 0,0 l/m 7,8 km/h (2 Bft) S-SW 211 11,3 km/h (2 Bft)
05.01.2012 01:51 5,1 C 53 % 0,0 l/m 5,8 km/h (2 Bft) SW 214 8,0 km/h (2 Bft)
05.01.2012 01:52 5,1 C 53 % 0,0 l/m 7,2 km/h (2 Bft) SW 228 9,7 km/h (2 Bft)
05.01.2012 01:53 5,0 C 52 % 0,0 l/m 6,4 km/h (2 Bft) W-SW 241 8,0 km/h (2 Bft)
05.01.2012 01:54 5,0 C 53 % 0,0 l/m 6,0 km/h (2 Bft) SW 223 8,0 km/h (2 Bft)
05.01.2012 01:55 4,9 C 53 % 0,0 l/m 4,8 km/h (1 Bft) W-SW 242 4,8 km/h (1 Bft)
05.01.2012 01:56 4,9 C 53 % 0,0 l/m 4,7 km/h (1 Bft) SW 228 6,4 km/h (2 Bft)
05.01.2012 01:57 4,8 C 53 % 0,0 l/m 5,1 km/h (1 Bft) S-SW 210 6,4 km/h (2 Bft)
05.01.2012 01:58 4,8 C 54 % 0,0 l/m 5,0 km/h (1 Bft) S-SW 207 6,4 km/h (2 Bft)
05.01.2012 01:59 4,8 C 54 % 0,0 l/m 4,1 km/h (1 Bft) S-SW 208 6,4 km/h (2 Bft)
05.01.2012 02:00 4,7 C 54 % 0,0 l/m 3,3 km/h (1 Bft) SW 231 6,4 km/h (2 Bft)
05.01.2012 02:01 4,7 C 54 % 0,0 l/m 3,0 km/h (1 Bft) W-SW 245 4,8 km/h (1 Bft)
05.01.2012 02:02 4,7 C 54 % 0,0 l/m 1,5 km/h (1 Bft) W-SW 240 3,2 km/h (1 Bft)
05.01.2012 02:03 4,6 C 55 % 0,0 l/m 0,1 km/h (0 Bft) W-SW 240 1,6 km/h (1 Bft)
05.01.2012 02:04 4,6 C 55 % 0,0 l/m 0,1 km/h (0 Bft) W-SW 240 1,6 km/h (1 Bft)
05.01.2012 02:05 4,5 C 55 % 0,0 l/m 4,1 km/h (1 Bft) W-SW 238 6,4 km/h (2 Bft)
05.01.2012 02:06 4,4 C 55 % 0,0 l/m 5,5 km/h (1 Bft) SW 232 6,4 km/h (2 Bft)
05.01.2012 02:07 4,3 C 56 % 0,0 l/m 4,0 km/h (1 Bft) SW 226 4,8 km/h (1 Bft)
05.01.2012 02:08 4,3 C 56 % 0,0 l/m 3,5 km/h (1 Bft) S-SW 212 4,8 km/h (1 Bft)
05.01.2012 02:09 4,3 C 56 % 0,0 l/m 4,0 km/h (1 Bft) SW 232 4,8 km/h (1 Bft)
05.01.2012 02:10 4,3 C 56 % 0,0 l/m 2,7 km/h (1 Bft) S-SW 210 3,2 km/h (1 Bft)
05.01.2012 02:11 4,2 C 56 % 0,0 l/m 3,0 km/h (1 Bft) SW 224 4,8 km/h (1 Bft)
05.01.2012 02:12 4,2 C 56 % 0,0 l/m 3,2 km/h (1 Bft) W-SW 242 3,2 km/h (1 Bft)
05.01.2012 02:13 4,2 C 56 % 0,0 l/m 2,1 km/h (1 Bft) SW 235 3,2 km/h (1 Bft)
05.01.2012 02:14 4,2 C 57 % 0,0 l/m 0,7 km/h (0 Bft) SW 235 1,6 km/h (1 Bft)
05.01.2012 02:15 4,1 C 57 % 0,0 l/m 0,1 km/h (0 Bft) SW 235 1,6 km/h (1 Bft)
05.01.2012 02:16 4,1 C 57 % 0,0 l/m 0,8 km/h (0 Bft) W-SW 245 3,2 km/h (1 Bft)
05.01.2012 02:17 4,0 C 57 % 0,0 l/m 3,2 km/h (1 Bft) SW 232 4,8 km/h (1 Bft)
05.01.2012 02:18 4,0 C 57 % 0,0 l/m 4,5 km/h (1 Bft) W-SW 256 6,4 km/h (2 Bft)
05.01.2012 02:19 3,9 C 57 % 0,0 l/m 5,7 km/h (1 Bft) SW 222 6,4 km/h (2 Bft)
05.01.2012 02:20 3,9 C 57 % 0,0 l/m 5,6 km/h (1 Bft) SW 232 6,4 km/h (2 Bft)
05.01.2012 02:21 3,9 C 57 % 0,0 l/m 4,9 km/h (1 Bft) SW 232 6,4 km/h (2 Bft)
05.01.2012 02:22 3,9 C 57 % 0,0 l/m 4,7 km/h (1 Bft) W-SW 245 6,4 km/h (2 Bft)
05.01.2012 02:23 3,9 C 57 % 0,0 l/m 4,7 km/h (1 Bft) W 259 6,4 km/h (2 Bft)
05.01.2012 02:24 3,9 C 57 % 0,0 l/m 5,5 km/h (1 Bft) W-SW 243 6,4 km/h (2 Bft)
05.01.2012 02:25 3,8 C 57 % 0,0 l/m 6,2 km/h (2 Bft) SW 231 8,0 km/h (2 Bft)
05.01.2012 02:26 3,8 C 57 % 0,0 l/m 3,8 km/h (1 Bft) W-SW 248 6,4 km/h (2 Bft)
05.01.2012 02:27 3,8 C 57 % 0,0 l/m 5,3 km/h (1 Bft) W-SW 245 6,4 km/h (2 Bft)
05.01.2012 02:28 3,8 C 57 % 0,0 l/m 5,9 km/h (2 Bft) W-SW 249 6,4 km/h (2 Bft)
05.01.2012 02:29 3,8 C 57 % 0,0 l/m 5,3 km/h (1 Bft) W-NW 283 6,4 km/h (2 Bft)
05.01.2012 02:30 3,8 C 57 % 0,0 l/m 6,4 km/h (2 Bft) W-SW 242 9,7 km/h (2 Bft)
05.01.2012 02:31 3,8 C 57 % 0,0 l/m 7,0 km/h (2 Bft) W-SW 250 11,3 km/h (2 Bft)
05.01.2012 02:32 3,9 C 57 % 0,0 l/m 8,3 km/h (2 Bft) W 259 9,7 km/h (2 Bft)
05.01.2012 02:33 3,9 C 57 % 0,0 l/m 6,9 km/h (2 Bft) SW 214 9,7 km/h (2 Bft)
05.01.2012 02:34 3,9 C 56 % 0,0 l/m 7,5 km/h (2 Bft) SW 228 9,7 km/h (2 Bft)
05.01.2012 02:35 4,0 C 56 % 0,0 l/m 10,1 km/h (2 Bft) W-SW 249 11,3 km/h (2 Bft)
05.01.2012 02:36 4,1 C 56 % 0,0 l/m 9,4 km/h (2 Bft) W-SW 240 11,3 km/h (2 Bft)
05.01.2012 02:37 4,1 C 56 % 0,0 l/m 7,7 km/h (2 Bft) SW 225 9,7 km/h (2 Bft)
05.01.2012 02:38 4,1 C 56 % 0,0 l/m 8,0 km/h (2 Bft) SW 216 9,7 km/h (2 Bft)
05.01.2012 02:39 4,1 C 56 % 0,0 l/m 7,0 km/h (2 Bft) SW 225 8,0 km/h (2 Bft)
05.01.2012 02:40 4,1 C 56 % 0,0 l/m 6,3 km/h (2 Bft) S-SW 205 8,0 km/h (2 Bft)
05.01.2012 02:41 4,1 C 56 % 0,0 l/m 8,0 km/h (2 Bft) SW 218 11,3 km/h (2 Bft)
05.01.2012 02:42 4,0 C 56 % 0,0 l/m 8,3 km/h (2 Bft) S-SW 212 9,7 km/h (2 Bft)
05.01.2012 02:43 4,0 C 56 % 0,0 l/m 7,2 km/h (2 Bft) S-SW 208 11,3 km/h (2 Bft)
05.01.2012 02:44 3,9 C 57 % 0,0 l/m 6,6 km/h (2 Bft) W-SW 242 8,0 km/h (2 Bft)
05.01.2012 02:45 3,9 C 57 % 0,0 l/m 5,6 km/h (1 Bft) W-SW 242 8,0 km/h (2 Bft)
05.01.2012 02:46 3,9 C 57 % 0,0 l/m 4,7 km/h (1 Bft) S-SW 210 6,4 km/h (2 Bft)
05.01.2012 02:47 3,8 C 57 % 0,0 l/m 5,3 km/h (1 Bft) SW 233 8,0 km/h (2 Bft)
05.01.2012 02:48 3,8 C 57 % 0,0 l/m 4,7 km/h (1 Bft) W-SW 240 6,4 km/h (2 Bft)
05.01.2012 02:49 3,8 C 57 % 0,0 l/m 6,1 km/h (2 Bft) SW 215 8,0 km/h (2 Bft)
05.01.2012 02:50 3,8 C 57 % 0,0 l/m 7,8 km/h (2 Bft) S-SW 211 11,3 km/h (2 Bft)
05.01.2012 02:51 3,8 C 57 % 0,0 l/m 9,3 km/h (2 Bft) SW 224 11,3 km/h (2 Bft)
05.01.2012 02:52 3,8 C 57 % 0,0 l/m 5,6 km/h (1 Bft) S-SW 211 8,0 km/h (2 Bft)
05.01.2012 02:53 3,8 C 57 % 0,0 l/m 5,6 km/h (1 Bft) S-SW 208 8,0 km/h (2 Bft)
05.01.2012 02:54 3,8 C 57 % 0,0 l/m 7,5 km/h (2 Bft) SW 219 11,3 km/h (2 Bft)
05.01.2012 02:55 3,8 C 58 % 0,0 l/m 8,5 km/h (2 Bft) S-SW 211 11,3 km/h (2 Bft)
05.01.2012 02:56 3,8 C 58 % 0,0 l/m 6,9 km/h (2 Bft) S-SW 194 9,7 km/h (2 Bft)
05.01.2012 02:57 3,8 C 58 % 0,0 l/m 6,4 km/h (2 Bft) SW 218 8,0 km/h (2 Bft)
05.01.2012 02:58 3,8 C 57 % 0,0 l/m 10,6 km/h (2 Bft) S-SW 203 12,9 km/h (3 Bft)
05.01.2012 02:59 3,8 C 57 % 0,0 l/m 9,5 km/h (2 Bft) W-SW 238 12,9 km/h (3 Bft)
05.01.2012 03:00 3,8 C 58 % 0,0 l/m 8,7 km/h (2 Bft) S-SW 200 14,5 km/h (3 Bft)
05.01.2012 03:01 3,8 C 57 % 0,0 l/m 7,2 km/h (2 Bft) S-SW 204 11,3 km/h (2 Bft)
05.01.2012 03:02 3,8 C 58 % 0,0 l/m 9,4 km/h (2 Bft) S-SO 162 12,9 km/h (3 Bft)
05.01.2012 03:03 3,8 C 58 % 0,0 l/m 9,5 km/h (2 Bft) SW 218 16,1 km/h (3 Bft)
05.01.2012 03:04 3,9 C 58 % 0,0 l/m 9,5 km/h (2 Bft) SW 217 12,9 km/h (3 Bft)
05.01.2012 03:05 3,9 C 58 % 0,0 l/m 10,4 km/h (2 Bft) W-SW 240 14,5 km/h (3 Bft)
05.01.2012 03:06 3,9 C 58 % 0,0 l/m 9,4 km/h (2 Bft) SW 215 11,3 km/h (2 Bft)
05.01.2012 03:07 3,9 C 58 % 0,0 l/m 9,5 km/h (2 Bft) S 175 12,9 km/h (3 Bft)
05.01.2012 03:08 3,9 C 58 % 0,0 l/m 12,0 km/h (2 Bft) S 176 14,5 km/h (3 Bft)
05.01.2012 03:09 3,9 C 58 % 0,0 l/m 10,0 km/h (2 Bft) S 186 14,5 km/h (3 Bft)
05.01.2012 03:10 3,9 C 57 % 0,0 l/m 9,7 km/h (2 Bft) S-SO 167 16,1 km/h (3 Bft)
05.01.2012 03:11 3,9 C 57 % 0,0 l/m 8,5 km/h (2 Bft) SO 142 11,3 km/h (2 Bft)
05.01.2012 03:12 3,9 C 57 % 0,0 l/m 7,0 km/h (2 Bft) S 173 12,9 km/h (3 Bft)
05.01.2012 03:13 3,9 C 57 % 0,0 l/m 9,9 km/h (2 Bft) S-SW 200 14,5 km/h (3 Bft)
05.01.2012 03:14 4,0 C 56 % 0,0 l/m 10,6 km/h (2 Bft) S-SW 210 16,1 km/h (3 Bft)
05.01.2012 03:15 4,1 C 56 % 0,0 l/m 15,9 km/h (3 Bft) S 177 22,5 km/h (4 Bft)
05.01.2012 03:16 4,1 C 56 % 0,0 l/m 12,7 km/h (3 Bft) S-SW 210 19,3 km/h (3 Bft)
05.01.2012 03:17 4,1 C 56 % 0,0 l/m 13,7 km/h (3 Bft) S-SW 212 19,3 km/h (3 Bft)
05.01.2012 03:18 4,2 C 56 % 0,0 l/m 11,9 km/h (2 Bft) S-SW 193 17,7 km/h (3 Bft)
05.01.2012 03:19 4,2 C 56 % 0,0 l/m 8,0 km/h (2 Bft) S 191 12,9 km/h (3 Bft)
05.01.2012 03:20 4,2 C 56 % 0,0 l/m 9,5 km/h (2 Bft) SW 232 14,5 km/h (3 Bft)
05.01.2012 03:21 4,2 C 56 % 0,0 l/m 12,2 km/h (2 Bft) S 184 16,1 km/h (3 Bft)
05.01.2012 03:22 4,2 C 55 % 0,0 l/m 14,5 km/h (3 Bft) S 183 17,7 km/h (3 Bft)
05.01.2012 03:23 4,2 C 56 % 0,0 l/m 10,0 km/h (2 Bft) S-SW 207 12,9 km/h (3 Bft)
05.01.2012 03:24 4,2 C 56 % 0,0 l/m 10,7 km/h (2 Bft) SW 221 12,9 km/h (3 Bft)
05.01.2012 03:25 4,2 C 56 % 0,0 l/m 7,8 km/h (2 Bft) S-SW 198 11,3 km/h (2 Bft)
05.01.2012 03:26 4,1 C 56 % 0,0 l/m 11,9 km/h (2 Bft) SW 229 14,5 km/h (3 Bft)
05.01.2012 03:27 4,1 C 56 % 0,0 l/m 10,9 km/h (2 Bft) SW 215 16,1 km/h (3 Bft)
05.01.2012 03:28 4,2 C 56 % 0,0 l/m 12,0 km/h (2 Bft) SW 229 16,1 km/h (3 Bft)
05.01.2012 03:29 4,2 C 56 % 0,0 l/m 8,5 km/h (2 Bft) S-SO 162 14,5 km/h (3 Bft)
05.01.2012 03:30 4,2 C 56 % 0,0 l/m 10,6 km/h (2 Bft) S-SW 208 14,5 km/h (3 Bft)
05.01.2012 03:31 4,1 C 56 % 0,0 l/m 11,1 km/h (2 Bft) SW 219 14,5 km/h (3 Bft)
05.01.2012 03:32 4,2 C 56 % 0,0 l/m 13,1 km/h (3 Bft) S 183 16,1 km/h (3 Bft)
05.01.2012 03:33 4,2 C 56 % 0,0 l/m 12,3 km/h (3 Bft) SW 217 17,7 km/h (3 Bft)
05.01.2012 03:34 4,2 C 56 % 0,0 l/m 10,5 km/h (2 Bft) SW 218 14,5 km/h (3 Bft)
05.01.2012 03:35 4,2 C 56 % 0,0 l/m 8,9 km/h (2 Bft) SW 233 14,5 km/h (3 Bft)
05.01.2012 03:36 4,2 C 57 % 0,0 l/m 11,2 km/h (2 Bft) SW 236 17,7 km/h (3 Bft)
05.01.2012 03:37 4,2 C 56 % 0,0 l/m 13,8 km/h (3 Bft) SW 228 17,7 km/h (3 Bft)
05.01.2012 03:38 4,2 C 56 % 0,0 l/m 15,0 km/h (3 Bft) SW 225 24,1 km/h (4 Bft)
05.01.2012 03:39 4,3 C 56 % 0,0 l/m 12,6 km/h (3 Bft) SW 225 19,3 km/h (3 Bft)
05.01.2012 03:40 4,3 C 55 % 0,0 l/m 12,3 km/h (3 Bft) SW 235 19,3 km/h (3 Bft)
05.01.2012 03:41 4,4 C 55 % 0,0 l/m 13,9 km/h (3 Bft) S-SW 207 19,3 km/h (3 Bft)
05.01.2012 03:42 4,4 C 55 % 0,0 l/m 14,3 km/h (3 Bft) SW 215 17,7 km/h (3 Bft)
05.01.2012 03:43 4,5 C 55 % 0,0 l/m 14,2 km/h (3 Bft) SW 233 17,7 km/h (3 Bft)
05.01.2012 03:44 4,6 C 55 % 0,0 l/m 15,7 km/h (3 Bft) SW 218 22,5 km/h (4 Bft)
05.01.2012 03:45 4,6 C 54 % 0,0 l/m 17,2 km/h (3 Bft) SW 225 22,5 km/h (4 Bft)
05.01.2012 03:46 4,7 C 54 % 0,0 l/m 16,9 km/h (3 Bft) SW 214 25,7 km/h (4 Bft)
05.01.2012 03:47 4,8 C 52 % 0,0 l/m 21,4 km/h (4 Bft) W-SW 246 29,0 km/h (5 Bft)
05.01.2012 03:48 4,8 C 52 % 0,0 l/m 13,3 km/h (3 Bft) SW 214 19,3 km/h (3 Bft)
05.01.2012 03:49 4,9 C 52 % 0,0 l/m 15,4 km/h (3 Bft) W-SW 252 24,1 km/h (4 Bft)
05.01.2012 03:50 5,0 C 52 % 0,0 l/m 17,6 km/h (3 Bft) S-SW 210 24,1 km/h (4 Bft)
05.01.2012 03:51 5,1 C 52 % 0,0 l/m 13,0 km/h (3 Bft) W-SW 240 19,3 km/h (3 Bft)
05.01.2012 03:52 5,1 C 52 % 0,0 l/m 18,5 km/h (3 Bft) W-SW 239 24,1 km/h (4 Bft)
05.01.2012 03:53 5,2 C 51 % 0,0 l/m 16,2 km/h (3 Bft) W 262 27,4 km/h (4 Bft)
05.01.2012 03:54 5,2 C 51 % 0,0 l/m 15,0 km/h (3 Bft) SW 228 22,5 km/h (4 Bft)
05.01.2012 03:55 5,2 C 50 % 0,0 l/m 19,6 km/h (3 Bft) SW 231 24,1 km/h (4 Bft)
05.01.2012 03:56 5,3 C 50 % 0,0 l/m 18,3 km/h (3 Bft) SW 222 24,1 km/h (4 Bft)
05.01.2012 03:57 5,3 C 50 % 0,0 l/m 17,1 km/h (3 Bft) W-SW 238 22,5 km/h (4 Bft)
05.01.2012 03:58 5,3 C 50 % 0,0 l/m 13,6 km/h (3 Bft) SW 228 19,3 km/h (3 Bft)
05.01.2012 03:59 5,3 C 50 % 0,0 l/m 19,8 km/h (3 Bft) S-SW 197 24,1 km/h (4 Bft)
05.01.2012 04:00 5,3 C 50 % 0,0 l/m 17,2 km/h (3 Bft) SW 228 24,1 km/h (4 Bft)
05.01.2012 04:01 5,3 C 50 % 0,0 l/m 13,0 km/h (3 Bft) SW 231 16,1 km/h (3 Bft)
05.01.2012 04:02 5,3 C 50 % 0,0 l/m 16,1 km/h (3 Bft) W-SW 242 22,5 km/h (4 Bft)
05.01.2012 04:03 5,3 C 50 % 0,0 l/m 14,9 km/h (3 Bft) W 264 22,5 km/h (4 Bft)
05.01.2012 04:04 5,3 C 50 % 0,0 l/m 18,8 km/h (3 Bft) S-SW 209 24,1 km/h (4 Bft)
05.01.2012 04:05 5,3 C 50 % 0,0 l/m 17,0 km/h (3 Bft) SW 215 19,3 km/h (3 Bft)
05.01.2012 04:06 5,4 C 50 % 0,0 l/m 16,8 km/h (3 Bft) W-SW 246 22,5 km/h (4 Bft)
05.01.2012 04:07 5,4 C 49 % 0,0 l/m 19,2 km/h (3 Bft) SW 225 22,5 km/h (4 Bft)
05.01.2012 04:08 5,4 C 49 % 0,0 l/m 17,7 km/h (3 Bft) W-SW 252 25,7 km/h (4 Bft)
05.01.2012 04:09 5,4 C 49 % 0,0 l/m 17,1 km/h (3 Bft) SW 225 20,9 km/h (4 Bft)
05.01.2012 04:10 5,4 C 49 % 0,0 l/m 17,7 km/h (3 Bft) SW 235 20,9 km/h (4 Bft)
05.01.2012 04:11 5,4 C 49 % 0,0 l/m 16,3 km/h (3 Bft) W-SW 238 20,9 km/h (4 Bft)
05.01.2012 04:12 5,5 C 49 % 0,0 l/m 15,5 km/h (3 Bft) SW 218 20,9 km/h (4 Bft)
05.01.2012 04:13 5,5 C 48 % 0,0 l/m 14,8 km/h (3 Bft) SW 222 19,3 km/h (3 Bft)
05.01.2012 04:14 5,5 C 48 % 0,0 l/m 18,0 km/h (3 Bft) W-SW 240 25,7 km/h (4 Bft)
05.01.2012 04:15 5,6 C 48 % 0,0 l/m 16,8 km/h (3 Bft) W-SW 256 24,1 km/h (4 Bft)
05.01.2012 04:16 5,6 C 49 % 0,0 l/m 15,2 km/h (3 Bft) W-SW 238 17,7 km/h (3 Bft)
05.01.2012 04:17 5,5 C 49 % 0,0 l/m 14,9 km/h (3 Bft) SW 236 17,7 km/h (3 Bft)
05.01.2012 04:18 5,5 C 49 % 0,0 l/m 15,0 km/h (3 Bft) SW 218 19,3 km/h (3 Bft)
05.01.2012 04:19 5,4 C 50 % 0,0 l/m 13,7 km/h (3 Bft) SW 235 19,3 km/h (3 Bft)
05.01.2012 04:20 5,4 C 50 % 0,0 l/m 10,5 km/h (2 Bft) SW 218 16,1 km/h (3 Bft)
05.01.2012 04:21 5,4 C 50 % 0,0 l/m 10,8 km/h (2 Bft) S-SW 207 16,1 km/h (3 Bft)
05.01.2012 04:22 5,4 C 50 % 0,0 l/m 12,7 km/h (3 Bft) W-SW 238 17,7 km/h (3 Bft)
05.01.2012 04:23 5,3 C 50 % 0,0 l/m 9,8 km/h (2 Bft) S-SW 209 14,5 km/h (3 Bft)
05.01.2012 04:24 5,3 C 50 % 0,0 l/m 11,2 km/h (2 Bft) SW 215 16,1 km/h (3 Bft)
05.01.2012 04:25 5,3 C 50 % 0,0 l/m 11,5 km/h (2 Bft) W-SW 242 14,5 km/h (3 Bft)
05.01.2012 04:26 5,3 C 50 % 0,0 l/m 10,7 km/h (2 Bft) W 266 16,1 km/h (3 Bft)
05.01.2012 04:27 5,3 C 50 % 0,0 l/m 12,3 km/h (3 Bft) W 269 16,1 km/h (3 Bft)
05.01.2012 04:28 5,3 C 50 % 0,0 l/m 8,6 km/h (2 Bft) S-SW 210 11,3 km/h (2 Bft)
05.01.2012 04:29 5,3 C 50 % 0,0 l/m 9,5 km/h (2 Bft) W-SW 239 12,9 km/h (3 Bft)
05.01.2012 04:30 5,3 C 50 % 0,0 l/m 7,5 km/h (2 Bft) W-SW 249 12,9 km/h (3 Bft)
05.01.2012 04:31 5,2 C 51 % 0,0 l/m 9,5 km/h (2 Bft) SW 222 14,5 km/h (3 Bft)
05.01.2012 04:32 5,2 C 50 % 0,0 l/m 9,1 km/h (2 Bft) S-SW 198 12,9 km/h (3 Bft)
05.01.2012 04:33 5,2 C 50 % 0,0 l/m 8,8 km/h (2 Bft) SW 228 12,9 km/h (3 Bft)
05.01.2012 04:34 5,2 C 50 % 0,0 l/m 8,0 km/h (2 Bft) S-SW 208 9,7 km/h (2 Bft)
05.01.2012 04:35 5,2 C 50 % 0,0 l/m 3,4 km/h (1 Bft) S-SW 195 6,4 km/h (2 Bft)
05.01.2012 04:36 5,2 C 51 % 0,0 l/m 2,3 km/h (1 Bft) W 259 4,8 km/h (1 Bft)
05.01.2012 04:37 5,1 C 51 % 0,0 l/m 4,4 km/h (1 Bft) SW 233 6,4 km/h (2 Bft)
05.01.2012 04:38 5,1 C 51 % 0,0 l/m 2,2 km/h (1 Bft) SW 228 3,2 km/h (1 Bft)
05.01.2012 04:39 5,1 C 51 % 0,0 l/m 2,7 km/h (1 Bft) W-SW 248 3,2 km/h (1 Bft)
05.01.2012 04:40 5,0 C 51 % 0,0 l/m 3,0 km/h (1 Bft) W-SW 240 4,8 km/h (1 Bft)
05.01.2012 04:41 5,0 C 51 % 0,0 l/m 2,0 km/h (1 Bft) N-NO 32 3,2 km/h (1 Bft)
05.01.2012 04:42 5,0 C 52 % 0,0 l/m 0,7 km/h (0 Bft) W-SW 252 1,6 km/h (1 Bft)
05.01.2012 04:43 4,9 C 52 % 0,0 l/m 0,7 km/h (0 Bft) NO 36 1,6 km/h (1 Bft)
05.01.2012 04:44 4,9 C 52 % 0,0 l/m 1,2 km/h (1 Bft) W-NW 283 1,6 km/h (1 Bft)
05.01.2012 04:45 4,9 C 52 % 0,0 l/m 2,7 km/h (1 Bft) SW 236 4,8 km/h (1 Bft)
05.01.2012 04:46 4,8 C 52 % 0,0 l/m 3,2 km/h (1 Bft) SW 228 4,8 km/h (1 Bft)
05.01.2012 04:47 4,8 C 52 % 0,0 l/m 3,6 km/h (1 Bft) W-SW 250 6,4 km/h (2 Bft)
05.01.2012 04:48 4,8 C 52 % 0,0 l/m 2,8 km/h (1 Bft) W-SW 240 3,2 km/h (1 Bft)
05.01.2012 04:49 4,8 C 52 % 0,0 l/m 2,8 km/h (1 Bft) SW 228 3,2 km/h (1 Bft)
05.01.2012 04:50 4,8 C 52 % 0,0 l/m 3,7 km/h (1 Bft) S-SW 212 4,8 km/h (1 Bft)
05.01.2012 04:51 4,8 C 52 % 0,0 l/m 5,7 km/h (1 Bft) SW 235 6,4 km/h (2 Bft)
05.01.2012 04:52 4,8 C 52 % 0,0 l/m 5,0 km/h (1 Bft) SW 228 6,4 km/h (2 Bft)
05.01.2012 04:53 4,8 C 52 % 0,0 l/m 3,6 km/h (1 Bft) SW 224 6,4 km/h (2 Bft)
05.01.2012 04:54 4,8 C 52 % 0,0 l/m 4,3 km/h (1 Bft) SW 214 4,8 km/h (1 Bft)
05.01.2012 04:55 4,8 C 52 % 0,0 l/m 3,9 km/h (1 Bft) W-SW 238 4,8 km/h (1 Bft)
05.01.2012 04:56 4,8 C 51 % 0,0 l/m 7,2 km/h (2 Bft) SW 224 9,7 km/h (2 Bft)
05.01.2012 04:57 4,9 C 51 % 0,0 l/m 5,5 km/h (1 Bft) SW 229 9,7 km/h (2 Bft)
05.01.2012 04:58 4,9 C 51 % 0,0 l/m 9,0 km/h (2 Bft) SW 224 12,9 km/h (3 Bft)
05.01.2012 04:59 4,9 C 50 % 0,0 l/m 8,0 km/h (2 Bft) SW 223 11,3 km/h (2 Bft)
05.01.2012 05:00 4,9 C 51 % 0,0 l/m 11,3 km/h (2 Bft) SW 225 16,1 km/h (3 Bft)
05.01.2012 05:01 5,0 C 50 % 0,0 l/m 10,6 km/h (2 Bft) S-SW 193 14,5 km/h (3 Bft)
05.01.2012 05:02 5,0 C 51 % 0,0 l/m 14,4 km/h (3 Bft) S-SW 212 19,3 km/h (3 Bft)
05.01.2012 05:03 5,1 C 50 % 0,0 l/m 13,9 km/h (3 Bft) S-SW 200 25,7 km/h (4 Bft)
05.01.2012 05:04 5,1 C 49 % 0,0 l/m 18,8 km/h (3 Bft) SW 224 25,7 km/h (4 Bft)
05.01.2012 05:05 5,2 C 49 % 0,0 l/m 21,4 km/h (4 Bft) S-SO 149 27,4 km/h (4 Bft)
05.01.2012 05:06 5,3 C 49 % 0,0 l/m 15,5 km/h (3 Bft) S-SW 197 22,5 km/h (4 Bft)
05.01.2012 05:07 5,3 C 50 % 0,0 l/m 16,3 km/h (3 Bft) SW 224 22,5 km/h (4 Bft)
05.01.2012 05:08 5,3 C 49 % 0,0 l/m 15,3 km/h (3 Bft) S-SW 208 22,5 km/h (4 Bft)
05.01.2012 05:09 5,3 C 49 % 0,0 l/m 16,6 km/h (3 Bft) S 190 22,5 km/h (4 Bft)
05.01.2012 05:10 5,3 C 49 % 0,0 l/m 18,5 km/h (3 Bft) W 269 30,6 km/h (5 Bft)
05.01.2012 05:11 5,3 C 49 % 0,0 l/m 19,3 km/h (3 Bft) S-SW 204 27,4 km/h (4 Bft)
05.01.2012 05:12 5,3 C 49 % 0,0 l/m 18,3 km/h (3 Bft) S-SW 208 25,7 km/h (4 Bft)
05.01.2012 05:13 5,3 C 50 % 0,0 l/m 21,7 km/h (4 Bft) SW 217 29,0 km/h (5 Bft)
05.01.2012 05:14 5,3 C 49 % 0,0 l/m 21,1 km/h (4 Bft) S-SO 162 30,6 km/h (5 Bft)
05.01.2012 05:15 5,3 C 50 % 0,0 l/m 16,8 km/h (3 Bft) W-NW 287 24,1 km/h (4 Bft)
05.01.2012 05:16 5,3 C 50 % 0,0 l/m 23,7 km/h (4 Bft) S-SW 197 37,0 km/h (5 Bft)
05.01.2012 05:17 5,2 C 50 % 0,0 l/m 18,3 km/h (3 Bft) SW 218 30,6 km/h (5 Bft)
05.01.2012 05:18 5,2 C 50 % 0,0 l/m 17,8 km/h (3 Bft) W-SW 242 22,5 km/h (4 Bft)
05.01.2012 05:19 5,2 C 51 % 0,0 l/m 20,4 km/h (4 Bft) SW 217 30,6 km/h (5 Bft)
05.01.2012 05:20 5,1 C 50 % 0,0 l/m 17,0 km/h (3 Bft) W-SW 238 25,7 km/h (4 Bft)
05.01.2012 05:21 5,1 C 51 % 0,0 l/m 15,9 km/h (3 Bft) W-SW 240 24,1 km/h (4 Bft)
05.01.2012 05:22 5,1 C 51 % 0,0 l/m 12,9 km/h (3 Bft) W-SW 250 20,9 km/h (4 Bft)
05.01.2012 05:23 5,1 C 51 % 0,0 l/m 15,0 km/h (3 Bft) S-SW 205 22,5 km/h (4 Bft)
05.01.2012 05:24 5,1 C 51 % 0,0 l/m 14,6 km/h (3 Bft) SW 215 24,1 km/h (4 Bft)
05.01.2012 05:25 5,1 C 51 % 0,0 l/m 18,6 km/h (3 Bft) SW 231 25,7 km/h (4 Bft)
05.01.2012 05:26 5,1 C 51 % 0,0 l/m 19,1 km/h (3 Bft) W-SW 240 27,4 km/h (4 Bft)
05.01.2012 05:27 5,1 C 50 % 0,0 l/m 20,4 km/h (4 Bft) SW 233 27,4 km/h (4 Bft)
05.01.2012 05:28 5,1 C 51 % 0,0 l/m 18,3 km/h (3 Bft) SW 224 24,1 km/h (4 Bft)
05.01.2012 05:29 5,1 C 50 % 0,0 l/m 15,9 km/h (3 Bft) W-SW 242 25,7 km/h (4 Bft)
05.01.2012 05:30 5,2 C 51 % 0,0 l/m 22,2 km/h (4 Bft) SW 228 29,0 km/h (5 Bft)
05.01.2012 05:31 5,2 C 51 % 0,0 l/m 18,2 km/h (3 Bft) W-SW 250 25,7 km/h (4 Bft)
05.01.2012 05:32 5,2 C 51 % 0,0 l/m 16,3 km/h (3 Bft) SW 215 22,5 km/h (4 Bft)
05.01.2012 05:33 5,2 C 51 % 0,0 l/m 23,6 km/h (4 Bft) SW 225 29,0 km/h (5 Bft)
05.01.2012 05:34 5,2 C 51 % 0,0 l/m 20,7 km/h (4 Bft) SW 219 25,7 km/h (4 Bft)
05.01.2012 05:35 5,3 C 51 % 0,0 l/m 21,0 km/h (4 Bft) W-SW 243 27,4 km/h (4 Bft)
05.01.2012 05:36 5,3 C 51 % 0,0 l/m 23,4 km/h (4 Bft) SW 222 32,2 km/h (5 Bft)
05.01.2012 05:37 5,3 C 51 % 0,0 l/m 20,8 km/h (4 Bft) SW 226 29,0 km/h (5 Bft)
05.01.2012 05:38 5,3 C 52 % 0,0 l/m 18,4 km/h (3 Bft) SW 217 24,1 km/h (4 Bft)
05.01.2012 05:39 5,3 C 52 % 0,0 l/m 16,4 km/h (3 Bft) SW 232 29,0 km/h (5 Bft)
05.01.2012 05:40 5,4 C 52 % 0,0 l/m 20,6 km/h (4 Bft) S-SW 198 30,6 km/h (5 Bft)
05.01.2012 05:41 5,4 C 52 % 0,0 l/m 17,6 km/h (3 Bft) SW 233 30,6 km/h (5 Bft)
05.01.2012 05:42 5,3 C 52 % 0,0 l/m 16,5 km/h (3 Bft) W 281 27,4 km/h (4 Bft)
05.01.2012 05:43 5,3 C 53 % 0,0 l/m 18,9 km/h (3 Bft) SW 226 25,7 km/h (4 Bft)
05.01.2012 05:44 5,3 C 53 % 0,0 l/m 19,2 km/h (3 Bft) W-SW 255 27,4 km/h (4 Bft)
05.01.2012 05:45 5,3 C 54 % 0,0 l/m 18,5 km/h (3 Bft) S-SW 211 33,8 km/h (5 Bft)
05.01.2012 05:46 5,3 C 54 % 0,0 l/m 16,7 km/h (3 Bft) SW 236 22,5 km/h (4 Bft)
05.01.2012 05:47 5,3 C 54 % 0,0 l/m 23,0 km/h (4 Bft) SW 225 29,0 km/h (5 Bft)
05.01.2012 05:48 5,3 C 55 % 0,0 l/m 19,6 km/h (3 Bft) SW 235 30,6 km/h (5 Bft)
05.01.2012 05:49 5,3 C 55 % 0,0 l/m 16,9 km/h (3 Bft) S-SW 203 25,7 km/h (4 Bft)
05.01.2012 05:50 5,3 C 56 % 0,0 l/m 19,9 km/h (4 Bft) SW 214 32,2 km/h (5 Bft)
05.01.2012 05:51 5,4 C 57 % 0,0 l/m 25,9 km/h (4 Bft) SW 218 32,2 km/h (5 Bft)
05.01.2012 05:52 5,4 C 57 % 0,0 l/m 19,6 km/h (3 Bft) S-SW 207 25,7 km/h (4 Bft)
05.01.2012 05:53 5,4 C 58 % 0,0 l/m 21,2 km/h (4 Bft) SW 225 35,4 km/h (5 Bft)
05.01.2012 05:54 5,4 C 58 % 0,0 l/m 17,7 km/h (3 Bft) S-SW 210 24,1 km/h (4 Bft)
05.01.2012 05:55 5,4 C 59 % 0,0 l/m 12,5 km/h (3 Bft) SW 225 17,7 km/h (3 Bft)
05.01.2012 05:56 5,4 C 59 % 0,0 l/m 21,1 km/h (4 Bft) S 179 29,0 km/h (5 Bft)
05.01.2012 05:57 5,4 C 59 % 0,0 l/m 21,4 km/h (4 Bft) SW 229 29,0 km/h (5 Bft)
05.01.2012 05:58 5,4 C 59 % 0,0 l/m 17,9 km/h (3 Bft) W 262 24,1 km/h (4 Bft)
05.01.2012 05:59 5,4 C 60 % 0,0 l/m 14,5 km/h (3 Bft) S 184 22,5 km/h (4 Bft)
05.01.2012 06:00 5,4 C 60 % 0,0 l/m 20,0 km/h (4 Bft) SW 221 27,4 km/h (4 Bft)
05.01.2012 06:01 5,4 C 60 % 0,0 l/m 18,8 km/h (3 Bft) S-SW 212 29,0 km/h (5 Bft)
05.01.2012 06:02 5,5 C 61 % 0,0 l/m 18,8 km/h (3 Bft) S 181 25,7 km/h (4 Bft)
05.01.2012 06:03 5,5 C 61 % 0,0 l/m 20,0 km/h (4 Bft) S 190 32,2 km/h (5 Bft)
05.01.2012 06:04 5,5 C 62 % 0,0 l/m 18,8 km/h (3 Bft) S-SW 201 29,0 km/h (5 Bft)
05.01.2012 06:05 5,6 C 62 % 0,0 l/m 15,5 km/h (3 Bft) S-SW 198 27,4 km/h (4 Bft)
05.01.2012 06:06 5,6 C 63 % 0,0 l/m 20,7 km/h (4 Bft) SW 215 24,1 km/h (4 Bft)
05.01.2012 06:07 5,6 C 63 % 0,0 l/m 17,3 km/h (3 Bft) SW 214 24,1 km/h (4 Bft)
05.01.2012 06:08 5,6 C 63 % 0,0 l/m 17,2 km/h (3 Bft) S-SW 205 25,7 km/h (4 Bft)
05.01.2012 06:09 5,6 C 63 % 0,0 l/m 19,2 km/h (3 Bft) S-SW 200 27,4 km/h (4 Bft)
05.01.2012 06:10 5,6 C 63 % 0,0 l/m 22,7 km/h (4 Bft) S-SW 203 29,0 km/h (5 Bft)
05.01.2012 06:11 5,6 C 63 % 0,0 l/m 19,4 km/h (3 Bft) S-SO 148 27,4 km/h (4 Bft)
05.01.2012 06:12 5,6 C 63 % 0,0 l/m 15,3 km/h (3 Bft) S 170 20,9 km/h (4 Bft)
05.01.2012 06:13 5,6 C 63 % 0,0 l/m 19,5 km/h (3 Bft) S-SW 204 32,2 km/h (5 Bft)
05.01.2012 06:14 5,6 C 63 % 0,0 l/m 16,6 km/h (3 Bft) S-SO 160 24,1 km/h (4 Bft)
05.01.2012 06:15 5,6 C 63 % 0,0 l/m 20,2 km/h (4 Bft) SW 218 25,7 km/h (4 Bft)
05.01.2012 06:16 5,6 C 62 % 0,0 l/m 21,5 km/h (4 Bft) SW 217 27,4 km/h (4 Bft)
05.01.2012 06:17 5,6 C 62 % 0,0 l/m 18,5 km/h (3 Bft) SW 217 29,0 km/h (5 Bft)
05.01.2012 06:18 5,6 C 63 % 0,0 l/m 19,0 km/h (3 Bft) S 179 27,4 km/h (4 Bft)
05.01.2012 06:19 5,6 C 62 % 0,0 l/m 21,5 km/h (4 Bft) S 169 30,6 km/h (5 Bft)
05.01.2012 06:20 5,7 C 63 % 0,0 l/m 24,1 km/h (4 Bft) S-SO 167 35,4 km/h (5 Bft)
05.01.2012 06:21 5,7 C 62 % 0,0 l/m 16,7 km/h (3 Bft) S-SW 197 27,4 km/h (4 Bft)
05.01.2012 06:22 5,7 C 62 % 0,0 l/m 20,3 km/h (4 Bft) S-SW 203 25,7 km/h (4 Bft)
05.01.2012 06:23 5,7 C 62 % 0,0 l/m 18,1 km/h (3 Bft) S-SO 151 27,4 km/h (4 Bft)
05.01.2012 06:24 5,7 C 62 % 0,0 l/m 14,7 km/h (3 Bft) S 186 22,5 km/h (4 Bft)
05.01.2012 06:25 5,7 C 62 % 0,0 l/m 15,1 km/h (3 Bft) S-SO 167 19,3 km/h (3 Bft)
05.01.2012 06:26 5,7 C 62 % 0,0 l/m 18,0 km/h (3 Bft) S-SO 162 24,1 km/h (4 Bft)
05.01.2012 06:27 5,7 C 62 % 0,0 l/m 16,2 km/h (3 Bft) S-SO 166 20,9 km/h (4 Bft)
05.01.2012 06:28 5,6 C 62 % 0,0 l/m 21,4 km/h (4 Bft) S 181 29,0 km/h (5 Bft)
05.01.2012 06:29 5,6 C 62 % 0,0 l/m 15,3 km/h (3 Bft) S 179 25,7 km/h (4 Bft)
05.01.2012 06:30 5,6 C 62 % 0,0 l/m 17,8 km/h (3 Bft) S-SO 163 24,1 km/h (4 Bft)
05.01.2012 06:31 5,6 C 62 % 0,0 l/m 15,7 km/h (3 Bft) SO 131 20,9 km/h (4 Bft)
05.01.2012 06:32 5,6 C 62 % 0,0 l/m 14,9 km/h (3 Bft) S-SO 158 20,9 km/h (4 Bft)
05.01.2012 06:33 5,6 C 61 % 0,0 l/m 17,0 km/h (3 Bft) S-SW 203 22,5 km/h (4 Bft)
05.01.2012 06:34 5,6 C 62 % 0,0 l/m 13,1 km/h (3 Bft) S-SO 148 22,5 km/h (4 Bft)
05.01.2012 06:35 5,6 C 61 % 0,0 l/m 15,8 km/h (3 Bft) S-SO 156 24,1 km/h (4 Bft)
05.01.2012 06:36 5,6 C 61 % 0,0 l/m 15,6 km/h (3 Bft) S 190 20,9 km/h (4 Bft)
05.01.2012 06:37 5,6 C 61 % 0,0 l/m 15,5 km/h (3 Bft) S-SW 204 17,7 km/h (3 Bft)
05.01.2012 06:38 5,6 C 61 % 0,0 l/m 13,8 km/h (3 Bft) S 191 19,3 km/h (3 Bft)
05.01.2012 06:39 5,5 C 61 % 0,0 l/m 13,7 km/h (3 Bft) S-SW 203 17,7 km/h (3 Bft)
05.01.2012 06:40 5,4 C 61 % 0,0 l/m 19,6 km/h (3 Bft) S-SO 154 29,0 km/h (5 Bft)
05.01.2012 06:41 5,4 C 61 % 0,0 l/m 14,8 km/h (3 Bft) S-SO 148 20,9 km/h (4 Bft)
05.01.2012 06:42 5,4 C 62 % 0,0 l/m 10,8 km/h (2 Bft) S-SO 153 16,1 km/h (3 Bft)
05.01.2012 06:43 5,4 C 61 % 0,0 l/m 17,1 km/h (3 Bft) S-SO 158 27,4 km/h (4 Bft)
05.01.2012 06:44 5,4 C 61 % 0,0 l/m 14,9 km/h (3 Bft) S-SW 212 20,9 km/h (4 Bft)
05.01.2012 06:45 5,3 C 61 % 0,0 l/m 13,3 km/h (3 Bft) SW 225 29,0 km/h (5 Bft)
05.01.2012 06:46 5,3 C 61 % 0,0 l/m 10,1 km/h (2 Bft) SW 233 19,3 km/h (3 Bft)
05.01.2012 06:47 5,3 C 61 % 0,0 l/m 15,0 km/h (3 Bft) S-SW 210 20,9 km/h (4 Bft)
05.01.2012 06:48 5,2 C 61 % 0,0 l/m 14,3 km/h (3 Bft) S-SO 166 22,5 km/h (4 Bft)
05.01.2012 06:49 5,2 C 61 % 0,0 l/m 12,2 km/h (2 Bft) S 183 20,9 km/h (4 Bft)
05.01.2012 06:50 5,2 C 61 % 0,0 l/m 14,9 km/h (3 Bft) S-SW 200 24,1 km/h (4 Bft)
05.01.2012 06:51 5,2 C 60 % 0,0 l/m 19,8 km/h (3 Bft) S 178 25,7 km/h (4 Bft)
05.01.2012 06:52 5,2 C 59 % 0,0 l/m 16,6 km/h (3 Bft) S 186 24,1 km/h (4 Bft)
05.01.2012 06:53 5,3 C 59 % 0,0 l/m 12,4 km/h (3 Bft) S 180 17,7 km/h (3 Bft)
05.01.2012 06:54 5,3 C 59 % 0,0 l/m 14,6 km/h (3 Bft) S-SW 195 17,7 km/h (3 Bft)
05.01.2012 06:55 5,3 C 59 % 0,0 l/m 11,6 km/h (2 Bft) S-SW 209 17,7 km/h (3 Bft)
05.01.2012 06:56 5,3 C 59 % 0,0 l/m 11,4 km/h (2 Bft) S-SW 208 17,7 km/h (3 Bft)
05.01.2012 06:57 5,3 C 58 % 0,0 l/m 12,5 km/h (3 Bft) S-SW 210 14,5 km/h (3 Bft)
05.01.2012 06:58 5,3 C 58 % 0,0 l/m 12,0 km/h (2 Bft) S-SW 195 20,9 km/h (4 Bft)
05.01.2012 06:59 5,3 C 58 % 0,0 l/m 11,4 km/h (2 Bft) S 185 14,5 km/h (3 Bft)
05.01.2012 07:00 5,3 C 58 % 0,0 l/m 10,5 km/h (2 Bft) S-SW 207 16,1 km/h (3 Bft)
05.01.2012 07:01 5,3 C 58 % 0,0 l/m 9,9 km/h (2 Bft) S-SO 167 17,7 km/h (3 Bft)
05.01.2012 07:02 5,2 C 58 % 0,0 l/m 8,0 km/h (2 Bft) S-SW 194 12,9 km/h (3 Bft)
05.01.2012 07:03 5,2 C 58 % 0,0 l/m 7,7 km/h (2 Bft) S-SW 207 9,7 km/h (2 Bft)
05.01.2012 07:04 5,2 C 58 % 0,0 l/m 9,8 km/h (2 Bft) S-SO 161 14,5 km/h (3 Bft)
05.01.2012 07:05 5,2 C 57 % 0,0 l/m 9,2 km/h (2 Bft) S-SO 163 12,9 km/h (3 Bft)
05.01.2012 07:06 5,2 C 58 % 0,0 l/m 6,2 km/h (2 Bft) S-SO 148 9,7 km/h (2 Bft)
05.01.2012 07:07 5,2 C 57 % 0,0 l/m 6,8 km/h (2 Bft) S-SO 149 11,3 km/h (2 Bft)
05.01.2012 07:08 5,2 C 57 % 0,0 l/m 10,9 km/h (2 Bft) S 176 17,7 km/h (3 Bft)
05.01.2012 07:09 5,2 C 56 % 0,0 l/m 8,8 km/h (2 Bft) S-SW 208 14,5 km/h (3 Bft)
05.01.2012 07:10 5,3 C 56 % 0,0 l/m 8,1 km/h (2 Bft) S-SW 203 12,9 km/h (3 Bft)
05.01.2012 07:11 5,3 C 56 % 0,0 l/m 10,9 km/h (2 Bft) S 184 14,5 km/h (3 Bft)
05.01.2012 07:12 5,3 C 55 % 0,0 l/m 8,6 km/h (2 Bft) S-SO 159 11,3 km/h (2 Bft)
05.01.2012 07:13 5,3 C 56 % 0,0 l/m 5,0 km/h (1 Bft) SW 225 11,3 km/h (2 Bft)
05.01.2012 07:14 5,3 C 56 % 0,0 l/m 4,7 km/h (1 Bft) SW 218 11,3 km/h (2 Bft)
05.01.2012 07:15 5,3 C 56 % 0,0 l/m 5,7 km/h (1 Bft) W 259 11,3 km/h (2 Bft)
05.01.2012 07:16 5,3 C 56 % 0,0 l/m 1,9 km/h (1 Bft) SW 215 3,2 km/h (1 Bft)
05.01.2012 07:17 5,3 C 56 % 0,0 l/m 2,8 km/h (1 Bft) W-SW 246 6,4 km/h (2 Bft)
05.01.2012 07:18 5,3 C 57 % 0,0 l/m 0,7 km/h (0 Bft) W-SW 240 1,6 km/h (1 Bft)
05.01.2012 07:19 5,3 C 57 % 0,0 l/m 2,9 km/h (1 Bft) W 276 4,8 km/h (1 Bft)
05.01.2012 07:20 5,2 C 57 % 0,0 l/m 5,8 km/h (2 Bft) W-NW 293 8,0 km/h (2 Bft)
05.01.2012 07:21 5,2 C 57 % 0,0 l/m 2,9 km/h (1 Bft) W 269 4,8 km/h (1 Bft)
05.01.2012 07:22 5,2 C 56 % 0,0 l/m 4,0 km/h (1 Bft) W-SW 245 9,7 km/h (2 Bft)
05.01.2012 07:23 5,2 C 56 % 0,0 l/m 2,2 km/h (1 Bft) N 5 4,8 km/h (1 Bft)
05.01.2012 07:24 5,2 C 57 % 0,0 l/m 5,4 km/h (1 Bft) NW 306 8,0 km/h (2 Bft)
05.01.2012 07:25 5,2 C 57 % 0,0 l/m 5,6 km/h (1 Bft) NW 319 6,4 km/h (2 Bft)
05.01.2012 07:26 5,2 C 57 % 0,0 l/m 2,4 km/h (1 Bft) NW 315 4,8 km/h (1 Bft)
05.01.2012 07:27 5,2 C 57 % 0,0 l/m 1,3 km/h (1 Bft) W-SW 245 3,2 km/h (1 Bft)
05.01.2012 07:28 5,2 C 57 % 0,0 l/m 0,9 km/h (0 Bft) W-SW 249 1,6 km/h (1 Bft)
05.01.2012 07:29 5,2 C 56 % 0,0 l/m 0,8 km/h (0 Bft) W-SW 252 1,6 km/h (1 Bft)
05.01.2012 07:30 5,2 C 56 % 0,0 l/m 1,6 km/h (1 Bft) W-SW 253 1,6 km/h (1 Bft)
05.01.2012 07:31 5,2 C 56 % 0,0 l/m 0,3 km/h (0 Bft) W-SW 248 1,6 km/h (1 Bft)
05.01.2012 07:32 5,2 C 55 % 0,0 l/m 3,3 km/h (1 Bft) W-SW 242 4,8 km/h (1 Bft)
05.01.2012 07:33 5,2 C 54 % 0,0 l/m 4,5 km/h (1 Bft) O-NO 60 6,4 km/h (2 Bft)
05.01.2012 07:34 5,3 C 54 % 0,0 l/m 7,0 km/h (2 Bft) W-SW 240 9,7 km/h (2 Bft)
05.01.2012 07:35 5,3 C 54 % 0,0 l/m 7,4 km/h (2 Bft) W 260 9,7 km/h (2 Bft)
05.01.2012 07:36 5,3 C 54 % 0,0 l/m 6,4 km/h (2 Bft) W-NW 291 9,7 km/h (2 Bft)
05.01.2012 07:37 5,4 C 54 % 0,0 l/m 4,6 km/h (1 Bft) SW 218 8,0 km/h (2 Bft)
05.01.2012 07:38 5,4 C 53 % 0,0 l/m 9,7 km/h (2 Bft) W-SW 242 12,9 km/h (3 Bft)
05.01.2012 07:39 5,4 C 53 % 0,0 l/m 11,5 km/h (2 Bft) W-SW 240 14,5 km/h (3 Bft)
05.01.2012 07:40 5,4 C 53 % 0,0 l/m 11,8 km/h (2 Bft) SW 218 14,5 km/h (3 Bft)
05.01.2012 07:41 5,4 C 52 % 0,0 l/m 11,3 km/h (2 Bft) SW 235 19,3 km/h (3 Bft)
05.01.2012 07:42 5,5 C 51 % 0,0 l/m 16,9 km/h (3 Bft) SW 219 24,1 km/h (4 Bft)
05.01.2012 07:43 5,6 C 51 % 0,0 l/m 14,6 km/h (3 Bft) SW 224 17,7 km/h (3 Bft)
05.01.2012 07:44 5,6 C 51 % 0,0 l/m 11,5 km/h (2 Bft) SW 235 16,1 km/h (3 Bft)
05.01.2012 07:45 5,6 C 52 % 0,0 l/m 13,1 km/h (3 Bft) S-SW 208 20,9 km/h (4 Bft)
05.01.2012 07:46 5,6 C 51 % 0,0 l/m 10,5 km/h (2 Bft) S-SW 200 14,5 km/h (3 Bft)
05.01.2012 07:47 5,6 C 51 % 0,0 l/m 10,7 km/h (2 Bft) SW 235 16,1 km/h (3 Bft)
05.01.2012 07:48 5,6 C 51 % 0,0 l/m 12,1 km/h (2 Bft) S 190 16,1 km/h (3 Bft)
05.01.2012 07:49 5,7 C 51 % 0,0 l/m 13,4 km/h (3 Bft) SW 224 19,3 km/h (3 Bft)
05.01.2012 07:50 5,7 C 51 % 0,0 l/m 17,3 km/h (3 Bft) W-SW 242 22,5 km/h (4 Bft)
05.01.2012 07:51 5,7 C 52 % 0,0 l/m 11,9 km/h (2 Bft) S-SW 212 19,3 km/h (3 Bft)
05.01.2012 07:52 5,7 C 52 % 0,0 l/m 16,6 km/h (3 Bft) W-SW 245 22,5 km/h (4 Bft)
05.01.2012 07:53 5,7 C 51 % 0,0 l/m 18,1 km/h (3 Bft) SW 229 25,7 km/h (4 Bft)
05.01.2012 07:54 5,7 C 52 % 0,0 l/m 13,7 km/h (3 Bft) S 183 20,9 km/h (4 Bft)
05.01.2012 07:55 5,7 C 52 % 0,0 l/m 12,6 km/h (3 Bft) S-SW 204 19,3 km/h (3 Bft)
05.01.2012 07:56 5,7 C 52 % 0,0 l/m 16,8 km/h (3 Bft) SW 228 25,7 km/h (4 Bft)
05.01.2012 07:57 5,7 C 52 % 0,0 l/m 12,2 km/h (2 Bft) SW 228 17,7 km/h (3 Bft)
05.01.2012 07:58 5,7 C 52 % 0,0 l/m 14,6 km/h (3 Bft) S-SW 207 19,3 km/h (3 Bft)
05.01.2012 07:59 5,7 C 53 % 0,0 l/m 13,0 km/h (3 Bft) S-SW 210 17,7 km/h (3 Bft)
05.01.2012 08:00 5,7 C 53 % 0,0 l/m 13,3 km/h (3 Bft) W-SW 246 17,7 km/h (3 Bft)
05.01.2012 08:01 5,7 C 53 % 0,0 l/m 14,2 km/h (3 Bft) S-SW 212 19,3 km/h (3 Bft)
05.01.2012 08:02 5,7 C 53 % 0,0 l/m 15,6 km/h (3 Bft) S 177 22,5 km/h (4 Bft)
05.01.2012 08:03 5,7 C 53 % 0,0 l/m 11,6 km/h (2 Bft) SW 225 14,5 km/h (3 Bft)
05.01.2012 08:04 5,6 C 53 % 0,0 l/m 14,1 km/h (3 Bft) S-SW 197 19,3 km/h (3 Bft)
05.01.2012 08:05 5,6 C 54 % 0,0 l/m 15,2 km/h (3 Bft) SW 232 19,3 km/h (3 Bft)
05.01.2012 08:06 5,6 C 54 % 0,0 l/m 13,0 km/h (3 Bft) SW 221 19,3 km/h (3 Bft)
05.01.2012 08:07 5,6 C 54 % 0,0 l/m 20,2 km/h (4 Bft) S-SW 204 30,6 km/h (5 Bft)
05.01.2012 08:08 5,6 C 54 % 0,0 l/m 19,8 km/h (3 Bft) SW 224 25,7 km/h (4 Bft)
05.01.2012 08:09 5,6 C 54 % 0,0 l/m 19,6 km/h (3 Bft) S-SO 159 27,4 km/h (4 Bft)
05.01.2012 08:10 5,6 C 54 % 0,0 l/m 17,7 km/h (3 Bft) S-SW 201 25,7 km/h (4 Bft)
05.01.2012 08:11 5,6 C 54 % 0,0 l/m 19,7 km/h (3 Bft) SW 219 29,0 km/h (5 Bft)
05.01.2012 08:12 5,6 C 54 % 0,0 l/m 17,4 km/h (3 Bft) SW 222 24,1 km/h (4 Bft)
05.01.2012 08:13 5,6 C 55 % 0,0 l/m 20,4 km/h (4 Bft) SW 219 27,4 km/h (4 Bft)
05.01.2012 08:14 5,6 C 55 % 0,0 l/m 20,9 km/h (4 Bft) S-SW 201 30,6 km/h (5 Bft)
05.01.2012 08:15 5,6 C 55 % 0,0 l/m 20,2 km/h (4 Bft) S-SW 210 30,6 km/h (5 Bft)
05.01.2012 08:16 5,6 C 55 % 0,0 l/m 15,2 km/h (3 Bft) W-SW 240 24,1 km/h (4 Bft)
05.01.2012 08:17 5,5 C 55 % 0,0 l/m 14,5 km/h (3 Bft) S-SO 158 24,1 km/h (4 Bft)
05.01.2012 08:18 5,5 C 55 % 0,0 l/m 23,5 km/h (4 Bft) SW 224 30,6 km/h (5 Bft)
05.01.2012 08:19 5,5 C 56 % 0,0 l/m 11,1 km/h (2 Bft) W-SW 240 19,3 km/h (3 Bft)
05.01.2012 08:20 5,5 C 56 % 0,0 l/m 17,0 km/h (3 Bft) SW 219 24,1 km/h (4 Bft)
05.01.2012 08:21 5,5 C 56 % 0,0 l/m 15,7 km/h (3 Bft) SW 215 20,9 km/h (4 Bft)
05.01.2012 08:22 5,4 C 57 % 0,0 l/m 16,5 km/h (3 Bft) S 184 24,1 km/h (4 Bft)
05.01.2012 08:23 5,4 C 56 % 0,0 l/m 17,5 km/h (3 Bft) S-SW 207 22,5 km/h (4 Bft)
05.01.2012 08:24 5,4 C 56 % 0,0 l/m 22,3 km/h (4 Bft) SW 217 27,4 km/h (4 Bft)
05.01.2012 08:25 5,4 C 57 % 0,0 l/m 15,3 km/h (3 Bft) SW 218 19,3 km/h (3 Bft)
05.01.2012 08:26 5,4 C 57 % 0,0 l/m 13,3 km/h (3 Bft) S 183 19,3 km/h (3 Bft)
05.01.2012 08:27 5,4 C 57 % 0,0 l/m 16,7 km/h (3 Bft) W 269 27,4 km/h (4 Bft)
05.01.2012 08:28 5,3 C 58 % 0,0 l/m 24,1 km/h (4 Bft) SW 226 30,6 km/h (5 Bft)
05.01.2012 08:29 5,4 C 57 % 0,0 l/m 23,5 km/h (4 Bft) SW 219 33,8 km/h (5 Bft)
05.01.2012 08:30 5,4 C 58 % 0,0 l/m 23,5 km/h (4 Bft) SW 215 38,6 km/h (5 Bft)
05.01.2012 08:31 5,4 C 58 % 0,0 l/m 15,9 km/h (3 Bft) W-SW 239 25,7 km/h (4 Bft)
05.01.2012 08:32 5,4 C 57 % 0,0 l/m 23,3 km/h (4 Bft) W-SW 250 30,6 km/h (5 Bft)
05.01.2012 08:33 5,4 C 57 % 0,0 l/m 24,9 km/h (4 Bft) SW 222 33,8 km/h (5 Bft)
05.01.2012 08:34 5,4 C 57 % 0,0 l/m 20,9 km/h (4 Bft) W-SW 243 29,0 km/h (5 Bft)
05.01.2012 08:35 5,4 C 58 % 0,0 l/m 15,9 km/h (3 Bft) S-SW 210 22,5 km/h (4 Bft)
05.01.2012 08:36 5,4 C 57 % 0,0 l/m 17,6 km/h (3 Bft) SW 214 22,5 km/h (4 Bft)
05.01.2012 08:37 5,4 C 57 % 0,0 l/m 20,4 km/h (4 Bft) W-SW 250 25,7 km/h (4 Bft)
05.01.2012 08:38 5,4 C 58 % 0,0 l/m 12,2 km/h (2 Bft) W-SW 240 19,3 km/h (3 Bft)
05.01.2012 08:39 5,4 C 58 % 0,0 l/m 13,8 km/h (3 Bft) S-SW 210 20,9 km/h (4 Bft)
05.01.2012 08:40 5,4 C 58 % 0,0 l/m 15,0 km/h (3 Bft) SW 215 24,1 km/h (4 Bft)
05.01.2012 08:41 5,3 C 58 % 0,0 l/m 17,7 km/h (3 Bft) SW 229 30,6 km/h (5 Bft)
05.01.2012 08:42 5,4 C 58 % 0,0 l/m 20,2 km/h (4 Bft) S 173 25,7 km/h (4 Bft)
05.01.2012 08:43 5,4 C 58 % 0,0 l/m 21,9 km/h (4 Bft) SW 222 27,4 km/h (4 Bft)
05.01.2012 08:44 5,4 C 59 % 0,0 l/m 16,9 km/h (3 Bft) SW 215 22,5 km/h (4 Bft)
05.01.2012 08:45 5,4 C 59 % 0,0 l/m 16,4 km/h (3 Bft) W 271 24,1 km/h (4 Bft)
05.01.2012 08:46 5,4 C 59 % 0,0 l/m 17,1 km/h (3 Bft) SW 222 27,4 km/h (4 Bft)
05.01.2012 08:47 5,4 C 59 % 0,0 l/m 16,5 km/h (3 Bft) SW 215 22,5 km/h (4 Bft)
05.01.2012 08:48 5,4 C 60 % 0,0 l/m 20,1 km/h (4 Bft) SW 232 27,4 km/h (4 Bft)
05.01.2012 08:49 5,4 C 60 % 0,0 l/m 17,1 km/h (3 Bft) SW 218 30,6 km/h (5 Bft)
05.01.2012 08:50 5,3 C 60 % 0,0 l/m 22,9 km/h (4 Bft) W 263 37,0 km/h (5 Bft)
05.01.2012 08:51 5,3 C 60 % 0,0 l/m 21,7 km/h (4 Bft) SW 225 33,8 km/h (5 Bft)
05.01.2012 08:52 5,4 C 60 % 0,0 l/m 23,6 km/h (4 Bft) SW 226 35,4 km/h (5 Bft)
05.01.2012 08:53 5,4 C 60 % 0,0 l/m 28,3 km/h (4 Bft) SW 231 45,1 km/h (6 Bft)
05.01.2012 08:54 5,4 C 60 % 0,0 l/m 29,4 km/h (5 Bft) W-SW 240 41,8 km/h (6 Bft)
05.01.2012 08:55 5,4 C 61 % 0,0 l/m 27,4 km/h (4 Bft) S-SW 206 40,2 km/h (6 Bft)
05.01.2012 08:56 5,4 C 61 % 0,0 l/m 24,6 km/h (4 Bft) SW 218 37,0 km/h (5 Bft)
05.01.2012 08:57 5,4 C 61 % 0,0 l/m 34,8 km/h (5 Bft) SW 217 45,1 km/h (6 Bft)
05.01.2012 08:58 5,5 C 61 % 0,0 l/m 24,6 km/h (4 Bft) S-SW 201 37,0 km/h (5 Bft)
05.01.2012 08:59 5,5 C 61 % 0,0 l/m 29,4 km/h (5 Bft) S-SW 193 41,8 km/h (6 Bft)
05.01.2012 09:00 5,5 C 61 % 0,0 l/m 34,1 km/h (5 Bft) W-SW 240 41,8 km/h (6 Bft)
05.01.2012 09:01 5,5 C 62 % 0,0 l/m 32,5 km/h (5 Bft) S-SW 194 49,9 km/h (6 Bft)
05.01.2012 09:02 5,5 C 62 % 0,0 l/m 35,5 km/h (5 Bft) SW 232 54,7 km/h (7 Bft)
05.01.2012 09:03 5,5 C 62 % 0,0 l/m 31,9 km/h (5 Bft) S-SW 208 49,9 km/h (6 Bft)
05.01.2012 09:04 5,5 C 63 % 0,0 l/m 33,3 km/h (5 Bft) W-SW 253 49,9 km/h (6 Bft)
05.01.2012 09:05 5,5 C 64 % 0,0 l/m 27,1 km/h (4 Bft) S-SW 200 32,2 km/h (5 Bft)
05.01.2012 09:06 5,5 C 64 % 0,0 l/m 35,1 km/h (5 Bft) S-SW 210 56,3 km/h (7 Bft)
05.01.2012 09:07 5,5 C 65 % 0,0 l/m 24,5 km/h (4 Bft) S-SW 195 37,0 km/h (5 Bft)
05.01.2012 09:08 5,5 C 65 % 0,0 l/m 24,0 km/h (4 Bft) SW 227 35,4 km/h (5 Bft)
05.01.2012 09:09 5,5 C 65 % 0,0 l/m 45,4 km/h (6 Bft) SW 224 54,7 km/h (7 Bft)
05.01.2012 09:10 5,5 C 65 % 0,0 l/m 25,9 km/h (4 Bft) S-SO 156 37,0 km/h (5 Bft)
05.01.2012 09:11 5,5 C 66 % 0,0 l/m 33,0 km/h (5 Bft) W-SW 240 49,9 km/h (6 Bft)
05.01.2012 09:12 5,5 C 66 % 0,0 l/m 33,4 km/h (5 Bft) SW 219 53,1 km/h (7 Bft)
05.01.2012 09:13 5,5 C 66 % 0,0 l/m 40,4 km/h (6 Bft) SW 235 53,1 km/h (7 Bft)
05.01.2012 09:14 5,5 C 67 % 0,0 l/m 31,7 km/h (5 Bft) S-SW 212 46,7 km/h (6 Bft)
05.01.2012 09:15 5,6 C 67 % 0,0 l/m 33,7 km/h (5 Bft) S-SW 194 53,1 km/h (7 Bft)
05.01.2012 09:16 5,6 C 67 % 0,0 l/m 30,1 km/h (5 Bft) S-SW 207 41,8 km/h (6 Bft)
05.01.2012 09:17 5,6 C 67 % 0,0 l/m 38,4 km/h (5 Bft) S 191 46,7 km/h (6 Bft)
05.01.2012 09:18 5,6 C 67 % 0,0 l/m 26,8 km/h (4 Bft) S-SW 208 46,7 km/h (6 Bft)
05.01.2012 09:19 5,6 C 67 % 0,0 l/m 32,4 km/h (5 Bft) S 181 48,3 km/h (6 Bft)
05.01.2012 09:20 5,6 C 67 % 0,0 l/m 31,4 km/h (5 Bft) S-SW 209 46,7 km/h (6 Bft)
05.01.2012 09:21 5,6 C 67 % 0,0 l/m 28,3 km/h (4 Bft) W-SW 239 35,4 km/h (5 Bft)
05.01.2012 09:22 5,5 C 68 % 0,0 l/m 27,8 km/h (4 Bft) S 191 38,6 km/h (5 Bft)
05.01.2012 09:23 5,5 C 68 % 0,0 l/m 26,0 km/h (4 Bft) SW 217 33,8 km/h (5 Bft)
05.01.2012 09:24 5,5 C 68 % 0,0 l/m 24,1 km/h (4 Bft) W-SW 238 37,0 km/h (5 Bft)
05.01.2012 09:25 5,5 C 68 % 0,0 l/m 34,0 km/h (5 Bft) W-SW 243 43,5 km/h (6 Bft)
05.01.2012 09:26 5,5 C 68 % 0,0 l/m 31,2 km/h (5 Bft) S-SW 209 45,1 km/h (6 Bft)
05.01.2012 09:27 5,5 C 68 % 0,0 l/m 34,3 km/h (5 Bft) SO 127 46,7 km/h (6 Bft)
05.01.2012 09:28 5,6 C 69 % 0,0 l/m 29,2 km/h (5 Bft) S-SW 205 40,2 km/h (6 Bft)
05.01.2012 09:29 5,5 C 69 % 0,0 l/m 29,9 km/h (5 Bft) SW 224 48,3 km/h (6 Bft)
05.01.2012 09:30 5,5 C 69 % 0,0 l/m 29,7 km/h (5 Bft) SW 217 38,6 km/h (5 Bft)
05.01.2012 09:31 5,5 C 70 % 0,0 l/m 32,4 km/h (5 Bft) SW 232 49,9 km/h (6 Bft)
05.01.2012 09:32 5,5 C 70 % 0,0 l/m 28,2 km/h (4 Bft) S 184 40,2 km/h (6 Bft)
05.01.2012 09:33 5,5 C 70 % 0,0 l/m 29,4 km/h (5 Bft) SW 219 40,2 km/h (6 Bft)
05.01.2012 09:34 5,5 C 70 % 0,0 l/m 35,1 km/h (5 Bft) SW 224 48,3 km/h (6 Bft)
05.01.2012 09:35 5,5 C 71 % 0,0 l/m 32,5 km/h (5 Bft) S-SW 210 45,1 km/h (6 Bft)
05.01.2012 09:36 5,5 C 71 % 0,0 l/m 28,6 km/h (4 Bft) S-SW 205 38,6 km/h (5 Bft)
05.01.2012 09:37 5,5 C 71 % 0,0 l/m 35,6 km/h (5 Bft) S-SO 165 51,5 km/h (7 Bft)
05.01.2012 09:38 5,4 C 71 % 0,0 l/m 31,0 km/h (5 Bft) W-SW 256 37,0 km/h (5 Bft)
05.01.2012 09:39 5,4 C 71 % 0,0 l/m 29,0 km/h (5 Bft) SW 224 41,8 km/h (6 Bft)
05.01.2012 09:40 5,4 C 72 % 0,0 l/m 29,1 km/h (5 Bft) S-SW 211 38,6 km/h (5 Bft)
05.01.2012 09:41 5,4 C 72 % 0,0 l/m 27,8 km/h (4 Bft) S 177 43,5 km/h (6 Bft)
05.01.2012 09:42 5,4 C 72 % 0,0 l/m 32,0 km/h (5 Bft) S 191 45,1 km/h (6 Bft)
05.01.2012 09:43 5,3 C 72 % 0,0 l/m 28,1 km/h (4 Bft) S-SW 208 38,6 km/h (5 Bft)
05.01.2012 09:44 5,3 C 73 % 0,0 l/m 24,9 km/h (4 Bft) S-SO 165 37,0 km/h (5 Bft)
05.01.2012 09:45 5,3 C 73 % 0,0 l/m 30,2 km/h (5 Bft) SW 225 41,8 km/h (6 Bft)
05.01.2012 09:46 5,3 C 73 % 0,0 l/m 25,7 km/h (4 Bft) W-SW 242 38,6 km/h (5 Bft)
05.01.2012 09:47 5,2 C 73 % 0,0 l/m 25,3 km/h (4 Bft) S-SW 197 37,0 km/h (5 Bft)
05.01.2012 09:48 5,2 C 73 % 0,0 l/m 23,5 km/h (4 Bft) S-SO 160 32,2 km/h (5 Bft)
05.01.2012 09:49 5,1 C 74 % 0,0 l/m 23,9 km/h (4 Bft) S-SW 205 35,4 km/h (5 Bft)
05.01.2012 09:50 5,1 C 74 % 0,0 l/m 22,7 km/h (4 Bft) S 174 35,4 km/h (5 Bft)
05.01.2012 09:51 5,1 C 74 % 0,0 l/m 30,7 km/h (5 Bft) S-SO 165 40,2 km/h (6 Bft)
05.01.2012 09:52 5,0 C 74 % 0,0 l/m 26,1 km/h (4 Bft) S-SW 193 43,5 km/h (6 Bft)
05.01.2012 09:53 4,9 C 74 % 0,0 l/m 25,8 km/h (4 Bft) SW 233 43,5 km/h (6 Bft)
05.01.2012 09:54 4,9 C 75 % 0,0 l/m 20,7 km/h (4 Bft) S-SO 163 33,8 km/h (5 Bft)
05.01.2012 09:55 4,9 C 75 % 0,0 l/m 28,0 km/h (4 Bft) W-SW 246 40,2 km/h (6 Bft)
05.01.2012 09:56 4,9 C 75 % 0,0 l/m 22,5 km/h (4 Bft) S-SW 207 33,8 km/h (5 Bft)
05.01.2012 09:57 4,9 C 75 % 0,0 l/m 25,1 km/h (4 Bft) S-SW 197 35,4 km/h (5 Bft)
05.01.2012 09:58 4,8 C 75 % 0,0 l/m 23,1 km/h (4 Bft) S-SW 198 40,2 km/h (6 Bft)
05.01.2012 09:59 4,8 C 76 % 0,0 l/m 20,2 km/h (4 Bft) S-SW 207 32,2 km/h (5 Bft)
05.01.2012 10:00 4,8 C 76 % 0,0 l/m 26,3 km/h (4 Bft) S 172 38,6 km/h (5 Bft)
05.01.2012 10:01 4,8 C 76 % 0,0 l/m 26,2 km/h (4 Bft) SW 217 33,8 km/h (5 Bft)
05.01.2012 10:02 4,8 C 76 % 0,0 l/m 22,5 km/h (4 Bft) SW 232 37,0 km/h (5 Bft)
05.01.2012 10:03 4,8 C 76 % 0,0 l/m 27,6 km/h (4 Bft) S-SW 209 37,0 km/h (5 Bft)
05.01.2012 10:04 4,7 C 76 % 0,0 l/m 22,5 km/h (4 Bft) S-SW 198 30,6 km/h (5 Bft)
05.01.2012 10:05 4,7 C 76 % 0,0 l/m 25,6 km/h (4 Bft) S-SW 205 40,2 km/h (6 Bft)
05.01.2012 10:06 4,7 C 76 % 0,0 l/m 21,0 km/h (4 Bft) SW 229 33,8 km/h (5 Bft)
05.01.2012 10:07 4,7 C 77 % 0,0 l/m 23,4 km/h (4 Bft) S-SW 203 33,8 km/h (5 Bft)
05.01.2012 10:08 4,7 C 77 % 0,0 l/m 20,7 km/h (4 Bft) S 191 37,0 km/h (5 Bft)
05.01.2012 10:09 4,7 C 77 % 0,0 l/m 23,3 km/h (4 Bft) S 183 35,4 km/h (5 Bft)
05.01.2012 10:10 4,7 C 76 % 0,0 l/m 26,5 km/h (4 Bft) SW 217 40,2 km/h (6 Bft)
05.01.2012 10:11 4,7 C 77 % 0,0 l/m 23,1 km/h (4 Bft) S-SW 207 38,6 km/h (5 Bft)
05.01.2012 10:12 4,7 C 77 % 0,0 l/m 21,6 km/h (4 Bft) S-SO 162 29,0 km/h (5 Bft)
05.01.2012 10:13 4,7 C 77 % 0,0 l/m 23,8 km/h (4 Bft) W-SW 250 32,2 km/h (5 Bft)
05.01.2012 10:14 4,7 C 77 % 0,0 l/m 20,0 km/h (4 Bft) S-SW 205 29,0 km/h (5 Bft)
05.01.2012 10:15 4,7 C 77 % 0,0 l/m 27,5 km/h (4 Bft) S-SW 204 37,0 km/h (5 Bft)
05.01.2012 10:16 4,7 C 77 % 0,0 l/m 22,2 km/h (4 Bft) S-SW 195 27,4 km/h (4 Bft)
05.01.2012 10:17 4,7 C 77 % 0,0 l/m 19,8 km/h (3 Bft) S 174 29,0 km/h (5 Bft)
05.01.2012 10:18 4,7 C 77 % 0,0 l/m 17,3 km/h (3 Bft) S 184 24,1 km/h (4 Bft)
05.01.2012 10:19 4,7 C 77 % 0,0 l/m 21,8 km/h (4 Bft) SW 226 29,0 km/h (5 Bft)
05.01.2012 10:20 4,7 C 77 % 0,0 l/m 19,6 km/h (3 Bft) SO 139 32,2 km/h (5 Bft)
05.01.2012 10:21 4,7 C 77 % 0,0 l/m 17,8 km/h (3 Bft) S 170 29,0 km/h (5 Bft)
05.01.2012 10:22 4,7 C 77 % 0,0 l/m 24,1 km/h (4 Bft) SW 215 33,8 km/h (5 Bft)
05.01.2012 10:23 4,7 C 77 % 0,0 l/m 19,4 km/h (3 Bft) SW 221 27,4 km/h (4 Bft)
05.01.2012 10:24 4,7 C 77 % 0,0 l/m 21,9 km/h (4 Bft) SW 221 32,2 km/h (5 Bft)
05.01.2012 10:25 4,7 C 77 % 0,0 l/m 22,4 km/h (4 Bft) SW 214 29,0 km/h (5 Bft)
05.01.2012 10:26 4,7 C 77 % 0,0 l/m 19,2 km/h (3 Bft) W-SW 243 29,0 km/h (5 Bft)
05.01.2012 10:27 4,7 C 76 % 0,0 l/m 21,3 km/h (4 Bft) SW 233 32,2 km/h (5 Bft)
05.01.2012 10:28 4,7 C 76 % 0,0 l/m 20,2 km/h (4 Bft) SW 236 29,0 km/h (5 Bft)
05.01.2012 10:29 4,8 C 76 % 0,0 l/m 19,0 km/h (3 Bft) W-SW 252 29,0 km/h (5 Bft)
05.01.2012 10:30 4,8 C 76 % 0,0 l/m 26,1 km/h (4 Bft) W 261 33,8 km/h (5 Bft)
05.01.2012 10:31 4,8 C 75 % 0,0 l/m 18,9 km/h (3 Bft) S-SW 210 25,7 km/h (4 Bft)
05.01.2012 10:32 4,9 C 75 % 0,0 l/m 25,3 km/h (4 Bft) S-SW 208 32,2 km/h (5 Bft)
05.01.2012 10:33 4,9 C 75 % 0,0 l/m 16,0 km/h (3 Bft) SW 236 20,9 km/h (4 Bft)
05.01.2012 10:34 4,9 C 75 % 0,0 l/m 14,5 km/h (3 Bft) SW 218 25,7 km/h (4 Bft)
05.01.2012 10:35 4,9 C 75 % 0,0 l/m 17,6 km/h (3 Bft) SW 233 25,7 km/h (4 Bft)
05.01.2012 10:36 5,0 C 75 % 0,0 l/m 14,3 km/h (3 Bft) SW 225 22,5 km/h (4 Bft)
05.01.2012 10:37 5,0 C 74 % 0,0 l/m 16,9 km/h (3 Bft) SW 235 25,7 km/h (4 Bft)
05.01.2012 10:38 5,1 C 74 % 0,0 l/m 13,4 km/h (3 Bft) SW 232 20,9 km/h (4 Bft)
05.01.2012 10:39 5,1 C 74 % 0,0 l/m 15,1 km/h (3 Bft) W-SW 242 22,5 km/h (4 Bft)
05.01.2012 10:40 5,1 C 74 % 0,0 l/m 16,9 km/h (3 Bft) S-SW 203 27,4 km/h (4 Bft)
05.01.2012 10:41 5,1 C 74 % 0,0 l/m 19,4 km/h (3 Bft) W-SW 238 27,4 km/h (4 Bft)
05.01.2012 10:42 5,1 C 74 % 0,0 l/m 19,5 km/h (3 Bft) SW 218 25,7 km/h (4 Bft)
05.01.2012 10:43 5,2 C 74 % 0,0 l/m 22,7 km/h (4 Bft) W-SW 244 29,0 km/h (5 Bft)
05.01.2012 10:44 5,2 C 73 % 0,0 l/m 14,3 km/h (3 Bft) W-SW 246 19,3 km/h (3 Bft)
05.01.2012 10:45 5,2 C 74 % 0,0 l/m 13,1 km/h (3 Bft) W-SW 243 19,3 km/h (3 Bft)
05.01.2012 10:46 5,2 C 74 % 0,0 l/m 16,1 km/h (3 Bft) W-SW 249 22,5 km/h (4 Bft)
05.01.2012 10:47 5,3 C 73 % 0,0 l/m 21,5 km/h (4 Bft) SW 226 25,7 km/h (4 Bft)
05.01.2012 10:48 5,3 C 73 % 0,0 l/m 19,6 km/h (3 Bft) S-SW 211 27,4 km/h (4 Bft)
05.01.2012 10:49 5,3 C 73 % 0,0 l/m 12,5 km/h (3 Bft) SW 219 17,7 km/h (3 Bft)
05.01.2012 10:50 5,3 C 73 % 0,0 l/m 14,1 km/h (3 Bft) S-SW 207 20,9 km/h (4 Bft)
05.01.2012 10:51 5,3 C 72 % 0,0 l/m 16,8 km/h (3 Bft) SW 226 24,1 km/h (4 Bft)
05.01.2012 10:52 5,4 C 72 % 0,0 l/m 16,6 km/h (3 Bft) S-SW 201 22,5 km/h (4 Bft)
05.01.2012 10:53 5,4 C 72 % 0,0 l/m 15,1 km/h (3 Bft) S 184 25,7 km/h (4 Bft)
05.01.2012 10:54 5,4 C 72 % 0,0 l/m 18,8 km/h (3 Bft) SW 224 25,7 km/h (4 Bft)
05.01.2012 10:55 5,4 C 72 % 0,0 l/m 15,9 km/h (3 Bft) S-SW 194 20,9 km/h (4 Bft)
05.01.2012 10:56 5,5 C 72 % 0,0 l/m 16,0 km/h (3 Bft) S-SW 203 29,0 km/h (5 Bft)
05.01.2012 10:57 5,5 C 72 % 0,0 l/m 13,1 km/h (3 Bft) S-SW 208 29,0 km/h (5 Bft)
05.01.2012 10:58 5,5 C 71 % 0,0 l/m 20,8 km/h (4 Bft) SW 224 38,6 km/h (5 Bft)
05.01.2012 10:59 5,6 C 70 % 0,0 l/m 23,9 km/h (4 Bft) W 279 37,0 km/h (5 Bft)
05.01.2012 11:00 5,6 C 71 % 0,0 l/m 19,4 km/h (3 Bft) S 170 27,4 km/h (4 Bft)
05.01.2012 11:01 5,7 C 70 % 0,0 l/m 25,6 km/h (4 Bft) W-SW 238 38,6 km/h (5 Bft)
05.01.2012 11:02 5,7 C 70 % 0,0 l/m 19,7 km/h (3 Bft) W-SW 252 29,0 km/h (5 Bft)
05.01.2012 11:03 5,7 C 69 % 0,0 l/m 18,3 km/h (3 Bft) W-SW 241 24,1 km/h (4 Bft)
05.01.2012 11:04 5,8 C 69 % 0,0 l/m 20,0 km/h (4 Bft) W-SW 238 30,6 km/h (5 Bft)
05.01.2012 11:05 5,8 C 69 % 0,0 l/m 22,9 km/h (4 Bft) SW 230 40,2 km/h (6 Bft)
05.01.2012 11:06 5,9 C 68 % 0,0 l/m 32,5 km/h (5 Bft) S-SW 208 43,5 km/h (6 Bft)
05.01.2012 11:07 5,9 C 68 % 0,0 l/m 20,5 km/h (4 Bft) SW 226 35,4 km/h (5 Bft)
05.01.2012 11:08 6,0 C 68 % 0,0 l/m 24,3 km/h (4 Bft) SW 225 37,0 km/h (5 Bft)
05.01.2012 11:09 6,0 C 68 % 0,0 l/m 25,0 km/h (4 Bft) S-SW 197 32,2 km/h (5 Bft)
05.01.2012 11:10 6,1 C 68 % 0,0 l/m 23,4 km/h (4 Bft) W-SW 253 33,8 km/h (5 Bft)
05.01.2012 11:11 6,1 C 67 % 0,0 l/m 30,6 km/h (5 Bft) SW 219 38,6 km/h (5 Bft)
05.01.2012 11:12 6,1 C 67 % 0,0 l/m 30,3 km/h (5 Bft) SW 215 40,2 km/h (6 Bft)
05.01.2012 11:13 6,1 C 67 % 0,0 l/m 27,7 km/h (4 Bft) S-SW 213 41,8 km/h (6 Bft)
05.01.2012 11:14 6,1 C 67 % 0,0 l/m 26,4 km/h (4 Bft) W-SW 240 38,6 km/h (5 Bft)
05.01.2012 11:15 6,2 C 67 % 0,0 l/m 26,3 km/h (4 Bft) W-SW 248 40,2 km/h (6 Bft)
05.01.2012 11:16 6,2 C 67 % 0,0 l/m 29,1 km/h (5 Bft) W-SW 245 33,8 km/h (5 Bft)
05.01.2012 11:17 6,2 C 67 % 0,0 l/m 26,1 km/h (4 Bft) S-SW 212 38,6 km/h (5 Bft)
05.01.2012 11:18 6,2 C 67 % 0,0 l/m 29,1 km/h (5 Bft) W-SW 253 45,1 km/h (6 Bft)
05.01.2012 11:19 6,2 C 67 % 0,0 l/m 25,1 km/h (4 Bft) S-SW 207 38,6 km/h (5 Bft)
05.01.2012 11:20 6,2 C 67 % 0,0 l/m 29,6 km/h (5 Bft) S-SW 200 41,8 km/h (6 Bft)
05.01.2012 11:21 6,2 C 67 % 0,0 l/m 37,2 km/h (5 Bft) S-SW 203 46,7 km/h (6 Bft)
05.01.2012 11:22 6,2 C 66 % 0,0 l/m 27,1 km/h (4 Bft) W-SW 239 40,2 km/h (6 Bft)
05.01.2012 11:23 6,2 C 66 % 0,0 l/m 29,8 km/h (5 Bft) SW 225 40,2 km/h (6 Bft)
05.01.2012 11:24 6,3 C 66 % 0,0 l/m 36,5 km/h (5 Bft) SW 228 48,3 km/h (6 Bft)
05.01.2012 11:25 6,3 C 66 % 0,0 l/m 28,1 km/h (4 Bft) W-SW 245 38,6 km/h (5 Bft)
05.01.2012 11:26 6,3 C 66 % 0,0 l/m 33,9 km/h (5 Bft) SW 236 53,1 km/h (7 Bft)
05.01.2012 11:27 6,3 C 67 % 0,0 l/m 32,9 km/h (5 Bft) SW 219 43,5 km/h (6 Bft)
05.01.2012 11:28 6,3 C 66 % 0,0 l/m 34,4 km/h (5 Bft) W-SW 240 45,1 km/h (6 Bft)
05.01.2012 11:29 6,3 C 66 % 0,0 l/m 30,0 km/h (5 Bft) SW 226 37,0 km/h (5 Bft)
05.01.2012 11:30 6,3 C 66 % 0,0 l/m 24,8 km/h (4 Bft) W-SW 249 43,5 km/h (6 Bft)
05.01.2012 11:31 6,3 C 66 % 0,0 l/m 33,0 km/h (5 Bft) S-SO 159 51,5 km/h (7 Bft)
05.01.2012 11:32 6,3 C 65 % 0,0 l/m 34,7 km/h (5 Bft) W-SW 249 48,3 km/h (6 Bft)
05.01.2012 11:33 6,3 C 66 % 0,0 l/m 32,9 km/h (5 Bft) SW 226 48,3 km/h (6 Bft)
05.01.2012 11:34 6,3 C 66 % 0,0 l/m 25,2 km/h (4 Bft) W-SW 246 45,1 km/h (6 Bft)
05.01.2012 11:35 6,3 C 66 % 0,0 l/m 35,7 km/h (5 Bft) W-SW 257 48,3 km/h (6 Bft)
05.01.2012 11:36 6,3 C 66 % 0,0 l/m 28,3 km/h (4 Bft) S 179 35,4 km/h (5 Bft)
05.01.2012 11:37 6,3 C 66 % 0,0 l/m 28,3 km/h (4 Bft) W-SW 238 38,6 km/h (5 Bft)
05.01.2012 11:38 6,3 C 66 % 0,0 l/m 29,8 km/h (5 Bft) SW 218 41,8 km/h (6 Bft)
05.01.2012 11:39 6,3 C 66 % 0,0 l/m 34,9 km/h (5 Bft) W-SW 255 43,5 km/h (6 Bft)
05.01.2012 11:40 6,3 C 66 % 0,0 l/m 38,7 km/h (5 Bft) S-SW 212 46,7 km/h (6 Bft)
05.01.2012 11:41 6,3 C 66 % 0,0 l/m 28,8 km/h (4 Bft) SW 228 49,9 km/h (6 Bft)
05.01.2012 11:42 6,3 C 65 % 0,0 l/m 33,3 km/h (5 Bft) S-SW 212 51,5 km/h (7 Bft)
05.01.2012 11:43 6,3 C 65 % 0,0 l/m 29,9 km/h (5 Bft) W-SW 245 43,5 km/h (6 Bft)
05.01.2012 11:44 6,3 C 65 % 0,0 l/m 30,2 km/h (5 Bft) SW 225 40,2 km/h (6 Bft)
05.01.2012 11:45 6,3 C 65 % 0,0 l/m 29,6 km/h (5 Bft) S-SW 207 38,6 km/h (5 Bft)
05.01.2012 11:46 6,3 C 66 % 0,0 l/m 30,4 km/h (5 Bft) W-SW 246 35,4 km/h (5 Bft)
05.01.2012 11:47 6,3 C 66 % 0,0 l/m 21,2 km/h (4 Bft) SW 219 29,0 km/h (5 Bft)
05.01.2012 11:48 6,3 C 66 % 0,0 l/m 22,3 km/h (4 Bft) S-SW 201 33,8 km/h (5 Bft)
05.01.2012 11:49 6,3 C 66 % 0,0 l/m 26,5 km/h (4 Bft) W 263 40,2 km/h (6 Bft)
05.01.2012 11:50 6,3 C 66 % 0,0 l/m 25,1 km/h (4 Bft) W-SW 238 46,7 km/h (6 Bft)
05.01.2012 11:51 6,3 C 66 % 0,0 l/m 30,5 km/h (5 Bft) S-SW 212 43,5 km/h (6 Bft)
05.01.2012 11:52 6,3 C 66 % 0,0 l/m 24,1 km/h (4 Bft) SW 221 40,2 km/h (6 Bft)
05.01.2012 11:53 6,2 C 66 % 0,0 l/m 23,4 km/h (4 Bft) W-NW 285 30,6 km/h (5 Bft)
05.01.2012 11:54 6,2 C 66 % 0,0 l/m 23,4 km/h (4 Bft) S-SW 211 32,2 km/h (5 Bft)
05.01.2012 11:55 6,2 C 67 % 0,0 l/m 26,5 km/h (4 Bft) W-SW 240 37,0 km/h (5 Bft)
05.01.2012 11:56 6,2 C 66 % 0,0 l/m 23,0 km/h (4 Bft) S-SW 212 40,2 km/h (6 Bft)
05.01.2012 11:57 6,2 C 67 % 0,0 l/m 25,0 km/h (4 Bft) SW 224 37,0 km/h (5 Bft)
05.01.2012 11:58 6,2 C 67 % 0,0 l/m 25,1 km/h (4 Bft) S-SW 208 33,8 km/h (5 Bft)
05.01.2012 11:59 6,2 C 67 % 0,0 l/m 24,2 km/h (4 Bft) SW 235 40,2 km/h (6 Bft)
05.01.2012 12:00 6,2 C 66 % 0,0 l/m 28,0 km/h (4 Bft) SW 232 35,4 km/h (5 Bft)
05.01.2012 12:01 6,2 C 67 % 0,0 l/m 18,7 km/h (3 Bft) W-SW 245 25,7 km/h (4 Bft)
05.01.2012 12:02 6,2 C 67 % 0,0 l/m 24,8 km/h (4 Bft) W-SW 250 33,8 km/h (5 Bft)
05.01.2012 12:03 6,2 C 66 % 0,0 l/m 29,4 km/h (5 Bft) W-SW 248 41,8 km/h (6 Bft)
05.01.2012 12:04 6,2 C 66 % 0,0 l/m 19,2 km/h (3 Bft) S-SW 210 29,0 km/h (5 Bft)
05.01.2012 12:05 6,2 C 67 % 0,0 l/m 23,2 km/h (4 Bft) SW 229 32,2 km/h (5 Bft)
05.01.2012 12:06 6,2 C 66 % 0,0 l/m 24,5 km/h (4 Bft) W-SW 238 33,8 km/h (5 Bft)
05.01.2012 12:07 6,2 C 66 % 0,0 l/m 32,3 km/h (5 Bft) SW 222 40,2 km/h (6 Bft)
05.01.2012 12:08 6,2 C 67 % 0,0 l/m 25,0 km/h (4 Bft) S-SW 205 32,2 km/h (5 Bft)
05.01.2012 12:09 6,2 C 66 % 0,0 l/m 27,0 km/h (4 Bft) W-SW 246 32,2 km/h (5 Bft)
05.01.2012 12:10 6,2 C 67 % 0,0 l/m 17,8 km/h (3 Bft) SW 226 24,1 km/h (4 Bft)
05.01.2012 12:11 6,2 C 66 % 0,0 l/m 22,5 km/h (4 Bft) W-SW 240 32,2 km/h (5 Bft)
05.01.2012 12:12 6,2 C 66 % 0,0 l/m 24,7 km/h (4 Bft) S-SO 162 35,4 km/h (5 Bft)
05.01.2012 12:13 6,2 C 66 % 0,0 l/m 30,4 km/h (5 Bft) S-SW 195 41,8 km/h (6 Bft)
05.01.2012 12:14 6,2 C 66 % 0,0 l/m 24,4 km/h (4 Bft) S-SW 199 37,0 km/h (5 Bft)
05.01.2012 12:15 6,2 C 66 % 0,0 l/m 22,7 km/h (4 Bft) S-SW 212 32,2 km/h (5 Bft)
05.01.2012 12:16 6,2 C 66 % 0,0 l/m 22,0 km/h (4 Bft) W-SW 239 33,8 km/h (5 Bft)
05.01.2012 12:17 6,2 C 67 % 0,0 l/m 25,6 km/h (4 Bft) SW 221 35,4 km/h (5 Bft)
05.01.2012 12:18 6,2 C 66 % 0,0 l/m 22,7 km/h (4 Bft) S 169 33,8 km/h (5 Bft)
05.01.2012 12:19 6,2 C 66 % 0,0 l/m 31,3 km/h (5 Bft) SW 232 45,1 km/h (6 Bft)
05.01.2012 12:20 6,2 C 66 % 0,0 l/m 16,4 km/h (3 Bft) SW 214 24,1 km/h (4 Bft)
05.01.2012 12:21 6,2 C 66 % 0,0 l/m 27,4 km/h (4 Bft) SW 214 32,2 km/h (5 Bft)
05.01.2012 12:22 6,2 C 66 % 0,0 l/m 24,0 km/h (4 Bft) SW 229 30,6 km/h (5 Bft)
05.01.2012 12:23 6,2 C 67 % 0,0 l/m 17,7 km/h (3 Bft) S-SW 213 24,1 km/h (4 Bft)
05.01.2012 12:24 6,2 C 67 % 0,0 l/m 23,6 km/h (4 Bft) W-SW 242 32,2 km/h (5 Bft)
05.01.2012 12:25 6,2 C 67 % 0,0 l/m 24,3 km/h (4 Bft) SW 226 37,0 km/h (5 Bft)
05.01.2012 12:26 6,2 C 67 % 0,0 l/m 21,9 km/h (4 Bft) SW 231 29,0 km/h (5 Bft)
05.01.2012 12:27 6,2 C 67 % 0,0 l/m 17,7 km/h (3 Bft) SW 230 25,7 km/h (4 Bft)
05.01.2012 12:28 6,2 C 67 % 0,0 l/m 20,2 km/h (4 Bft) S-SO 161 35,4 km/h (5 Bft)
05.01.2012 12:29 6,2 C 67 % 0,0 l/m 18,8 km/h (3 Bft) SW 229 33,8 km/h (5 Bft)
05.01.2012 12:30 6,2 C 67 % 0,0 l/m 20,0 km/h (4 Bft) SW 217 30,6 km/h (5 Bft)
05.01.2012 12:31 6,2 C 66 % 0,0 l/m 20,7 km/h (4 Bft) SW 232 38,6 km/h (5 Bft)
05.01.2012 12:32 6,2 C 66 % 0,0 l/m 20,5 km/h (4 Bft) W-SW 245 37,0 km/h (5 Bft)
05.01.2012 12:33 6,2 C 67 % 0,0 l/m 18,6 km/h (3 Bft) S-SW 198 22,5 km/h (4 Bft)
05.01.2012 12:34 6,2 C 66 % 0,0 l/m 23,8 km/h (4 Bft) S-SW 207 33,8 km/h (5 Bft)
05.01.2012 12:35 6,2 C 66 % 0,0 l/m 21,3 km/h (4 Bft) W-SW 250 30,6 km/h (5 Bft)
05.01.2012 12:36 6,2 C 66 % 0,0 l/m 21,2 km/h (4 Bft) S-SW 210 27,4 km/h (4 Bft)
05.01.2012 12:37 6,2 C 66 % 0,0 l/m 26,4 km/h (4 Bft) SW 222 37,0 km/h (5 Bft)
05.01.2012 12:38 6,2 C 66 % 0,0 l/m 24,1 km/h (4 Bft) W-SW 250 30,6 km/h (5 Bft)
05.01.2012 12:39 6,2 C 66 % 0,0 l/m 17,1 km/h (3 Bft) S-SW 212 27,4 km/h (4 Bft)
05.01.2012 12:40 6,2 C 66 % 0,0 l/m 16,2 km/h (3 Bft) S-SW 207 27,4 km/h (4 Bft)
05.01.2012 12:41 6,3 C 66 % 0,0 l/m 16,6 km/h (3 Bft) W-SW 248 27,4 km/h (4 Bft)
05.01.2012 12:42 6,3 C 66 % 0,0 l/m 17,2 km/h (3 Bft) S-SW 204 27,4 km/h (4 Bft)
05.01.2012 12:43 6,3 C 66 % 0,0 l/m 18,2 km/h (3 Bft) SW 228 25,7 km/h (4 Bft)
05.01.2012 12:44 6,3 C 65 % 0,0 l/m 23,2 km/h (4 Bft) SW 235 30,6 km/h (5 Bft)
05.01.2012 12:45 6,3 C 65 % 0,0 l/m 23,1 km/h (4 Bft) S-SW 210 33,8 km/h (5 Bft)
05.01.2012 12:46 6,3 C 65 % 0,0 l/m 24,9 km/h (4 Bft) SW 218 37,0 km/h (5 Bft)
05.01.2012 12:47 6,3 C 65 % 0,0 l/m 20,3 km/h (4 Bft) W-SW 243 33,8 km/h (5 Bft)
05.01.2012 12:48 6,4 C 65 % 0,0 l/m 17,8 km/h (3 Bft) SW 214 27,4 km/h (4 Bft)
05.01.2012 12:49 6,4 C 65 % 0,0 l/m 25,4 km/h (4 Bft) S-SW 210 30,6 km/h (5 Bft)
05.01.2012 12:50 6,4 C 65 % 0,0 l/m 22,1 km/h (4 Bft) SW 232 30,6 km/h (5 Bft)
05.01.2012 12:51 6,4 C 64 % 0,0 l/m 21,5 km/h (4 Bft) SW 228 38,6 km/h (5 Bft)
05.01.2012 12:52 6,4 C 64 % 0,0 l/m 22,8 km/h (4 Bft) W-SW 244 30,6 km/h (5 Bft)
05.01.2012 12:53 6,5 C 63 % 0,0 l/m 29,0 km/h (5 Bft) SW 222 41,8 km/h (6 Bft)
05.01.2012 12:54 6,5 C 63 % 0,0 l/m 25,3 km/h (4 Bft) SW 217 37,0 km/h (5 Bft)
05.01.2012 12:55 6,6 C 63 % 0,0 l/m 26,5 km/h (4 Bft) SW 232 37,0 km/h (5 Bft)
05.01.2012 12:56 6,6 C 63 % 0,0 l/m 27,0 km/h (4 Bft) SW 224 35,4 km/h (5 Bft)
05.01.2012 12:57 6,6 C 63 % 0,0 l/m 22,0 km/h (4 Bft) SW 232 30,6 km/h (5 Bft)
05.01.2012 12:58 6,6 C 63 % 0,0 l/m 27,4 km/h (4 Bft) SW 228 38,6 km/h (5 Bft)
05.01.2012 12:59 6,6 C 63 % 0,0 l/m 19,2 km/h (3 Bft) S-SW 210 29,0 km/h (5 Bft)
05.01.2012 13:00 6,7 C 62 % 0,0 l/m 28,2 km/h (4 Bft) SW 233 37,0 km/h (5 Bft)
05.01.2012 13:01 6,7 C 62 % 0,0 l/m 26,9 km/h (4 Bft) W-SW 240 35,4 km/h (5 Bft)
05.01.2012 13:02 6,7 C 62 % 0,0 l/m 25,3 km/h (4 Bft) S-SW 205 40,2 km/h (6 Bft)
05.01.2012 13:03 6,7 C 62 % 0,0 l/m 25,1 km/h (4 Bft) S-SW 208 32,2 km/h (5 Bft)
05.01.2012 13:04 6,7 C 62 % 0,0 l/m 18,8 km/h (3 Bft) W-NW 299 27,4 km/h (4 Bft)
05.01.2012 13:05 6,7 C 62 % 0,0 l/m 21,9 km/h (4 Bft) SW 217 32,2 km/h (5 Bft)
05.01.2012 13:06 6,7 C 62 % 0,0 l/m 20,8 km/h (4 Bft) S-SW 198 30,6 km/h (5 Bft)
05.01.2012 13:07 6,8 C 62 % 0,0 l/m 20,5 km/h (4 Bft) SW 233 27,4 km/h (4 Bft)
05.01.2012 13:08 6,8 C 61 % 0,0 l/m 28,6 km/h (4 Bft) SW 226 41,8 km/h (6 Bft)
05.01.2012 13:09 6,8 C 61 % 0,0 l/m 33,7 km/h (5 Bft) SW 233 45,1 km/h (6 Bft)
05.01.2012 13:10 6,8 C 61 % 0,0 l/m 25,3 km/h (4 Bft) W 260 37,0 km/h (5 Bft)
05.01.2012 13:11 6,8 C 61 % 0,0 l/m 25,4 km/h (4 Bft) SW 225 37,0 km/h (5 Bft)
05.01.2012 13:12 6,8 C 61 % 0,0 l/m 19,6 km/h (3 Bft) W-SW 238 32,2 km/h (5 Bft)
05.01.2012 13:13 6,8 C 61 % 0,0 l/m 23,1 km/h (4 Bft) SW 235 40,2 km/h (6 Bft)
05.01.2012 13:14 6,9 C 61 % 0,0 l/m 22,2 km/h (4 Bft) W-SW 253 27,4 km/h (4 Bft)
05.01.2012 13:15 6,9 C 61 % 0,0 l/m 22,6 km/h (4 Bft) SW 217 38,6 km/h (5 Bft)
05.01.2012 13:16 6,9 C 61 % 0,0 l/m 27,3 km/h (4 Bft) SW 225 35,4 km/h (5 Bft)
05.01.2012 13:17 6,9 C 61 % 0,0 l/m 35,6 km/h (5 Bft) SW 222 38,6 km/h (5 Bft)
05.01.2012 13:18 6,9 C 61 % 0,0 l/m 27,9 km/h (4 Bft) SW 225 35,4 km/h (5 Bft)
05.01.2012 13:19 6,8 C 61 % 0,0 l/m 24,3 km/h (4 Bft) S-SW 212 37,0 km/h (5 Bft)
05.01.2012 13:20 6,8 C 61 % 0,0 l/m 20,6 km/h (4 Bft) SW 226 27,4 km/h (4 Bft)
05.01.2012 13:21 6,8 C 61 % 0,0 l/m 25,3 km/h (4 Bft) SW 225 37,0 km/h (5 Bft)
05.01.2012 13:22 6,8 C 61 % 0,0 l/m 23,3 km/h (4 Bft) W-SW 255 35,4 km/h (5 Bft)
05.01.2012 13:23 6,8 C 61 % 0,0 l/m 24,7 km/h (4 Bft) S-SW 197 33,8 km/h (5 Bft)
05.01.2012 13:24 6,8 C 62 % 0,0 l/m 22,4 km/h (4 Bft) S-SW 201 29,0 km/h (5 Bft)
05.01.2012 13:25 6,8 C 61 % 0,0 l/m 31,2 km/h (5 Bft) SW 224 41,8 km/h (6 Bft)
05.01.2012 13:26 6,8 C 61 % 0,0 l/m 23,9 km/h (4 Bft) W 278 43,5 km/h (6 Bft)
05.01.2012 13:27 6,8 C 61 % 0,0 l/m 22,4 km/h (4 Bft) SW 225 32,2 km/h (5 Bft)
05.01.2012 13:28 6,8 C 61 % 0,0 l/m 24,1 km/h (4 Bft) SW 225 35,4 km/h (5 Bft)
05.01.2012 13:29 6,8 C 61 % 0,0 l/m 22,8 km/h (4 Bft) S-SW 207 35,4 km/h (5 Bft)
05.01.2012 13:30 6,8 C 62 % 0,0 l/m 22,5 km/h (4 Bft) SW 235 29,0 km/h (5 Bft)
05.01.2012 13:31 6,8 C 62 % 0,0 l/m 26,9 km/h (4 Bft) SW 217 41,8 km/h (6 Bft)
05.01.2012 13:32 6,8 C 61 % 0,0 l/m 24,1 km/h (4 Bft) SW 219 37,0 km/h (5 Bft)
05.01.2012 13:33 6,8 C 61 % 0,0 l/m 22,5 km/h (4 Bft) S-SW 198 32,2 km/h (5 Bft)
05.01.2012 13:34 6,8 C 61 % 0,0 l/m 22,0 km/h (4 Bft) W-NW 297 32,2 km/h (5 Bft)
05.01.2012 13:35 6,8 C 62 % 0,0 l/m 17,9 km/h (3 Bft) SW 232 30,6 km/h (5 Bft)
05.01.2012 13:36 6,8 C 61 % 0,0 l/m 24,0 km/h (4 Bft) SW 233 35,4 km/h (5 Bft)
05.01.2012 13:37 6,8 C 62 % 0,0 l/m 21,5 km/h (4 Bft) SW 219 33,8 km/h (5 Bft)
05.01.2012 13:38 6,8 C 62 % 0,0 l/m 21,8 km/h (4 Bft) SW 218 32,2 km/h (5 Bft)
05.01.2012 13:39 6,8 C 62 % 0,0 l/m 27,1 km/h (4 Bft) W-NW 293 38,6 km/h (5 Bft)
05.01.2012 13:40 6,8 C 62 % 0,0 l/m 22,3 km/h (4 Bft) SW 224 35,4 km/h (5 Bft)
05.01.2012 13:41 6,8 C 61 % 0,0 l/m 23,9 km/h (4 Bft) SO 139 33,8 km/h (5 Bft)
05.01.2012 13:42 6,8 C 62 % 0,0 l/m 14,8 km/h (3 Bft) S-SW 210 25,7 km/h (4 Bft)
05.01.2012 13:43 6,8 C 62 % 0,0 l/m 23,0 km/h (4 Bft) S-SW 211 35,4 km/h (5 Bft)
05.01.2012 13:44 6,8 C 62 % 0,0 l/m 23,0 km/h (4 Bft) S-SW 203 32,2 km/h (5 Bft)
05.01.2012 13:45 6,8 C 62 % 0,0 l/m 18,4 km/h (3 Bft) W-NW 284 32,2 km/h (5 Bft)
05.01.2012 13:46 6,8 C 62 % 0,0 l/m 19,5 km/h (3 Bft) SW 233 27,4 km/h (4 Bft)
05.01.2012 13:47 6,8 C 62 % 0,0 l/m 23,6 km/h (4 Bft) S-SW 201 33,8 km/h (5 Bft)
05.01.2012 13:48 6,8 C 62 % 0,0 l/m 16,9 km/h (3 Bft) S 190 25,7 km/h (4 Bft)
05.01.2012 13:49 6,8 C 62 % 0,0 l/m 16,1 km/h (3 Bft) S 186 20,9 km/h (4 Bft)
05.01.2012 13:50 6,8 C 62 % 0,0 l/m 20,5 km/h (4 Bft) S-SW 200 27,4 km/h (4 Bft)
05.01.2012 13:51 6,8 C 62 % 0,0 l/m 20,0 km/h (4 Bft) SW 222 25,7 km/h (4 Bft)
05.01.2012 13:52 6,8 C 62 % 0,0 l/m 21,1 km/h (4 Bft) SW 232 32,2 km/h (5 Bft)
05.01.2012 13:53 6,8 C 62 % 0,0 l/m 18,6 km/h (3 Bft) SW 226 24,1 km/h (4 Bft)
05.01.2012 13:54 6,8 C 61 % 0,0 l/m 25,9 km/h (4 Bft) SW 233 35,4 km/h (5 Bft)
05.01.2012 13:55 6,8 C 61 % 0,0 l/m 21,6 km/h (4 Bft) SO 140 30,6 km/h (5 Bft)
05.01.2012 13:56 6,8 C 61 % 0,0 l/m 22,9 km/h (4 Bft) S-SW 207 32,2 km/h (5 Bft)
05.01.2012 13:57 6,9 C 61 % 0,0 l/m 19,5 km/h (3 Bft) S-SW 205 32,2 km/h (5 Bft)
05.01.2012 13:58 6,9 C 61 % 0,0 l/m 22,3 km/h (4 Bft) SW 235 29,0 km/h (5 Bft)
05.01.2012 13:59 6,8 C 61 % 0,0 l/m 19,7 km/h (3 Bft) S-SO 167 25,7 km/h (4 Bft)
05.01.2012 14:00 6,9 C 61 % 0,0 l/m 22,2 km/h (4 Bft) S-SW 207 30,6 km/h (5 Bft)
05.01.2012 14:01 6,9 C 61 % 0,0 l/m 20,3 km/h (4 Bft) W 259 27,4 km/h (4 Bft)
05.01.2012 14:02 6,9 C 61 % 0,0 l/m 20,2 km/h (4 Bft) SW 218 27,4 km/h (4 Bft)
05.01.2012 14:03 6,9 C 61 % 0,0 l/m 22,3 km/h (4 Bft) SW 214 30,6 km/h (5 Bft)
05.01.2012 14:04 6,8 C 62 % 0,0 l/m 22,0 km/h (4 Bft) S-SW 194 32,2 km/h (5 Bft)
05.01.2012 14:05 6,8 C 61 % 0,0 l/m 26,2 km/h (4 Bft) S-SW 212 35,4 km/h (5 Bft)
05.01.2012 14:06 6,8 C 61 % 0,0 l/m 22,4 km/h (4 Bft) SW 215 29,0 km/h (5 Bft)
05.01.2012 14:07 6,8 C 61 % 0,0 l/m 19,1 km/h (3 Bft) SW 222 25,7 km/h (4 Bft)
05.01.2012 14:08 6,8 C 61 % 0,0 l/m 22,9 km/h (4 Bft) S-SW 198 33,8 km/h (5 Bft)
05.01.2012 14:09 6,8 C 62 % 0,0 l/m 19,5 km/h (3 Bft) SW 229 22,5 km/h (4 Bft)
05.01.2012 14:10 6,8 C 62 % 0,0 l/m 21,3 km/h (4 Bft) SW 219 30,6 km/h (5 Bft)
05.01.2012 14:11 6,8 C 62 % 0,0 l/m 19,0 km/h (3 Bft) S-SW 195 24,1 km/h (4 Bft)
05.01.2012 14:12 6,7 C 61 % 0,0 l/m 20,9 km/h (4 Bft) SW 225 27,4 km/h (4 Bft)
05.01.2012 14:13 6,7 C 62 % 0,0 l/m 20,7 km/h (4 Bft) S-SW 208 32,2 km/h (5 Bft)
05.01.2012 14:14 6,7 C 61 % 0,0 l/m 16,7 km/h (3 Bft) S-SO 162 20,9 km/h (4 Bft)
05.01.2012 14:15 6,7 C 62 % 0,0 l/m 12,8 km/h (3 Bft) SW 226 19,3 km/h (3 Bft)
05.01.2012 14:16 6,7 C 62 % 0,0 l/m 17,0 km/h (3 Bft) W-SW 239 25,7 km/h (4 Bft)
05.01.2012 14:17 6,7 C 62 % 0,0 l/m 19,7 km/h (3 Bft) S-SW 195 25,7 km/h (4 Bft)
05.01.2012 14:18 6,7 C 62 % 0,0 l/m 15,3 km/h (3 Bft) W-SW 245 22,5 km/h (4 Bft)
05.01.2012 14:19 6,7 C 62 % 0,0 l/m 17,7 km/h (3 Bft) SW 225 24,1 km/h (4 Bft)
05.01.2012 14:20 6,7 C 62 % 0,0 l/m 19,5 km/h (3 Bft) SW 222 25,7 km/h (4 Bft)
05.01.2012 14:21 6,7 C 62 % 0,0 l/m 18,0 km/h (3 Bft) W-SW 245 24,1 km/h (4 Bft)
05.01.2012 14:22 6,7 C 62 % 0,0 l/m 14,9 km/h (3 Bft) SW 215 19,3 km/h (3 Bft)
05.01.2012 14:23 6,7 C 62 % 0,0 l/m 16,3 km/h (3 Bft) SW 214 20,9 km/h (4 Bft)
05.01.2012 14:24 6,7 C 62 % 0,0 l/m 19,6 km/h (3 Bft) SW 222 29,0 km/h (5 Bft)
05.01.2012 14:25 6,7 C 62 % 0,0 l/m 14,3 km/h (3 Bft) S-SW 208 20,9 km/h (4 Bft)
05.01.2012 14:26 6,7 C 62 % 0,0 l/m 11,1 km/h (2 Bft) S-SO 166 16,1 km/h (3 Bft)
05.01.2012 14:27 6,7 C 62 % 0,0 l/m 11,5 km/h (2 Bft) S 173 14,5 km/h (3 Bft)
05.01.2012 14:28 6,7 C 62 % 0,0 l/m 11,9 km/h (2 Bft) S-SO 158 24,1 km/h (4 Bft)
05.01.2012 14:29 6,7 C 62 % 0,0 l/m 18,8 km/h (3 Bft) SW 228 25,7 km/h (4 Bft)
05.01.2012 14:30 6,7 C 62 % 0,0 l/m 14,2 km/h (3 Bft) SW 228 22,5 km/h (4 Bft)
05.01.2012 14:31 6,7 C 62 % 0,0 l/m 13,0 km/h (3 Bft) W-SW 256 19,3 km/h (3 Bft)
05.01.2012 14:32 6,7 C 62 % 0,0 l/m 13,5 km/h (3 Bft) S 180 22,5 km/h (4 Bft)
05.01.2012 14:33 6,7 C 62 % 0,0 l/m 17,2 km/h (3 Bft) S-SW 207 22,5 km/h (4 Bft)
05.01.2012 14:34 6,7 C 62 % 0,0 l/m 13,9 km/h (3 Bft) S-SW 207 20,9 km/h (4 Bft)
05.01.2012 14:35 6,7 C 62 % 0,0 l/m 14,9 km/h (3 Bft) SW 222 22,5 km/h (4 Bft)
05.01.2012 14:36 6,6 C 62 % 0,0 l/m 15,4 km/h (3 Bft) S-SW 207 22,5 km/h (4 Bft)
05.01.2012 14:37 6,6 C 62 % 0,0 l/m 16,3 km/h (3 Bft) S-SW 210 20,9 km/h (4 Bft)
05.01.2012 14:38 6,6 C 63 % 0,0 l/m 10,4 km/h (2 Bft) W-SW 253 14,5 km/h (3 Bft)
05.01.2012 14:39 6,6 C 63 % 0,0 l/m 9,9 km/h (2 Bft) S-SW 207 12,9 km/h (3 Bft)
05.01.2012 14:40 6,6 C 63 % 0,0 l/m 11,9 km/h (2 Bft) S-SW 212 14,5 km/h (3 Bft)
05.01.2012 14:41 6,6 C 63 % 0,0 l/m 11,4 km/h (2 Bft) SW 217 12,9 km/h (3 Bft)
05.01.2012 14:42 6,5 C 63 % 0,0 l/m 9,7 km/h (2 Bft) SW 222 14,5 km/h (3 Bft)
05.01.2012 14:43 6,6 C 62 % 0,0 l/m 15,0 km/h (3 Bft) S-SW 213 20,9 km/h (4 Bft)
05.01.2012 14:44 6,6 C 62 % 0,0 l/m 13,5 km/h (3 Bft) SW 217 19,3 km/h (3 Bft)
05.01.2012 14:45 6,6 C 62 % 0,0 l/m 13,0 km/h (3 Bft) S-SW 200 19,3 km/h (3 Bft)
05.01.2012 14:46 6,6 C 62 % 0,0 l/m 12,5 km/h (3 Bft) SW 231 17,7 km/h (3 Bft)
05.01.2012 14:47 6,6 C 62 % 0,0 l/m 17,2 km/h (3 Bft) SW 228 24,1 km/h (4 Bft)
05.01.2012 14:48 6,6 C 62 % 0,0 l/m 15,2 km/h (3 Bft) S 188 24,1 km/h (4 Bft)
05.01.2012 14:49 6,6 C 62 % 0,0 l/m 17,9 km/h (3 Bft) S-SW 212 22,5 km/h (4 Bft)
05.01.2012 14:50 6,6 C 62 % 0,0 l/m 19,3 km/h (3 Bft) SW 225 22,5 km/h (4 Bft)
05.01.2012 14:51 6,6 C 62 % 0,0 l/m 17,3 km/h (3 Bft) S-SW 208 24,1 km/h (4 Bft)
05.01.2012 14:52 6,6 C 62 % 0,0 l/m 15,2 km/h (3 Bft) S-SW 203 22,5 km/h (4 Bft)
05.01.2012 14:53 6,6 C 62 % 0,0 l/m 13,2 km/h (3 Bft) S 191 17,7 km/h (3 Bft)
05.01.2012 14:54 6,6 C 62 % 0,0 l/m 12,8 km/h (3 Bft) S-SO 167 17,7 km/h (3 Bft)
05.01.2012 14:55 6,5 C 62 % 0,0 l/m 15,2 km/h (3 Bft) SW 226 22,5 km/h (4 Bft)
05.01.2012 14:56 6,5 C 62 % 0,0 l/m 15,7 km/h (3 Bft) S-SW 200 22,5 km/h (4 Bft)
05.01.2012 14:57 6,5 C 62 % 0,0 l/m 11,1 km/h (2 Bft) S 184 19,3 km/h (3 Bft)
05.01.2012 14:58 6,5 C 62 % 0,0 l/m 17,9 km/h (3 Bft) S-SW 197 24,1 km/h (4 Bft)
05.01.2012 14:59 6,5 C 62 % 0,0 l/m 19,7 km/h (3 Bft) S-SW 204 30,6 km/h (5 Bft)
05.01.2012 15:00 6,5 C 62 % 0,0 l/m 23,8 km/h (4 Bft) S-SW 195 32,2 km/h (5 Bft)
05.01.2012 15:01 6,5 C 62 % 0,0 l/m 20,8 km/h (4 Bft) S-SW 208 35,4 km/h (5 Bft)
05.01.2012 15:02 6,5 C 62 % 0,0 l/m 24,4 km/h (4 Bft) S-SW 213 32,2 km/h (5 Bft)
05.01.2012 15:03 6,4 C 63 % 0,0 l/m 21,4 km/h (4 Bft) SW 222 29,0 km/h (5 Bft)
05.01.2012 15:04 6,4 C 63 % 0,0 l/m 24,5 km/h (4 Bft) S-SW 211 35,4 km/h (5 Bft)
05.01.2012 15:05 6,4 C 63 % 0,0 l/m 20,7 km/h (4 Bft) W-SW 238 30,6 km/h (5 Bft)
05.01.2012 15:06 6,4 C 63 % 0,0 l/m 27,5 km/h (4 Bft) SW 229 33,8 km/h (5 Bft)
05.01.2012 15:07 6,4 C 63 % 0,0 l/m 22,4 km/h (4 Bft) S-SW 210 30,6 km/h (5 Bft)
05.01.2012 15:08 6,4 C 63 % 0,0 l/m 20,2 km/h (4 Bft) S-SW 203 30,6 km/h (5 Bft)
05.01.2012 15:09 6,4 C 63 % 0,0 l/m 18,4 km/h (3 Bft) SW 219 27,4 km/h (4 Bft)
05.01.2012 15:10 6,4 C 63 % 0,0 l/m 18,8 km/h (3 Bft) S-SW 201 25,7 km/h (4 Bft)
05.01.2012 15:11 6,3 C 63 % 0,0 l/m 18,0 km/h (3 Bft) SW 224 27,4 km/h (4 Bft)
05.01.2012 15:12 6,3 C 64 % 0,0 l/m 23,0 km/h (4 Bft) S-SW 210 33,8 km/h (5 Bft)
05.01.2012 15:13 6,3 C 64 % 0,0 l/m 19,7 km/h (3 Bft) SW 215 25,7 km/h (4 Bft)
05.01.2012 15:14 6,3 C 64 % 0,0 l/m 20,9 km/h (4 Bft) SW 228 29,0 km/h (5 Bft)
05.01.2012 15:15 6,3 C 64 % 0,0 l/m 20,4 km/h (4 Bft) S-SW 201 29,0 km/h (5 Bft)
05.01.2012 15:16 6,3 C 64 % 0,0 l/m 23,5 km/h (4 Bft) S-SW 207 30,6 km/h (5 Bft)
05.01.2012 15:17 6,3 C 65 % 0,0 l/m 22,0 km/h (4 Bft) S-SW 208 29,0 km/h (5 Bft)
05.01.2012 15:18 6,2 C 65 % 0,0 l/m 24,2 km/h (4 Bft) S-SW 213 29,0 km/h (5 Bft)
05.01.2012 15:19 6,2 C 64 % 0,0 l/m 23,2 km/h (4 Bft) S-SW 205 29,0 km/h (5 Bft)
05.01.2012 15:20 6,2 C 64 % 0,0 l/m 18,5 km/h (3 Bft) S-SW 208 27,4 km/h (4 Bft)
05.01.2012 15:21 6,2 C 65 % 0,0 l/m 20,9 km/h (4 Bft) S-SW 203 32,2 km/h (5 Bft)
05.01.2012 15:22 6,2 C 64 % 0,0 l/m 21,4 km/h (4 Bft) S-SW 199 29,0 km/h (5 Bft)
05.01.2012 15:23 6,2 C 65 % 0,0 l/m 15,1 km/h (3 Bft) S-SW 205 20,9 km/h (4 Bft)
05.01.2012 15:24 6,2 C 65 % 0,0 l/m 14,8 km/h (3 Bft) S-SW 207 20,9 km/h (4 Bft)
05.01.2012 15:25 6,2 C 65 % 0,0 l/m 10,4 km/h (2 Bft) S-SW 198 12,9 km/h (3 Bft)
05.01.2012 15:26 6,1 C 65 % 0,0 l/m 15,4 km/h (3 Bft) W-SW 257 19,3 km/h (3 Bft)
05.01.2012 15:27 6,1 C 66 % 0,0 l/m 17,4 km/h (3 Bft) S-SW 193 22,5 km/h (4 Bft)
05.01.2012 15:28 6,1 C 66 % 0,0 l/m 15,3 km/h (3 Bft) SW 231 20,9 km/h (4 Bft)
05.01.2012 15:29 6,1 C 66 % 0,0 l/m 17,1 km/h (3 Bft) S-SW 208 29,0 km/h (5 Bft)
05.01.2012 15:30 6,0 C 66 % 0,0 l/m 16,8 km/h (3 Bft) SO 131 24,1 km/h (4 Bft)
05.01.2012 15:31 6,0 C 66 % 0,0 l/m 17,8 km/h (3 Bft) SW 214 27,4 km/h (4 Bft)
05.01.2012 15:32 6,0 C 67 % 0,0 l/m 18,3 km/h (3 Bft) S-SO 151 24,1 km/h (4 Bft)
05.01.2012 15:33 5,9 C 67 % 0,0 l/m 18,8 km/h (3 Bft) S-SW 200 27,4 km/h (4 Bft)
05.01.2012 15:34 5,9 C 67 % 0,0 l/m 19,9 km/h (4 Bft) S-SO 162 27,4 km/h (4 Bft)
05.01.2012 15:35 5,9 C 67 % 0,0 l/m 20,0 km/h (4 Bft) S-SW 200 27,4 km/h (4 Bft)
05.01.2012 15:36 5,9 C 68 % 0,0 l/m 20,4 km/h (4 Bft) S 175 27,4 km/h (4 Bft)
05.01.2012 15:37 5,8 C 68 % 0,0 l/m 20,4 km/h (4 Bft) S-SO 155 27,4 km/h (4 Bft)
05.01.2012 15:38 5,8 C 68 % 0,0 l/m 18,6 km/h (3 Bft) S 184 27,4 km/h (4 Bft)
05.01.2012 15:39 5,8 C 68 % 0,0 l/m 18,2 km/h (3 Bft) SW 217 25,7 km/h (4 Bft)
05.01.2012 15:40 5,8 C 68 % 0,0 l/m 18,6 km/h (3 Bft) SW 229 25,7 km/h (4 Bft)
05.01.2012 15:41 5,7 C 69 % 0,0 l/m 14,3 km/h (3 Bft) S-SW 207 19,3 km/h (3 Bft)
05.01.2012 15:42 5,7 C 69 % 0,0 l/m 16,8 km/h (3 Bft) S-SW 193 29,0 km/h (5 Bft)
05.01.2012 15:43 5,7 C 69 % 0,0 l/m 17,9 km/h (3 Bft) S 183 25,7 km/h (4 Bft)
05.01.2012 15:44 5,7 C 69 % 0,0 l/m 13,1 km/h (3 Bft) SO 127 22,5 km/h (4 Bft)
05.01.2012 15:45 5,7 C 69 % 0,0 l/m 15,6 km/h (3 Bft) S-SW 195 25,7 km/h (4 Bft)
05.01.2012 15:46 5,7 C 69 % 0,0 l/m 17,3 km/h (3 Bft) S-SW 211 20,9 km/h (4 Bft)
05.01.2012 15:47 5,6 C 70 % 0,0 l/m 15,7 km/h (3 Bft) S-SW 203 25,7 km/h (4 Bft)
05.01.2012 15:48 5,6 C 70 % 0,0 l/m 18,8 km/h (3 Bft) SW 222 24,1 km/h (4 Bft)
05.01.2012 15:49 5,6 C 70 % 0,0 l/m 16,7 km/h (3 Bft) S-SO 161 25,7 km/h (4 Bft)
05.01.2012 15:50 5,6 C 70 % 0,0 l/m 18,4 km/h (3 Bft) S 183 25,7 km/h (4 Bft)
05.01.2012 15:51 5,6 C 70 % 0,0 l/m 21,2 km/h (4 Bft) S-SW 194 30,6 km/h (5 Bft)
05.01.2012 15:52 5,5 C 70 % 0,0 l/m 17,4 km/h (3 Bft) S-SO 154 29,0 km/h (5 Bft)
05.01.2012 15:53 5,5 C 70 % 0,0 l/m 17,1 km/h (3 Bft) S-SW 203 25,7 km/h (4 Bft)
05.01.2012 15:54 5,5 C 70 % 0,0 l/m 22,0 km/h (4 Bft) S-SW 193 30,6 km/h (5 Bft)
05.01.2012 15:55 5,5 C 70 % 0,0 l/m 21,2 km/h (4 Bft) S-SO 166 32,2 km/h (5 Bft)
05.01.2012 15:56 5,5 C 70 % 0,0 l/m 20,4 km/h (4 Bft) SW 221 32,2 km/h (5 Bft)
05.01.2012 15:57 5,4 C 70 % 0,0 l/m 20,7 km/h (4 Bft) S-SW 197 30,6 km/h (5 Bft)
05.01.2012 15:58 5,4 C 70 % 0,0 l/m 21,6 km/h (4 Bft) S-SO 155 29,0 km/h (5 Bft)
05.01.2012 15:59 5,4 C 71 % 0,0 l/m 17,1 km/h (3 Bft) SW 214 29,0 km/h (5 Bft)
05.01.2012 16:00 5,4 C 71 % 0,0 l/m 20,8 km/h (4 Bft) SW 217 25,7 km/h (4 Bft)
05.01.2012 16:01 5,4 C 71 % 0,0 l/m 23,5 km/h (4 Bft) S-SW 200 32,2 km/h (5 Bft)
05.01.2012 16:02 5,4 C 70 % 0,0 l/m 22,5 km/h (4 Bft) S-SO 158 33,8 km/h (5 Bft)
05.01.2012 16:03 5,4 C 70 % 0,0 l/m 16,6 km/h (3 Bft) S-SW 195 24,1 km/h (4 Bft)
05.01.2012 16:04 5,4 C 71 % 0,0 l/m 20,1 km/h (4 Bft) W-SW 240 29,0 km/h (5 Bft)
05.01.2012 16:05 5,4 C 71 % 0,0 l/m 17,5 km/h (3 Bft) S 177 25,7 km/h (4 Bft)
05.01.2012 16:06 5,4 C 71 % 0,0 l/m 23,1 km/h (4 Bft) S-SW 211 32,2 km/h (5 Bft)
05.01.2012 16:07 5,4 C 71 % 0,0 l/m 20,9 km/h (4 Bft) S-SW 207 29,0 km/h (5 Bft)
05.01.2012 16:08 5,4 C 71 % 0,0 l/m 15,6 km/h (3 Bft) S-SW 198 24,1 km/h (4 Bft)
05.01.2012 16:09 5,4 C 71 % 0,0 l/m 19,1 km/h (3 Bft) S-SW 194 32,2 km/h (5 Bft)
05.01.2012 16:10 5,4 C 71 % 0,0 l/m 17,2 km/h (3 Bft) S 190 24,1 km/h (4 Bft)
05.01.2012 16:11 5,4 C 71 % 0,0 l/m 16,9 km/h (3 Bft) S-SO 158 24,1 km/h (4 Bft)
05.01.2012 16:12 5,4 C 71 % 0,0 l/m 18,4 km/h (3 Bft) S-SW 201 27,4 km/h (4 Bft)
05.01.2012 16:13 5,4 C 71 % 0,0 l/m 16,8 km/h (3 Bft) S 183 22,5 km/h (4 Bft)
05.01.2012 16:14 5,4 C 71 % 0,0 l/m 16,8 km/h (3 Bft) S 179 25,7 km/h (4 Bft)
05.01.2012 16:15 5,4 C 71 % 0,0 l/m 21,1 km/h (4 Bft) S 172 29,0 km/h (5 Bft)
05.01.2012 16:16 5,4 C 71 % 0,0 l/m 21,0 km/h (4 Bft) SW 214 30,6 km/h (5 Bft)
05.01.2012 16:17 5,4 C 71 % 0,0 l/m 17,2 km/h (3 Bft) S-SW 213 24,1 km/h (4 Bft)
05.01.2012 16:18 5,4 C 71 % 0,0 l/m 17,7 km/h (3 Bft) S-SW 210 30,6 km/h (5 Bft)
05.01.2012 16:19 5,4 C 71 % 0,0 l/m 20,3 km/h (4 Bft) O-SO 122 33,8 km/h (5 Bft)
05.01.2012 16:20 5,4 C 71 % 0,0 l/m 18,2 km/h (3 Bft) S-SW 211 24,1 km/h (4 Bft)
05.01.2012 16:21 5,4 C 70 % 0,0 l/m 20,8 km/h (4 Bft) S-SW 205 32,2 km/h (5 Bft)
05.01.2012 16:22 5,4 C 70 % 0,0 l/m 20,2 km/h (4 Bft) S 183 29,0 km/h (5 Bft)
05.01.2012 16:23 5,4 C 70 % 0,0 l/m 17,9 km/h (3 Bft) S-SW 194 24,1 km/h (4 Bft)
05.01.2012 16:24 5,4 C 70 % 0,0 l/m 17,0 km/h (3 Bft) S-SO 155 27,4 km/h (4 Bft)
05.01.2012 16:25 5,4 C 70 % 0,0 l/m 13,5 km/h (3 Bft) S-SO 155 22,5 km/h (4 Bft)
05.01.2012 16:26 5,4 C 70 % 0,0 l/m 13,0 km/h (3 Bft) S-SW 199 20,9 km/h (4 Bft)
05.01.2012 16:27 5,4 C 71 % 0,0 l/m 16,7 km/h (3 Bft) S-SW 211 24,1 km/h (4 Bft)
05.01.2012 16:28 5,4 C 70 % 0,0 l/m 14,4 km/h (3 Bft) S 179 19,3 km/h (3 Bft)
05.01.2012 16:29 5,4 C 70 % 0,0 l/m 15,4 km/h (3 Bft) S-SW 203 17,7 km/h (3 Bft)
05.01.2012 16:30 5,4 C 71 % 0,0 l/m 15,0 km/h (3 Bft) S 183 19,3 km/h (3 Bft)
05.01.2012 16:31 5,4 C 71 % 0,0 l/m 15,9 km/h (3 Bft) S-SO 150 27,4 km/h (4 Bft)
05.01.2012 16:32 5,3 C 71 % 0,0 l/m 20,3 km/h (4 Bft) S-SO 150 24,1 km/h (4 Bft)
05.01.2012 16:33 5,4 C 71 % 0,0 l/m 16,0 km/h (3 Bft) S-SW 212 20,9 km/h (4 Bft)
05.01.2012 16:34 5,3 C 71 % 0,0 l/m 18,1 km/h (3 Bft) S-SW 200 24,1 km/h (4 Bft)
05.01.2012 16:35 5,3 C 71 % 0,0 l/m 16,6 km/h (3 Bft) S-SW 200 25,7 km/h (4 Bft)
05.01.2012 16:36 5,3 C 71 % 0,0 l/m 14,9 km/h (3 Bft) S-SO 153 20,9 km/h (4 Bft)
05.01.2012 16:37 5,3 C 71 % 0,0 l/m 13,5 km/h (3 Bft) S-SW 205 20,9 km/h (4 Bft)
05.01.2012 16:38 5,3 C 71 % 0,0 l/m 18,4 km/h (3 Bft) S-SW 205 29,0 km/h (5 Bft)
05.01.2012 16:39 5,3 C 71 % 0,0 l/m 16,4 km/h (3 Bft) S-SW 209 22,5 km/h (4 Bft)
05.01.2012 16:40 5,3 C 71 % 0,0 l/m 14,8 km/h (3 Bft) S-SW 197 19,3 km/h (3 Bft)
05.01.2012 16:41 5,3 C 71 % 0,0 l/m 8,1 km/h (2 Bft) SW 215 12,9 km/h (3 Bft)
05.01.2012 16:42 5,3 C 71 % 0,0 l/m 9,2 km/h (2 Bft) SW 222 14,5 km/h (3 Bft)
05.01.2012 16:43 5,2 C 71 % 0,0 l/m 11,3 km/h (2 Bft) SW 222 17,7 km/h (3 Bft)
05.01.2012 16:44 5,2 C 71 % 0,0 l/m 10,1 km/h (2 Bft) S-SW 201 14,5 km/h (3 Bft)
05.01.2012 16:45 5,2 C 71 % 0,0 l/m 14,9 km/h (3 Bft) SW 214 24,1 km/h (4 Bft)
05.01.2012 16:46 5,2 C 71 % 0,0 l/m 18,2 km/h (3 Bft) SW 229 29,0 km/h (5 Bft)
05.01.2012 16:47 5,2 C 71 % 0,0 l/m 18,3 km/h (3 Bft) S 191 29,0 km/h (5 Bft)
05.01.2012 16:48 5,2 C 71 % 0,0 l/m 14,7 km/h (3 Bft) S-SW 193 19,3 km/h (3 Bft)
05.01.2012 16:49 5,2 C 72 % 0,0 l/m 15,5 km/h (3 Bft) S 184 22,5 km/h (4 Bft)
05.01.2012 16:50 5,1 C 72 % 0,0 l/m 17,1 km/h (3 Bft) S-SW 203 25,7 km/h (4 Bft)
05.01.2012 16:51 5,1 C 72 % 0,0 l/m 21,7 km/h (4 Bft) S-SW 203 27,4 km/h (4 Bft)
05.01.2012 16:52 5,1 C 72 % 0,0 l/m 16,1 km/h (3 Bft) S 188 22,5 km/h (4 Bft)
05.01.2012 16:53 5,1 C 72 % 0,0 l/m 19,2 km/h (3 Bft) S 180 25,7 km/h (4 Bft)
05.01.2012 16:54 5,1 C 72 % 0,0 l/m 18,8 km/h (3 Bft) S-SW 195 32,2 km/h (5 Bft)
05.01.2012 16:55 5,0 C 72 % 0,0 l/m 17,1 km/h (3 Bft) S 181 24,1 km/h (4 Bft)
05.01.2012 16:56 5,0 C 72 % 0,0 l/m 17,6 km/h (3 Bft) S-SO 166 20,9 km/h (4 Bft)
05.01.2012 16:57 4,9 C 73 % 0,0 l/m 16,1 km/h (3 Bft) S-SO 159 24,1 km/h (4 Bft)
05.01.2012 16:58 4,9 C 73 % 0,0 l/m 15,0 km/h (3 Bft) S-SO 159 24,1 km/h (4 Bft)
05.01.2012 16:59 4,9 C 73 % 0,0 l/m 16,8 km/h (3 Bft) S-SW 201 22,5 km/h (4 Bft)
05.01.2012 17:00 4,9 C 73 % 0,0 l/m 16,1 km/h (3 Bft) S-SO 165 22,5 km/h (4 Bft)
05.01.2012 17:01 4,8 C 73 % 0,0 l/m 16,5 km/h (3 Bft) S 177 22,5 km/h (4 Bft)
05.01.2012 17:02 4,8 C 73 % 0,0 l/m 15,0 km/h (3 Bft) S-SW 200 19,3 km/h (3 Bft)
05.01.2012 17:03 4,8 C 73 % 0,0 l/m 13,9 km/h (3 Bft) S 190 20,9 km/h (4 Bft)
05.01.2012 17:04 4,8 C 73 % 0,0 l/m 12,0 km/h (2 Bft) S 172 17,7 km/h (3 Bft)
05.01.2012 17:05 4,7 C 73 % 0,0 l/m 11,9 km/h (2 Bft) S 181 16,1 km/h (3 Bft)
05.01.2012 17:06 4,7 C 74 % 0,0 l/m 16,6 km/h (3 Bft) SO 128 20,9 km/h (4 Bft)
05.01.2012 17:07 4,7 C 74 % 0,0 l/m 12,5 km/h (3 Bft) S-SO 167 19,3 km/h (3 Bft)
05.01.2012 17:08 4,7 C 74 % 0,0 l/m 10,4 km/h (2 Bft) S-SO 148 14,5 km/h (3 Bft)
05.01.2012 17:09 4,7 C 74 % 0,0 l/m 12,8 km/h (3 Bft) S-SW 211 17,7 km/h (3 Bft)
05.01.2012 17:10 4,7 C 74 % 0,0 l/m 12,7 km/h (3 Bft) S-SW 198 16,1 km/h (3 Bft)
05.01.2012 17:11 4,7 C 74 % 0,0 l/m 14,3 km/h (3 Bft) O-SO 121 19,3 km/h (3 Bft)
05.01.2012 17:12 4,7 C 74 % 0,0 l/m 14,7 km/h (3 Bft) S-SO 167 17,7 km/h (3 Bft)
05.01.2012 17:13 4,7 C 74 % 0,0 l/m 12,8 km/h (3 Bft) S-SW 200 17,7 km/h (3 Bft)
05.01.2012 17:14 4,7 C 74 % 0,0 l/m 12,0 km/h (2 Bft) S-SW 198 19,3 km/h (3 Bft)
05.01.2012 17:15 4,6 C 74 % 0,0 l/m 12,3 km/h (3 Bft) S-SO 155 17,7 km/h (3 Bft)
05.01.2012 17:16 4,6 C 74 % 0,0 l/m 13,5 km/h (3 Bft) S-SW 210 20,9 km/h (4 Bft)
05.01.2012 17:17 4,6 C 74 % 0,0 l/m 13,4 km/h (3 Bft) S 183 17,7 km/h (3 Bft)
05.01.2012 17:18 4,6 C 74 % 0,0 l/m 11,2 km/h (2 Bft) W-SW 244 17,7 km/h (3 Bft)
05.01.2012 17:19 4,6 C 74 % 0,0 l/m 9,8 km/h (2 Bft) SW 217 20,9 km/h (4 Bft)
05.01.2012 17:20 4,6 C 74 % 0,0 l/m 11,8 km/h (2 Bft) SW 218 16,1 km/h (3 Bft)
05.01.2012 17:21 4,5 C 74 % 0,0 l/m 13,5 km/h (3 Bft) SW 229 20,9 km/h (4 Bft)
05.01.2012 17:22 4,5 C 74 % 0,0 l/m 13,1 km/h (3 Bft) SW 219 17,7 km/h (3 Bft)
05.01.2012 17:23 4,5 C 74 % 0,0 l/m 12,4 km/h (3 Bft) S 179 19,3 km/h (3 Bft)
05.01.2012 17:24 4,5 C 74 % 0,0 l/m 14,6 km/h (3 Bft) S 173 20,9 km/h (4 Bft)
05.01.2012 17:25 4,5 C 74 % 0,0 l/m 11,7 km/h (2 Bft) S-SW 198 16,1 km/h (3 Bft)
05.01.2012 17:26 4,5 C 74 % 0,0 l/m 11,0 km/h (2 Bft) S-SO 155 19,3 km/h (3 Bft)
05.01.2012 17:27 4,5 C 74 % 0,0 l/m 5,7 km/h (1 Bft) S-SO 162 8,0 km/h (2 Bft)
05.01.2012 17:28 4,4 C 74 % 0,0 l/m 11,5 km/h (2 Bft) S 186 22,5 km/h (4 Bft)
05.01.2012 17:29 4,5 C 74 % 0,0 l/m 15,2 km/h (3 Bft) S 181 22,5 km/h (4 Bft)
05.01.2012 17:30 4,5 C 74 % 0,0 l/m 14,6 km/h (3 Bft) S-SO 159 20,9 km/h (4 Bft)
05.01.2012 17:31 4,5 C 74 % 0,0 l/m 16,9 km/h (3 Bft) S-SW 201 20,9 km/h (4 Bft)
05.01.2012 17:32 4,5 C 74 % 0,0 l/m 17,1 km/h (3 Bft) S 184 20,9 km/h (4 Bft)
05.01.2012 17:33 4,5 C 74 % 0,0 l/m 15,7 km/h (3 Bft) SO 145 19,3 km/h (3 Bft)
05.01.2012 17:34 4,5 C 74 % 0,0 l/m 15,0 km/h (3 Bft) S-SO 148 19,3 km/h (3 Bft)
05.01.2012 17:35 4,5 C 74 % 0,0 l/m 16,2 km/h (3 Bft) S-SO 147 25,7 km/h (4 Bft)
05.01.2012 17:36 4,5 C 74 % 0,0 l/m 15,0 km/h (3 Bft) S-SO 155 22,5 km/h (4 Bft)
05.01.2012 17:37 4,5 C 74 % 0,0 l/m 14,6 km/h (3 Bft) S 191 22,5 km/h (4 Bft)
05.01.2012 17:38 4,5 C 74 % 0,0 l/m 15,1 km/h (3 Bft) S-SW 208 17,7 km/h (3 Bft)
05.01.2012 17:39 4,5 C 74 % 0,0 l/m 14,5 km/h (3 Bft) S 187 20,9 km/h (4 Bft)
05.01.2012 17:40 4,4 C 74 % 0,0 l/m 15,9 km/h (3 Bft) S-SO 159 20,9 km/h (4 Bft)
05.01.2012 17:41 4,4 C 74 % 0,0 l/m 17,3 km/h (3 Bft) S 183 25,7 km/h (4 Bft)
05.01.2012 17:42 4,4 C 74 % 0,0 l/m 17,4 km/h (3 Bft) S 169 20,9 km/h (4 Bft)
05.01.2012 17:43 4,4 C 74 % 0,0 l/m 17,6 km/h (3 Bft) S-SO 152 22,5 km/h (4 Bft)
05.01.2012 17:44 4,4 C 74 % 0,0 l/m 12,0 km/h (2 Bft) S-SW 195 14,5 km/h (3 Bft)
05.01.2012 17:45 4,4 C 74 % 0,0 l/m 15,9 km/h (3 Bft) S-SW 194 19,3 km/h (3 Bft)
05.01.2012 17:46 4,4 C 74 % 0,0 l/m 17,8 km/h (3 Bft) S-SW 212 22,5 km/h (4 Bft)
05.01.2012 17:47 4,4 C 74 % 0,0 l/m 16,8 km/h (3 Bft) S-SW 201 24,1 km/h (4 Bft)
05.01.2012 17:48 4,4 C 74 % 0,0 l/m 14,1 km/h (3 Bft) S 174 24,1 km/h (4 Bft)
05.01.2012 17:49 4,4 C 74 % 0,0 l/m 16,7 km/h (3 Bft) S-SW 195 20,9 km/h (4 Bft)
05.01.2012 17:50 4,4 C 74 % 0,0 l/m 18,7 km/h (3 Bft) S 183 24,1 km/h (4 Bft)
05.01.2012 17:51 4,4 C 74 % 0,0 l/m 12,9 km/h (3 Bft) S 173 22,5 km/h (4 Bft)
05.01.2012 17:52 4,4 C 74 % 0,0 l/m 12,2 km/h (2 Bft) S 190 17,7 km/h (3 Bft)
05.01.2012 17:53 4,4 C 74 % 0,0 l/m 13,5 km/h (3 Bft) S-SO 160 16,1 km/h (3 Bft)
05.01.2012 17:54 4,4 C 74 % 0,0 l/m 13,2 km/h (3 Bft) S-SW 203 17,7 km/h (3 Bft)
05.01.2012 17:55 4,4 C 74 % 0,0 l/m 11,7 km/h (2 Bft) SO 142 16,1 km/h (3 Bft)
05.01.2012 17:56 4,4 C 74 % 0,0 l/m 7,2 km/h (2 Bft) S-SW 211 12,9 km/h (3 Bft)
05.01.2012 17:57 4,4 C 73 % 0,0 l/m 5,8 km/h (2 Bft) S-SW 196 11,3 km/h (2 Bft)
05.01.2012 17:58 4,4 C 73 % 0,0 l/m 9,3 km/h (2 Bft) S-SW 201 16,1 km/h (3 Bft)
05.01.2012 17:59 4,4 C 73 % 0,0 l/m 8,0 km/h (2 Bft) S-SW 208 12,9 km/h (3 Bft)
05.01.2012 18:00 4,4 C 74 % 0,0 l/m 7,7 km/h (2 Bft) O 96 11,3 km/h (2 Bft)
05.01.2012 18:01 4,3 C 74 % 0,0 l/m 5,4 km/h (1 Bft) S-SW 197 9,7 km/h (2 Bft)
05.01.2012 18:02 4,3 C 74 % 0,0 l/m 10,7 km/h (2 Bft) S-SW 201 16,1 km/h (3 Bft)
05.01.2012 18:03 4,3 C 74 % 0,0 l/m 13,2 km/h (3 Bft) SW 222 17,7 km/h (3 Bft)
05.01.2012 18:04 4,3 C 73 % 0,0 l/m 11,2 km/h (2 Bft) W-SW 240 17,7 km/h (3 Bft)
05.01.2012 18:05 4,3 C 73 % 0,0 l/m 8,8 km/h (2 Bft) SW 228 12,9 km/h (3 Bft)
05.01.2012 18:06 4,3 C 73 % 0,0 l/m 8,5 km/h (2 Bft) S-SW 212 12,9 km/h (3 Bft)
05.01.2012 18:07 4,3 C 73 % 0,0 l/m 7,4 km/h (2 Bft) W-SW 252 12,9 km/h (3 Bft)
05.01.2012 18:08 4,3 C 74 % 0,0 l/m 9,4 km/h (2 Bft) W-SW 245 11,3 km/h (2 Bft)
05.01.2012 18:09 4,3 C 74 % 0,0 l/m 5,5 km/h (1 Bft) SW 236 11,3 km/h (2 Bft)
05.01.2012 18:10 4,3 C 74 % 0,0 l/m 6,1 km/h (2 Bft) W-SW 248 11,3 km/h (2 Bft)
05.01.2012 18:11 4,2 C 74 % 0,0 l/m 4,7 km/h (1 Bft) W 273 8,0 km/h (2 Bft)
05.01.2012 18:12 4,2 C 74 % 0,0 l/m 5,6 km/h (1 Bft) O 89 11,3 km/h (2 Bft)
05.01.2012 18:13 4,2 C 74 % 0,0 l/m 9,7 km/h (2 Bft) W-NW 295 14,5 km/h (3 Bft)
05.01.2012 18:14 4,2 C 74 % 0,0 l/m 4,4 km/h (1 Bft) W-SW 257 9,7 km/h (2 Bft)
05.01.2012 18:15 4,1 C 75 % 0,0 l/m 7,7 km/h (2 Bft) W-SW 255 11,3 km/h (2 Bft)
05.01.2012 18:16 4,1 C 75 % 0,0 l/m 7,2 km/h (2 Bft) SW 215 9,7 km/h (2 Bft)
05.01.2012 18:17 4,1 C 75 % 0,0 l/m 7,6 km/h (2 Bft) W-SW 248 9,7 km/h (2 Bft)
05.01.2012 18:18 4,1 C 75 % 0,0 l/m 4,8 km/h (1 Bft) W 280 8,0 km/h (2 Bft)
05.01.2012 18:19 4,1 C 75 % 0,0 l/m 5,5 km/h (1 Bft) W-SW 246 8,0 km/h (2 Bft)
05.01.2012 18:20 4,1 C 75 % 0,0 l/m 6,2 km/h (2 Bft) W-SW 240 8,0 km/h (2 Bft)
05.01.2012 18:21 4,1 C 75 % 0,0 l/m 3,5 km/h (1 Bft) W 271 6,4 km/h (2 Bft)
05.01.2012 18:22 4,1 C 75 % 0,0 l/m 2,3 km/h (1 Bft) W-SW 252 4,8 km/h (1 Bft)
05.01.2012 18:23 4,1 C 75 % 0,0 l/m 2,8 km/h (1 Bft) N-NW 330 6,4 km/h (2 Bft)
05.01.2012 18:24 4,1 C 75 % 0,0 l/m 3,0 km/h (1 Bft) NO 41 6,4 km/h (2 Bft)
05.01.2012 18:25 4,1 C 76 % 0,0 l/m 7,4 km/h (2 Bft) W 277 11,3 km/h (2 Bft)
05.01.2012 18:26 4,1 C 76 % 0,0 l/m 5,4 km/h (1 Bft) W-SW 240 8,0 km/h (2 Bft)
05.01.2012 18:27 4,0 C 76 % 0,0 l/m 5,8 km/h (2 Bft) W-NW 283 11,3 km/h (2 Bft)
05.01.2012 18:28 3,9 C 76 % 0,0 l/m 5,8 km/h (2 Bft) W 281 8,0 km/h (2 Bft)
05.01.2012 18:29 4,0 C 76 % 0,0 l/m 3,9 km/h (1 Bft) W 276 8,0 km/h (2 Bft)
05.01.2012 18:30 3,9 C 77 % 0,0 l/m 3,6 km/h (1 Bft) NW 316 9,7 km/h (2 Bft)
05.01.2012 18:31 3,9 C 77 % 0,0 l/m 7,9 km/h (2 Bft) SW 215 12,9 km/h (3 Bft)
05.01.2012 18:32 4,0 C 77 % 0,0 l/m 5,3 km/h (1 Bft) W 271 11,3 km/h (2 Bft)
05.01.2012 18:33 4,0 C 77 % 0,0 l/m 6,6 km/h (2 Bft) W-NW 296 12,9 km/h (3 Bft)
05.01.2012 18:34 4,0 C 78 % 0,0 l/m 10,0 km/h (2 Bft) NW 313 17,7 km/h (3 Bft)
05.01.2012 18:35 4,0 C 78 % 0,0 l/m 12,7 km/h (3 Bft) W 278 19,3 km/h (3 Bft)
05.01.2012 18:36 4,1 C 78 % 0,0 l/m 11,5 km/h (2 Bft) W 266 17,7 km/h (3 Bft)
05.01.2012 18:37 4,1 C 78 % 0,0 l/m 11,9 km/h (2 Bft) W 280 16,1 km/h (3 Bft)
05.01.2012 18:38 4,0 C 78 % 0,0 l/m 12,1 km/h (2 Bft) W-SW 255 16,1 km/h (3 Bft)
05.01.2012 18:39 3,9 C 78 % 0,0 l/m 13,4 km/h (3 Bft) W-SW 240 19,3 km/h (3 Bft)
05.01.2012 18:40 3,9 C 78 % 0,0 l/m 17,0 km/h (3 Bft) W-SW 246 24,1 km/h (4 Bft)
05.01.2012 18:41 4,0 C 79 % 0,0 l/m 20,8 km/h (4 Bft) SW 214 25,7 km/h (4 Bft)
05.01.2012 18:42 4,1 C 79 % 0,0 l/m 14,2 km/h (3 Bft) W-SW 250 24,1 km/h (4 Bft)
05.01.2012 18:43 4,2 C 79 % 0,0 l/m 20,9 km/h (4 Bft) W-SW 249 27,4 km/h (4 Bft)
05.01.2012 18:44 4,3 C 79 % 0,0 l/m 20,3 km/h (4 Bft) W-SW 253 27,4 km/h (4 Bft)
05.01.2012 18:45 4,3 C 79 % 0,0 l/m 14,6 km/h (3 Bft) S-SW 211 20,9 km/h (4 Bft)
05.01.2012 18:46 4,4 C 79 % 0,0 l/m 15,4 km/h (3 Bft) SW 228 19,3 km/h (3 Bft)
05.01.2012 18:47 4,5 C 80 % 0,0 l/m 20,5 km/h (4 Bft) SW 232 32,2 km/h (5 Bft)
05.01.2012 18:48 4,6 C 81 % 0,0 l/m 15,0 km/h (3 Bft) W-NW 284 22,5 km/h (4 Bft)
05.01.2012 18:49 4,7 C 80 % 0,0 l/m 14,3 km/h (3 Bft) W-SW 248 24,1 km/h (4 Bft)
05.01.2012 18:50 4,8 C 81 % 0,0 l/m 24,8 km/h (4 Bft) W-SW 255 33,8 km/h (5 Bft)
05.01.2012 18:51 5,0 C 83 % 0,0 l/m 26,3 km/h (4 Bft) W 262 41,8 km/h (6 Bft)
05.01.2012 18:52 5,2 C 83 % 0,0 l/m 27,6 km/h (4 Bft) N-NO 16 40,2 km/h (6 Bft)
05.01.2012 18:53 5,4 C 82 % 0,0 l/m 23,2 km/h (4 Bft) W 264 40,2 km/h (6 Bft)
05.01.2012 18:54 5,7 C 82 % 0,0 l/m 30,0 km/h (5 Bft) W-SW 249 38,6 km/h (5 Bft)
05.01.2012 18:55 5,8 C 81 % 0,0 l/m 29,5 km/h (5 Bft) W 269 43,5 km/h (6 Bft)
05.01.2012 18:56 6,1 C 81 % 0,0 l/m 32,7 km/h (5 Bft) W-SW 257 49,9 km/h (6 Bft)
05.01.2012 18:57 6,2 C 80 % 0,0 l/m 31,9 km/h (5 Bft) W 263 46,7 km/h (6 Bft)
05.01.2012 18:58 6,4 C 79 % 0,0 l/m 34,3 km/h (5 Bft) W 277 49,9 km/h (6 Bft)
05.01.2012 18:59 6,6 C 78 % 0,0 l/m 25,3 km/h (4 Bft) W 262 41,8 km/h (6 Bft)
05.01.2012 19:00 6,7 C 77 % 0,0 l/m 30,5 km/h (5 Bft) W 261 41,8 km/h (6 Bft)
05.01.2012 19:01 6,8 C 76 % 0,0 l/m 33,8 km/h (5 Bft) W-NW 284 43,5 km/h (6 Bft)
05.01.2012 19:02 6,8 C 75 % 0,0 l/m 31,2 km/h (5 Bft) W-SW 250 45,1 km/h (6 Bft)
05.01.2012 19:03 6,9 C 75 % 0,0 l/m 35,8 km/h (5 Bft) SW 236 48,3 km/h (6 Bft)
05.01.2012 19:04 7,1 C 74 % 0,0 l/m 29,2 km/h (5 Bft) W-SW 252 48,3 km/h (6 Bft)
05.01.2012 19:05 7,1 C 74 % 0,0 l/m 34,4 km/h (5 Bft) W-SW 252 57,9 km/h (7 Bft)
05.01.2012 19:06 7,2 C 74 % 0,0 l/m 29,0 km/h (5 Bft) S 183 41,8 km/h (6 Bft)
05.01.2012 19:07 7,2 C 74 % 0,0 l/m 32,6 km/h (5 Bft) W-SW 252 54,7 km/h (7 Bft)
05.01.2012 19:08 7,2 C 73 % 0,0 l/m 33,8 km/h (5 Bft) W 260 53,1 km/h (7 Bft)
05.01.2012 19:09 7,2 C 73 % 0,0 l/m 35,1 km/h (5 Bft) W 263 51,5 km/h (7 Bft)
05.01.2012 19:10 7,3 C 73 % 0,0 l/m 31,5 km/h (5 Bft) NW 325 45,1 km/h (6 Bft)
05.01.2012 19:11 7,2 C 73 % 0,0 l/m 27,0 km/h (4 Bft) W-NW 289 40,2 km/h (6 Bft)
05.01.2012 19:12 7,3 C 73 % 0,0 l/m 30,0 km/h (5 Bft) S-SW 207 41,8 km/h (6 Bft)
05.01.2012 19:13 7,2 C 73 % 0,0 l/m 27,5 km/h (4 Bft) W-NW 295 51,5 km/h (7 Bft)
05.01.2012 19:14 7,2 C 73 % 0,0 l/m 30,1 km/h (5 Bft) NW 306 43,5 km/h (6 Bft)
05.01.2012 19:15 7,2 C 73 % 0,0 l/m 33,9 km/h (5 Bft) N-NW 340 54,7 km/h (7 Bft)
05.01.2012 19:16 7,2 C 72 % 0,0 l/m 31,0 km/h (5 Bft) W-NW 297 49,9 km/h (6 Bft)
05.01.2012 19:17 7,2 C 72 % 0,0 l/m 29,7 km/h (5 Bft) W-SW 238 37,0 km/h (5 Bft)
05.01.2012 19:18 7,2 C 72 % 0,0 l/m 27,4 km/h (4 Bft) W 266 37,0 km/h (5 Bft)
05.01.2012 19:19 7,2 C 72 % 0,0 l/m 25,1 km/h (4 Bft) W-SW 238 43,5 km/h (6 Bft)
05.01.2012 19:20 7,2 C 72 % 0,0 l/m 27,5 km/h (4 Bft) W-SW 249 38,6 km/h (5 Bft)
05.01.2012 19:21 7,2 C 72 % 0,0 l/m 32,2 km/h (5 Bft) W-NW 284 43,5 km/h (6 Bft)
05.01.2012 19:22 7,2 C 72 % 0,0 l/m 29,0 km/h (5 Bft) SW 232 45,1 km/h (6 Bft)
05.01.2012 19:23 7,2 C 72 % 0,0 l/m 27,2 km/h (4 Bft) W-SW 253 37,0 km/h (5 Bft)
05.01.2012 19:24 7,2 C 72 % 0,0 l/m 25,3 km/h (4 Bft) W-NW 285 33,8 km/h (5 Bft)
05.01.2012 19:25 7,2 C 72 % 0,0 l/m 25,8 km/h (4 Bft) W-SW 248 46,7 km/h (6 Bft)
05.01.2012 19:26 7,2 C 72 % 0,0 l/m 29,5 km/h (5 Bft) W 274 45,1 km/h (6 Bft)
05.01.2012 19:27 7,2 C 72 % 0,0 l/m 29,6 km/h (5 Bft) N 8 35,4 km/h (5 Bft)
05.01.2012 19:28 7,2 C 73 % 0,0 l/m 23,9 km/h (4 Bft) W 263 37,0 km/h (5 Bft)
05.01.2012 19:29 7,1 C 73 % 0,0 l/m 21,9 km/h (4 Bft) W-SW 239 35,4 km/h (5 Bft)
05.01.2012 19:30 7,1 C 73 % 0,0 l/m 25,2 km/h (4 Bft) W-SW 249 45,1 km/h (6 Bft)
05.01.2012 19:31 7,1 C 73 % 0,0 l/m 23,5 km/h (4 Bft) O-SO 109 46,7 km/h (6 Bft)
05.01.2012 19:32 7,1 C 73 % 0,0 l/m 23,7 km/h (4 Bft) S-SO 149 33,8 km/h (5 Bft)
05.01.2012 19:33 7,0 C 74 % 0,0 l/m 29,2 km/h (5 Bft) W 259 45,1 km/h (6 Bft)
05.01.2012 19:34 6,9 C 74 % 0,0 l/m 20,1 km/h (4 Bft) N-NW 334 40,2 km/h (6 Bft)
05.01.2012 19:35 6,9 C 74 % 0,0 l/m 22,3 km/h (4 Bft) SW 217 32,2 km/h (5 Bft)
05.01.2012 19:36 6,9 C 74 % 0,0 l/m 28,5 km/h (4 Bft) W-SW 256 43,5 km/h (6 Bft)
05.01.2012 19:37 6,9 C 74 % 0,0 l/m 23,7 km/h (4 Bft) W 271 35,4 km/h (5 Bft)
05.01.2012 19:38 6,9 C 74 % 0,0 l/m 30,7 km/h (5 Bft) SW 215 45,1 km/h (6 Bft)
05.01.2012 19:39 6,9 C 74 % 0,0 l/m 28,0 km/h (4 Bft) W 267 45,1 km/h (6 Bft)
05.01.2012 19:40 6,9 C 74 % 0,0 l/m 34,1 km/h (5 Bft) W-SW 240 51,5 km/h (7 Bft)
05.01.2012 19:41 6,9 C 73 % 0,0 l/m 31,3 km/h (5 Bft) W-NW 301 43,5 km/h (6 Bft)
05.01.2012 19:42 6,9 C 73 % 0,0 l/m 33,4 km/h (5 Bft) W-SW 240 54,7 km/h (7 Bft)
05.01.2012 19:43 6,9 C 72 % 0,0 l/m 40,6 km/h (6 Bft) W 260 56,3 km/h (7 Bft)
05.01.2012 19:44 6,9 C 71 % 0,0 l/m 38,0 km/h (5 Bft) SW 231 61,2 km/h (7 Bft)
05.01.2012 19:45 7,0 C 71 % 0,0 l/m 39,3 km/h (6 Bft) W-SW 256 56,3 km/h (7 Bft)
05.01.2012 19:46 7,1 C 71 % 0,0 l/m 43,7 km/h (6 Bft) W-SW 246 62,8 km/h (8 Bft)
05.01.2012 19:47 7,1 C 71 % 0,0 l/m 32,8 km/h (5 Bft) W-NW 297 49,9 km/h (6 Bft)
05.01.2012 19:48 7,0 C 71 % 0,0 l/m 27,8 km/h (4 Bft) W-SW 257 43,5 km/h (6 Bft)
05.01.2012 19:49 7,0 C 70 % 0,0 l/m 34,0 km/h (5 Bft) NO 43 51,5 km/h (7 Bft)
05.01.2012 19:50 7,0 C 70 % 0,0 l/m 30,7 km/h (5 Bft) W 259 46,7 km/h (6 Bft)
05.01.2012 19:51 6,9 C 70 % 0,0 l/m 26,6 km/h (4 Bft) SW 225 35,4 km/h (5 Bft)
05.01.2012 19:52 6,9 C 70 % 0,0 l/m 22,7 km/h (4 Bft) N-NW 330 37,0 km/h (5 Bft)
05.01.2012 19:53 6,9 C 70 % 0,0 l/m 21,0 km/h (4 Bft) W-NW 300 46,7 km/h (6 Bft)
05.01.2012 19:54 6,9 C 70 % 0,0 l/m 21,4 km/h (4 Bft) W 272 35,4 km/h (5 Bft)
05.01.2012 19:55 6,8 C 70 % 0,0 l/m 16,7 km/h (3 Bft) W 277 33,8 km/h (5 Bft)
05.01.2012 19:56 6,8 C 71 % 0,0 l/m 18,1 km/h (3 Bft) NW 305 29,0 km/h (5 Bft)
05.01.2012 19:57 6,8 C 71 % 0,0 l/m 25,0 km/h (4 Bft) W 280 41,8 km/h (6 Bft)
05.01.2012 19:58 6,7 C 71 % 0,0 l/m 25,8 km/h (4 Bft) W 273 37,0 km/h (5 Bft)
05.01.2012 19:59 6,7 C 71 % 0,0 l/m 23,3 km/h (4 Bft) W 278 30,6 km/h (5 Bft)
05.01.2012 20:00 6,6 C 72 % 0,0 l/m 17,3 km/h (3 Bft) W-SW 249 32,2 km/h (5 Bft)
05.01.2012 20:01 6,6 C 72 % 0,0 l/m 20,1 km/h (4 Bft) NW 305 33,8 km/h (5 Bft)
05.01.2012 20:02 6,5 C 72 % 0,0 l/m 23,0 km/h (4 Bft) SW 233 32,2 km/h (5 Bft)
05.01.2012 20:03 6,4 C 72 % 0,0 l/m 20,0 km/h (4 Bft) W 278 35,4 km/h (5 Bft)
05.01.2012 20:04 6,4 C 72 % 0,0 l/m 20,4 km/h (4 Bft) W 281 30,6 km/h (5 Bft)
05.01.2012 20:05 6,4 C 72 % 0,0 l/m 24,2 km/h (4 Bft) SW 217 51,5 km/h (7 Bft)
05.01.2012 20:06 6,3 C 72 % 0,0 l/m 31,5 km/h (5 Bft) W-SW 243 41,8 km/h (6 Bft)
05.01.2012 20:07 6,4 C 72 % 0,0 l/m 38,0 km/h (5 Bft) O-NO 77 49,9 km/h (6 Bft)
05.01.2012 20:08 6,4 C 72 % 0,0 l/m 26,5 km/h (4 Bft) W-SW 255 51,5 km/h (7 Bft)
05.01.2012 20:09 6,4 C 71 % 0,0 l/m 33,6 km/h (5 Bft) W-SW 244 48,3 km/h (6 Bft)
05.01.2012 20:10 6,4 C 71 % 0,0 l/m 32,8 km/h (5 Bft) W-SW 249 51,5 km/h (7 Bft)
05.01.2012 20:11 6,4 C 71 % 0,0 l/m 27,3 km/h (4 Bft) W-SW 255 43,5 km/h (6 Bft)
05.01.2012 20:12 6,4 C 71 % 0,0 l/m 23,9 km/h (4 Bft) W-NW 300 41,8 km/h (6 Bft)
05.01.2012 20:13 6,4 C 71 % 0,0 l/m 17,1 km/h (3 Bft) NW 307 30,6 km/h (5 Bft)
05.01.2012 20:14 6,4 C 71 % 0,0 l/m 16,8 km/h (3 Bft) W 281 27,4 km/h (4 Bft)
05.01.2012 20:15 6,4 C 71 % 0,0 l/m 18,3 km/h (3 Bft) W 269 25,7 km/h (4 Bft)
05.01.2012 20:16 6,3 C 71 % 0,0 l/m 15,5 km/h (3 Bft) W 262 30,6 km/h (5 Bft)
05.01.2012 20:17 6,3 C 71 % 0,0 l/m 20,9 km/h (4 Bft) NW 312 46,7 km/h (6 Bft)
05.01.2012 20:18 6,3 C 71 % 0,0 l/m 24,4 km/h (4 Bft) W 260 41,8 km/h (6 Bft)
05.01.2012 20:19 6,3 C 71 % 0,0 l/m 14,4 km/h (3 Bft) W-SW 242 22,5 km/h (4 Bft)
05.01.2012 20:20 6,3 C 71 % 0,0 l/m 20,6 km/h (4 Bft) N-NW 336 27,4 km/h (4 Bft)
05.01.2012 20:21 6,3 C 71 % 0,0 l/m 16,6 km/h (3 Bft) NW 312 40,2 km/h (6 Bft)
05.01.2012 20:22 6,3 C 71 % 0,0 l/m 17,6 km/h (3 Bft) SO 142 32,2 km/h (5 Bft)
05.01.2012 20:23 6,3 C 70 % 0,0 l/m 15,7 km/h (3 Bft) W-SW 238 32,2 km/h (5 Bft)
05.01.2012 20:24 6,3 C 70 % 0,0 l/m 20,2 km/h (4 Bft) NW 312 29,0 km/h (5 Bft)
05.01.2012 20:25 6,4 C 69 % 0,0 l/m 14,7 km/h (3 Bft) N-NO 30 29,0 km/h (5 Bft)
05.01.2012 20:26 6,4 C 68 % 0,0 l/m 22,9 km/h (4 Bft) W 277 41,8 km/h (6 Bft)
05.01.2012 20:27 6,4 C 68 % 0,0 l/m 15,7 km/h (3 Bft) W 267 25,7 km/h (4 Bft)
05.01.2012 20:28 6,4 C 68 % 0,0 l/m 25,8 km/h (4 Bft) W-NW 291 40,2 km/h (6 Bft)
05.01.2012 20:29 6,4 C 68 % 0,0 l/m 18,6 km/h (3 Bft) NW 305 30,6 km/h (5 Bft)
05.01.2012 20:30 6,5 C 66 % 0,0 l/m 31,5 km/h (5 Bft) W 281 56,3 km/h (7 Bft)
05.01.2012 20:31 6,6 C 66 % 0,0 l/m 21,1 km/h (4 Bft) W 276 56,3 km/h (7 Bft)
05.01.2012 20:32 6,6 C 66 % 0,0 l/m 25,9 km/h (4 Bft) W-NW 302 45,1 km/h (6 Bft)
05.01.2012 20:33 6,6 C 66 % 0,0 l/m 27,5 km/h (4 Bft) S-SO 147 54,7 km/h (7 Bft)
05.01.2012 20:34 6,7 C 66 % 0,0 l/m 27,6 km/h (4 Bft) S 179 43,5 km/h (6 Bft)
05.01.2012 20:35 6,6 C 65 % 0,0 l/m 29,2 km/h (5 Bft) W-SW 250 49,9 km/h (6 Bft)
05.01.2012 20:36 6,7 C 65 % 0,0 l/m 33,7 km/h (5 Bft) W-NW 284 59,5 km/h (7 Bft)
05.01.2012 20:37 6,7 C 64 % 0,0 l/m 24,9 km/h (4 Bft) W 265 51,5 km/h (7 Bft)
05.01.2012 20:38 6,7 C 64 % 0,0 l/m 35,8 km/h (5 Bft) N-NO 29 69,2 km/h (8 Bft)
05.01.2012 20:39 6,7 C 64 % 0,0 l/m 45,7 km/h (6 Bft) NW 308 72,4 km/h (8 Bft)
05.01.2012 20:40 6,8 C 64 % 0,0 l/m 30,2 km/h (5 Bft) SW 231 49,9 km/h (6 Bft)
05.01.2012 20:41 6,8 C 63 % 0,0 l/m 44,3 km/h (6 Bft) W 281 72,4 km/h (8 Bft)
05.01.2012 20:42 6,8 C 63 % 0,0 l/m 31,6 km/h (5 Bft) W 271 61,2 km/h (7 Bft)
05.01.2012 20:43 6,8 C 63 % 0,2 l/m 51,8 km/h (7 Bft) SO 138 70,8 km/h (8 Bft)
05.01.2012 20:44 6,8 C 63 % 0,0 l/m 30,7 km/h (5 Bft) W-SW 248 51,5 km/h (7 Bft)
05.01.2012 20:45 6,8 C 63 % 0,0 l/m 38,2 km/h (5 Bft) S-SO 166 72,4 km/h (8 Bft)
05.01.2012 20:46 6,8 C 63 % 0,0 l/m 29,2 km/h (5 Bft) SW 232 54,7 km/h (7 Bft)
05.01.2012 20:47 6,8 C 63 % 0,0 l/m 24,4 km/h (4 Bft) W-SW 253 49,9 km/h (6 Bft)
05.01.2012 20:48 6,8 C 62 % 0,0 l/m 40,2 km/h (6 Bft) N 4 66,0 km/h (8 Bft)
05.01.2012 20:49 6,8 C 62 % 0,0 l/m 34,1 km/h (5 Bft) S-SW 201 51,5 km/h (7 Bft)
05.01.2012 20:50 6,8 C 62 % 0,0 l/m 34,3 km/h (5 Bft) NW 308 57,9 km/h (7 Bft)
05.01.2012 20:51 6,8 C 62 % 0,0 l/m 32,6 km/h (5 Bft) W-SW 248 69,2 km/h (8 Bft)
05.01.2012 20:52 6,7 C 63 % 0,0 l/m 31,3 km/h (5 Bft) W-NW 296 56,3 km/h (7 Bft)
05.01.2012 20:53 6,7 C 63 % 0,0 l/m 29,8 km/h (5 Bft) W 274 38,6 km/h (5 Bft)
05.01.2012 20:54 6,7 C 62 % 0,0 l/m 28,9 km/h (5 Bft) SW 215 62,8 km/h (8 Bft)
05.01.2012 20:55 6,7 C 62 % 0,0 l/m 27,0 km/h (4 Bft) W 280 37,0 km/h (5 Bft)
05.01.2012 20:56 6,6 C 63 % 0,0 l/m 25,3 km/h (4 Bft) W 262 56,3 km/h (7 Bft)
05.01.2012 20:57 6,6 C 63 % 0,0 l/m 24,7 km/h (4 Bft) W-SW 252 41,8 km/h (6 Bft)
05.01.2012 20:58 6,6 C 63 % 0,0 l/m 17,6 km/h (3 Bft) SW 224 32,2 km/h (5 Bft)
05.01.2012 20:59 6,6 C 63 % 0,0 l/m 26,1 km/h (4 Bft) N-NO 15 41,8 km/h (6 Bft)
05.01.2012 21:00 6,6 C 63 % 0,0 l/m 21,7 km/h (4 Bft) W 271 35,4 km/h (5 Bft)
05.01.2012 21:01 6,6 C 63 % 0,0 l/m 29,2 km/h (5 Bft) W-NW 302 54,7 km/h (7 Bft)
05.01.2012 21:02 6,6 C 63 % 0,0 l/m 25,4 km/h (4 Bft) W 273 56,3 km/h (7 Bft)
05.01.2012 21:03 6,6 C 63 % 0,0 l/m 25,9 km/h (4 Bft) SW 222 41,8 km/h (6 Bft)
05.01.2012 21:04 6,6 C 63 % 0,0 l/m 22,7 km/h (4 Bft) W-NW 285 38,6 km/h (5 Bft)
05.01.2012 21:05 6,6 C 63 % 0,0 l/m 26,0 km/h (4 Bft) N 357 38,6 km/h (5 Bft)
05.01.2012 21:06 6,6 C 63 % 0,0 l/m 25,3 km/h (4 Bft) S-SO 155 45,1 km/h (6 Bft)
05.01.2012 21:07 6,6 C 63 % 0,0 l/m 23,1 km/h (4 Bft) W 271 53,1 km/h (7 Bft)
05.01.2012 21:08 6,6 C 63 % 0,0 l/m 21,8 km/h (4 Bft) O 81 33,8 km/h (5 Bft)
05.01.2012 21:09 6,7 C 63 % 0,0 l/m 20,7 km/h (4 Bft) N-NW 335 37,0 km/h (5 Bft)
05.01.2012 21:10 6,7 C 63 % 0,0 l/m 21,9 km/h (4 Bft) N-NW 328 35,4 km/h (5 Bft)
05.01.2012 21:11 6,7 C 63 % 0,0 l/m 20,0 km/h (4 Bft) S-SO 163 33,8 km/h (5 Bft)
05.01.2012 21:12 6,6 C 63 % 0,0 l/m 17,7 km/h (3 Bft) O 94 29,0 km/h (5 Bft)
05.01.2012 21:13 6,6 C 63 % 0,0 l/m 29,6 km/h (5 Bft) S 191 51,5 km/h (7 Bft)
05.01.2012 21:14 6,7 C 63 % 0,0 l/m 32,6 km/h (5 Bft) W 265 48,3 km/h (6 Bft)
05.01.2012 21:15 6,7 C 63 % 0,0 l/m 28,9 km/h (5 Bft) W 260 45,1 km/h (6 Bft)
05.01.2012 21:16 6,7 C 63 % 0,0 l/m 22,0 km/h (4 Bft) W 274 35,4 km/h (5 Bft)
05.01.2012 21:17 6,6 C 63 % 0,0 l/m 22,9 km/h (4 Bft) NO 47 32,2 km/h (5 Bft)
05.01.2012 21:18 6,7 C 63 % 0,0 l/m 35,3 km/h (5 Bft) N-NW 347 66,0 km/h (8 Bft)
05.01.2012 21:19 6,7 C 63 % 0,0 l/m 29,5 km/h (5 Bft) W-NW 284 48,3 km/h (6 Bft)
05.01.2012 21:20 6,7 C 63 % 0,0 l/m 28,5 km/h (4 Bft) N-NW 342 45,1 km/h (6 Bft)
05.01.2012 21:21 6,7 C 63 % 0,0 l/m 17,9 km/h (3 Bft) S-SO 149 32,2 km/h (5 Bft)
05.01.2012 21:22 6,7 C 63 % 0,0 l/m 20,2 km/h (4 Bft) S-SO 164 33,8 km/h (5 Bft)
05.01.2012 21:23 6,6 C 63 % 0,0 l/m 22,0 km/h (4 Bft) W-NW 299 35,4 km/h (5 Bft)
05.01.2012 21:24 6,6 C 63 % 0,0 l/m 18,6 km/h (3 Bft) S-SW 212 33,8 km/h (5 Bft)
05.01.2012 21:25 6,7 C 63 % 0,0 l/m 21,4 km/h (4 Bft) W-SW 245 45,1 km/h (6 Bft)
05.01.2012 21:26 6,7 C 63 % 0,0 l/m 21,5 km/h (4 Bft) W 274 32,2 km/h (5 Bft)
05.01.2012 21:27 6,7 C 63 % 0,0 l/m 33,9 km/h (5 Bft) W 278 45,1 km/h (6 Bft)
05.01.2012 21:28 6,7 C 62 % 0,0 l/m 28,7 km/h (4 Bft) W-SW 245 49,9 km/h (6 Bft)
05.01.2012 21:29 6,7 C 63 % 0,0 l/m 28,9 km/h (5 Bft) O-NO 57 41,8 km/h (6 Bft)
05.01.2012 21:30 6,7 C 63 % 0,0 l/m 29,9 km/h (5 Bft) SW 233 45,1 km/h (6 Bft)
05.01.2012 21:31 6,7 C 62 % 0,0 l/m 36,4 km/h (5 Bft) W-SW 253 54,7 km/h (7 Bft)
05.01.2012 21:32 6,7 C 62 % 0,0 l/m 30,1 km/h (5 Bft) W-NW 284 48,3 km/h (6 Bft)
05.01.2012 21:33 6,7 C 62 % 0,0 l/m 30,6 km/h (5 Bft) N-NW 330 38,6 km/h (5 Bft)
05.01.2012 21:34 6,7 C 62 % 0,0 l/m 30,4 km/h (5 Bft) W 271 54,7 km/h (7 Bft)
05.01.2012 21:35 6,7 C 62 % 0,0 l/m 29,0 km/h (5 Bft) W-NW 302 45,1 km/h (6 Bft)
05.01.2012 21:36 6,7 C 61 % 0,0 l/m 32,0 km/h (5 Bft) W-SW 255 48,3 km/h (6 Bft)
05.01.2012 21:37 6,7 C 61 % 0,0 l/m 30,6 km/h (5 Bft) S-SW 193 43,5 km/h (6 Bft)
05.01.2012 21:38 6,7 C 61 % 0,0 l/m 19,5 km/h (3 Bft) SW 222 29,0 km/h (5 Bft)
05.01.2012 21:39 6,7 C 61 % 0,0 l/m 23,4 km/h (4 Bft) SO 126 33,8 km/h (5 Bft)
05.01.2012 21:40 6,7 C 61 % 0,0 l/m 24,6 km/h (4 Bft) W-SW 255 37,0 km/h (5 Bft)
05.01.2012 21:41 6,7 C 61 % 0,0 l/m 19,4 km/h (3 Bft) W-SW 242 33,8 km/h (5 Bft)
05.01.2012 21:42 6,7 C 60 % 0,0 l/m 24,1 km/h (4 Bft) W-NW 295 38,6 km/h (5 Bft)
05.01.2012 21:43 6,7 C 60 % 0,0 l/m 16,0 km/h (3 Bft) N-NO 32 29,0 km/h (5 Bft)
05.01.2012 21:44 6,7 C 61 % 0,0 l/m 25,3 km/h (4 Bft) W 269 48,3 km/h (6 Bft)
05.01.2012 21:45 6,7 C 61 % 0,0 l/m 20,5 km/h (4 Bft) W 278 35,4 km/h (5 Bft)
05.01.2012 21:46 6,7 C 61 % 0,0 l/m 28,5 km/h (4 Bft) W 278 37,0 km/h (5 Bft)
05.01.2012 21:47 6,7 C 61 % 0,0 l/m 20,7 km/h (4 Bft) W-NW 290 48,3 km/h (6 Bft)
05.01.2012 21:48 6,7 C 61 % 0,0 l/m 28,3 km/h (4 Bft) W 262 38,6 km/h (5 Bft)
05.01.2012 21:49 6,7 C 61 % 0,0 l/m 27,2 km/h (4 Bft) W 261 43,5 km/h (6 Bft)
05.01.2012 21:50 6,7 C 62 % 0,0 l/m 24,9 km/h (4 Bft) SW 222 38,6 km/h (5 Bft)
05.01.2012 21:51 6,7 C 61 % 0,0 l/m 22,8 km/h (4 Bft) NW 312 35,4 km/h (5 Bft)
05.01.2012 21:52 6,7 C 62 % 0,0 l/m 15,1 km/h (3 Bft) NW 305 33,8 km/h (5 Bft)
05.01.2012 21:53 6,6 C 62 % 0,0 l/m 28,3 km/h (4 Bft) W 280 49,9 km/h (6 Bft)
05.01.2012 21:54 6,6 C 62 % 0,0 l/m 22,1 km/h (4 Bft) S 175 45,1 km/h (6 Bft)
05.01.2012 21:55 6,6 C 62 % 0,0 l/m 25,1 km/h (4 Bft) W-SW 238 38,6 km/h (5 Bft)
05.01.2012 21:56 6,6 C 62 % 0,0 l/m 28,7 km/h (4 Bft) W-SW 243 40,2 km/h (6 Bft)
05.01.2012 21:57 6,6 C 62 % 0,0 l/m 24,8 km/h (4 Bft) W 266 41,8 km/h (6 Bft)
05.01.2012 21:58 6,6 C 62 % 0,0 l/m 19,0 km/h (3 Bft) N 353 32,2 km/h (5 Bft)
05.01.2012 21:59 6,6 C 62 % 0,0 l/m 20,8 km/h (4 Bft) SW 228 37,0 km/h (5 Bft)
05.01.2012 22:00 6,6 C 62 % 0,0 l/m 23,0 km/h (4 Bft) SW 233 38,6 km/h (5 Bft)
05.01.2012 22:01 6,6 C 62 % 0,0 l/m 16,8 km/h (3 Bft) N-NO 15 25,7 km/h (4 Bft)
05.01.2012 22:02 6,6 C 62 % 0,0 l/m 20,9 km/h (4 Bft) W 271 43,5 km/h (6 Bft)
05.01.2012 22:03 6,6 C 62 % 0,0 l/m 20,6 km/h (4 Bft) W-NW 287 38,6 km/h (5 Bft)
05.01.2012 22:04 6,6 C 62 % 0,0 l/m 21,9 km/h (4 Bft) W 264 38,6 km/h (5 Bft)
05.01.2012 22:05 6,5 C 62 % 0,0 l/m 20,4 km/h (4 Bft) NW 305 33,8 km/h (5 Bft)
05.01.2012 22:06 6,5 C 62 % 0,0 l/m 16,7 km/h (3 Bft) S-SW 213 25,7 km/h (4 Bft)
05.01.2012 22:07 6,5 C 62 % 0,0 l/m 17,3 km/h (3 Bft) W-NW 288 30,6 km/h (5 Bft)
05.01.2012 22:08 6,5 C 61 % 0,0 l/m 19,8 km/h (3 Bft) SO 131 43,5 km/h (6 Bft)
05.01.2012 22:09 6,5 C 61 % 0,0 l/m 15,9 km/h (3 Bft) W-SW 240 37,0 km/h (5 Bft)
05.01.2012 22:10 6,5 C 61 % 0,0 l/m 27,1 km/h (4 Bft) W-NW 295 41,8 km/h (6 Bft)
05.01.2012 22:11 6,5 C 61 % 0,0 l/m 19,6 km/h (3 Bft) W-NW 297 30,6 km/h (5 Bft)
05.01.2012 22:12 6,6 C 60 % 0,0 l/m 20,7 km/h (4 Bft) W-NW 301 48,3 km/h (6 Bft)
05.01.2012 22:13 6,6 C 60 % 0,0 l/m 23,9 km/h (4 Bft) NW 309 41,8 km/h (6 Bft)
05.01.2012 22:14 6,6 C 60 % 0,0 l/m 20,1 km/h (4 Bft) SW 236 30,6 km/h (5 Bft)
05.01.2012 22:15 6,6 C 60 % 0,0 l/m 29,2 km/h (5 Bft) S 176 51,5 km/h (7 Bft)
05.01.2012 22:16 6,6 C 60 % 0,0 l/m 20,7 km/h (4 Bft) NW 309 33,8 km/h (5 Bft)
05.01.2012 22:17 6,6 C 60 % 0,0 l/m 14,3 km/h (3 Bft) W 281 20,9 km/h (4 Bft)
05.01.2012 22:18 6,6 C 59 % 0,0 l/m 23,7 km/h (4 Bft) N-NO 25 45,1 km/h (6 Bft)
05.01.2012 22:19 6,6 C 59 % 0,0 l/m 24,5 km/h (4 Bft) N 356 38,6 km/h (5 Bft)
05.01.2012 22:20 6,7 C 59 % 0,0 l/m 22,6 km/h (4 Bft) W-SW 245 45,1 km/h (6 Bft)
05.01.2012 22:21 6,7 C 59 % 0,0 l/m 19,5 km/h (3 Bft) NW 308 35,4 km/h (5 Bft)
05.01.2012 22:22 6,7 C 59 % 0,0 l/m 24,9 km/h (4 Bft) SO 134 45,1 km/h (6 Bft)
05.01.2012 22:23 6,7 C 59 % 0,0 l/m 11,8 km/h (2 Bft) W-NW 297 20,9 km/h (4 Bft)
05.01.2012 22:24 6,7 C 60 % 0,0 l/m 18,8 km/h (3 Bft) W-SW 257 33,8 km/h (5 Bft)
05.01.2012 22:25 6,6 C 60 % 0,0 l/m 20,1 km/h (4 Bft) W-NW 283 35,4 km/h (5 Bft)
05.01.2012 22:26 6,6 C 60 % 0,0 l/m 22,0 km/h (4 Bft) W-SW 256 38,6 km/h (5 Bft)
05.01.2012 22:27 6,6 C 60 % 0,0 l/m 24,6 km/h (4 Bft) W 264 43,5 km/h (6 Bft)
05.01.2012 22:28 6,6 C 60 % 0,0 l/m 28,9 km/h (5 Bft) W-NW 284 40,2 km/h (6 Bft)
05.01.2012 22:29 6,7 C 60 % 0,0 l/m 30,9 km/h (5 Bft) NW 325 53,1 km/h (7 Bft)
05.01.2012 22:30 6,6 C 60 % 0,0 l/m 15,7 km/h (3 Bft) SW 223 32,2 km/h (5 Bft)
05.01.2012 22:31 6,6 C 60 % 0,0 l/m 19,2 km/h (3 Bft) SW 233 59,5 km/h (7 Bft)
05.01.2012 22:32 6,6 C 60 % 0,0 l/m 18,5 km/h (3 Bft) NO 47 30,6 km/h (5 Bft)
05.01.2012 22:33 6,6 C 60 % 0,0 l/m 20,8 km/h (4 Bft) NW 317 38,6 km/h (5 Bft)
05.01.2012 22:34 6,6 C 60 % 0,0 l/m 28,4 km/h (4 Bft) NW 308 54,7 km/h (7 Bft)
05.01.2012 22:35 6,6 C 60 % 0,0 l/m 21,0 km/h (4 Bft) SW 221 29,0 km/h (5 Bft)
05.01.2012 22:36 6,6 C 60 % 0,0 l/m 24,0 km/h (4 Bft) W-SW 242 35,4 km/h (5 Bft)
05.01.2012 22:37 6,6 C 60 % 0,0 l/m 16,1 km/h (3 Bft) W 264 29,0 km/h (5 Bft)
05.01.2012 22:38 6,6 C 60 % 0,0 l/m 11,0 km/h (2 Bft) SW 232 20,9 km/h (4 Bft)
05.01.2012 22:39 6,6 C 61 % 0,0 l/m 20,9 km/h (4 Bft) W-NW 295 32,2 km/h (5 Bft)
05.01.2012 22:40 6,6 C 61 % 0,0 l/m 15,8 km/h (3 Bft) N 6 27,4 km/h (4 Bft)
05.01.2012 22:41 6,6 C 61 % 0,0 l/m 11,2 km/h (2 Bft) W 263 35,4 km/h (5 Bft)
05.01.2012 22:42 6,6 C 61 % 0,0 l/m 18,6 km/h (3 Bft) O-NO 61 29,0 km/h (5 Bft)
05.01.2012 22:43 6,5 C 61 % 0,0 l/m 13,8 km/h (3 Bft) NW 313 27,4 km/h (4 Bft)
05.01.2012 22:44 6,5 C 61 % 0,0 l/m 21,8 km/h (4 Bft) W-NW 287 38,6 km/h (5 Bft)
05.01.2012 22:45 6,6 C 61 % 0,0 l/m 21,1 km/h (4 Bft) N-NW 334 38,6 km/h (5 Bft)
05.01.2012 22:46 6,6 C 61 % 0,0 l/m 12,1 km/h (2 Bft) W 277 22,5 km/h (4 Bft)
05.01.2012 22:47 6,6 C 61 % 0,0 l/m 18,6 km/h (3 Bft) N-NO 15 29,0 km/h (5 Bft)
05.01.2012 22:48 6,6 C 61 % 0,0 l/m 17,9 km/h (3 Bft) W-SW 253 29,0 km/h (5 Bft)
05.01.2012 22:49 6,6 C 61 % 0,0 l/m 23,5 km/h (4 Bft) W 260 35,4 km/h (5 Bft)
05.01.2012 22:50 6,6 C 61 % 0,0 l/m 33,0 km/h (5 Bft) SW 232 51,5 km/h (7 Bft)
05.01.2012 22:51 6,6 C 60 % 0,0 l/m 25,1 km/h (4 Bft) NW 313 45,1 km/h (6 Bft)
05.01.2012 22:52 6,7 C 60 % 0,0 l/m 18,8 km/h (3 Bft) W-SW 246 43,5 km/h (6 Bft)
05.01.2012 22:53 6,6 C 60 % 0,0 l/m 16,6 km/h (3 Bft) W 263 22,5 km/h (4 Bft)
05.01.2012 22:54 6,6 C 60 % 0,0 l/m 16,8 km/h (3 Bft) SW 226 29,0 km/h (5 Bft)
05.01.2012 22:55 6,6 C 61 % 0,0 l/m 16,7 km/h (3 Bft) N-NO 25 32,2 km/h (5 Bft)
05.01.2012 22:56 6,6 C 60 % 0,0 l/m 21,8 km/h (4 Bft) W-NW 287 43,5 km/h (6 Bft)
05.01.2012 22:57 6,6 C 61 % 0,0 l/m 15,9 km/h (3 Bft) W 276 30,6 km/h (5 Bft)
05.01.2012 22:58 6,6 C 61 % 0,0 l/m 26,1 km/h (4 Bft) W-NW 290 41,8 km/h (6 Bft)
05.01.2012 22:59 6,6 C 60 % 0,0 l/m 18,5 km/h (3 Bft) NO 51 30,6 km/h (5 Bft)
05.01.2012 23:00 6,6 C 60 % 0,0 l/m 28,8 km/h (4 Bft) S-SW 210 53,1 km/h (7 Bft)
05.01.2012 23:01 6,6 C 60 % 0,0 l/m 27,3 km/h (4 Bft) W 280 46,7 km/h (6 Bft)
05.01.2012 23:02 6,6 C 60 % 0,0 l/m 22,8 km/h (4 Bft) W-SW 253 37,0 km/h (5 Bft)
05.01.2012 23:03 6,6 C 60 % 0,0 l/m 22,0 km/h (4 Bft) W-SW 241 32,2 km/h (5 Bft)
05.01.2012 23:04 6,6 C 60 % 0,0 l/m 28,1 km/h (4 Bft) NW 312 49,9 km/h (6 Bft)
05.01.2012 23:05 6,6 C 60 % 0,0 l/m 17,9 km/h (3 Bft) W 276 32,2 km/h (5 Bft)
05.01.2012 23:06 6,6 C 60 % 0,0 l/m 20,8 km/h (4 Bft) SW 217 33,8 km/h (5 Bft)
05.01.2012 23:07 6,6 C 60 % 0,0 l/m 19,5 km/h (3 Bft) W-SW 249 35,4 km/h (5 Bft)
05.01.2012 23:08 6,6 C 60 % 0,0 l/m 29,8 km/h (5 Bft) NW 305 54,7 km/h (7 Bft)
05.01.2012 23:09 6,6 C 59 % 0,0 l/m 18,7 km/h (3 Bft) S 187 30,6 km/h (5 Bft)
05.01.2012 23:10 6,6 C 59 % 0,0 l/m 21,9 km/h (4 Bft) W-NW 294 35,4 km/h (5 Bft)
05.01.2012 23:11 6,6 C 59 % 0,0 l/m 20,9 km/h (4 Bft) N-NO 33 30,6 km/h (5 Bft)
05.01.2012 23:12 6,6 C 59 % 0,0 l/m 16,7 km/h (3 Bft) NW 305 27,4 km/h (4 Bft)
05.01.2012 23:13 6,6 C 59 % 0,0 l/m 21,6 km/h (4 Bft) W 274 32,2 km/h (5 Bft)
05.01.2012 23:14 6,6 C 59 % 0,0 l/m 17,5 km/h (3 Bft) O-NO 70 32,2 km/h (5 Bft)
05.01.2012 23:15 6,6 C 59 % 0,0 l/m 15,4 km/h (3 Bft) W 270 35,4 km/h (5 Bft)
05.01.2012 23:16 6,6 C 59 % 0,0 l/m 22,7 km/h (4 Bft) W-NW 302 41,8 km/h (6 Bft)
05.01.2012 23:17 6,6 C 59 % 0,0 l/m 21,6 km/h (4 Bft) W 274 30,6 km/h (5 Bft)
05.01.2012 23:18 6,6 C 59 % 0,0 l/m 16,8 km/h (3 Bft) SW 225 25,7 km/h (4 Bft)
05.01.2012 23:19 6,6 C 59 % 0,0 l/m 22,8 km/h (4 Bft) O 99 35,4 km/h (5 Bft)
05.01.2012 23:20 6,6 C 59 % 0,0 l/m 13,4 km/h (3 Bft) O-SO 121 20,9 km/h (4 Bft)
05.01.2012 23:21 6,6 C 59 % 0,0 l/m 18,7 km/h (3 Bft) W-SW 253 27,4 km/h (4 Bft)
05.01.2012 23:22 6,6 C 59 % 0,0 l/m 16,7 km/h (3 Bft) W-SW 242 27,4 km/h (4 Bft)
05.01.2012 23:23 6,6 C 59 % 0,0 l/m 23,0 km/h (4 Bft) O-SO 117 40,2 km/h (6 Bft)
05.01.2012 23:24 6,6 C 59 % 0,0 l/m 15,8 km/h (3 Bft) W-SW 238 20,9 km/h (4 Bft)
05.01.2012 23:25 6,5 C 59 % 0,0 l/m 14,5 km/h (3 Bft) SW 217 20,9 km/h (4 Bft)
05.01.2012 23:26 6,5 C 59 % 0,0 l/m 15,9 km/h (3 Bft) W-NW 297 22,5 km/h (4 Bft)
05.01.2012 23:27 6,5 C 59 % 0,0 l/m 16,4 km/h (3 Bft) W-NW 294 29,0 km/h (5 Bft)
05.01.2012 23:28 6,5 C 59 % 0,0 l/m 16,3 km/h (3 Bft) W-SW 245 32,2 km/h (5 Bft)
05.01.2012 23:29 6,4 C 60 % 0,0 l/m 13,4 km/h (3 Bft) W-NW 302 29,0 km/h (5 Bft)
05.01.2012 23:30 6,4 C 60 % 0,0 l/m 14,3 km/h (3 Bft) SW 235 22,5 km/h (4 Bft)
05.01.2012 23:31 6,4 C 60 % 0,0 l/m 13,8 km/h (3 Bft) N 4 27,4 km/h (4 Bft)
05.01.2012 23:32 6,4 C 60 % 0,0 l/m 19,0 km/h (3 Bft) NO 39 33,8 km/h (5 Bft)
05.01.2012 23:33 6,4 C 60 % 0,0 l/m 20,5 km/h (4 Bft) SO 133 33,8 km/h (5 Bft)
05.01.2012 23:34 6,4 C 60 % 0,0 l/m 18,0 km/h (3 Bft) W-SW 242 35,4 km/h (5 Bft)
05.01.2012 23:35 6,4 C 60 % 0,0 l/m 16,4 km/h (3 Bft) NW 316 40,2 km/h (6 Bft)
05.01.2012 23:36 6,4 C 60 % 0,0 l/m 15,4 km/h (3 Bft) O-NO 63 32,2 km/h (5 Bft)
05.01.2012 23:37 6,4 C 60 % 0,0 l/m 16,0 km/h (3 Bft) W 262 25,7 km/h (4 Bft)
05.01.2012 23:38 6,4 C 60 % 0,0 l/m 16,5 km/h (3 Bft) W-SW 253 35,4 km/h (5 Bft)
05.01.2012 23:39 6,4 C 60 % 0,0 l/m 24,1 km/h (4 Bft) W-SW 245 40,2 km/h (6 Bft)
05.01.2012 23:40 6,4 C 59 % 0,0 l/m 26,4 km/h (4 Bft) SW 219 40,2 km/h (6 Bft)
05.01.2012 23:41 6,4 C 60 % 0,0 l/m 24,5 km/h (4 Bft) S-SW 204 41,8 km/h (6 Bft)
05.01.2012 23:42 6,4 C 59 % 0,0 l/m 27,2 km/h (4 Bft) W 262 38,6 km/h (5 Bft)
05.01.2012 23:43 6,4 C 59 % 0,0 l/m 18,2 km/h (3 Bft) N-NO 25 33,8 km/h (5 Bft)
05.01.2012 23:44 6,4 C 59 % 0,0 l/m 26,1 km/h (4 Bft) S-SW 212 48,3 km/h (6 Bft)
05.01.2012 23:45 6,4 C 59 % 0,0 l/m 23,0 km/h (4 Bft) W-NW 293 40,2 km/h (6 Bft)
05.01.2012 23:46 6,4 C 60 % 0,0 l/m 20,6 km/h (4 Bft) NO 41 32,2 km/h (5 Bft)
05.01.2012 23:47 6,4 C 60 % 0,0 l/m 14,9 km/h (3 Bft) W 273 29,0 km/h (5 Bft)
05.01.2012 23:48 6,4 C 60 % 0,0 l/m 28,8 km/h (4 Bft) NW 312 46,7 km/h (6 Bft)
05.01.2012 23:49 6,4 C 60 % 0,0 l/m 20,3 km/h (4 Bft) W 277 30,6 km/h (5 Bft)
05.01.2012 23:50 6,4 C 60 % 0,0 l/m 16,7 km/h (3 Bft) W-NW 288 29,0 km/h (5 Bft)
05.01.2012 23:51 6,4 C 60 % 0,0 l/m 17,1 km/h (3 Bft) S 172 32,2 km/h (5 Bft)
05.01.2012 23:52 6,4 C 60 % 0,0 l/m 22,7 km/h (4 Bft) W 269 35,4 km/h (5 Bft)
05.01.2012 23:53 6,4 C 60 % 0,0 l/m 16,5 km/h (3 Bft) W 277 25,7 km/h (4 Bft)
05.01.2012 23:54 6,4 C 60 % 0,0 l/m 21,2 km/h (4 Bft) W-SW 239 38,6 km/h (5 Bft)
05.01.2012 23:55 6,4 C 60 % 0,0 l/m 17,2 km/h (3 Bft) W-NW 291 29,0 km/h (5 Bft)
05.01.2012 23:56 6,4 C 61 % 0,0 l/m 15,6 km/h (3 Bft) W 277 24,1 km/h (4 Bft)
05.01.2012 23:57 6,3 C 61 % 0,0 l/m 13,7 km/h (3 Bft) SW 222 24,1 km/h (4 Bft)
05.01.2012 23:58 6,3 C 61 % 0,0 l/m 14,4 km/h (3 Bft) W-SW 242 24,1 km/h (4 Bft)
05.01.2012 23:59 6,3 C 61 % 0,0 l/m 24,3 km/h (4 Bft) N 4 35,4 km/h (5 Bft)
_ Min-Zeit 02:25 04:13 - 02:03 - - 02:03
Minimum _ 3,8 C 48 % - 0,1 km/h (0 Bft) - - 1,6 km/h (1 Bft)
_ Max-Zeit 19:10 18:51 20:43 20:43 - - 20:39
Maximum _ 7,3 C 83 % 0,2 l/m 51,8 km/h
SO (7 Bft)
- - 72,4 km/h
NW (8 Bft)
Durchschnitt _ 5,7 C 63 % #0,2 l/m 18,0 km/h (3 Bft) SW - 27,0 km/h (4 Bft)